<?xml version="1.0" encoding="UTF-8" standalone="no" ?>
<gpx xmlns="http://www.topografix.com/GPX/1/1" xmlns:xsi="http://www.w3.org/2001/XMLSchema-instance" xsi:schemaLocation="http://www.topografix.com/GPX/1/1 http://www.topografix.com/GPX/1/1/gpx.xsd" version="1.1" creator="VisuGPX - https://www.visugpx.com">
  <metadata>
    <name>randonnée pédestre Puttelange</name>
    <desc><![CDATA[belle rando à faire par temps sec de préférence]]></desc>
  </metadata>
  <trk>
    <name><![CDATA[Puttelange]]></name>
    <trkseg>
      <trkpt lat="49.05831" lon="6.93735">
        <ele>236.9</ele>
        <time>2012-10-24T06:33:44Z</time>
      </trkpt>
      <trkpt lat="49.0584" lon="6.93735">
        <ele>235.8</ele>
        <time>2012-10-24T06:34:06Z</time>
      </trkpt>
      <trkpt lat="49.05843" lon="6.93723">
        <ele>236.1</ele>
        <time>2012-10-24T06:34:31Z</time>
      </trkpt>
      <trkpt lat="49.05844" lon="6.9371">
        <ele>235.7</ele>
        <time>2012-10-24T06:36:04Z</time>
      </trkpt>
      <trkpt lat="49.05845" lon="6.93709">
        <ele>235.5</ele>
        <time>2012-10-24T06:36:05Z</time>
      </trkpt>
      <trkpt lat="49.05857" lon="6.93694">
        <ele>235.7</ele>
        <time>2012-10-24T06:36:18Z</time>
      </trkpt>
      <trkpt lat="49.05863" lon="6.93684">
        <ele>235.7</ele>
        <time>2012-10-24T06:36:24Z</time>
      </trkpt>
      <trkpt lat="49.05869" lon="6.93676">
        <ele>236.4</ele>
        <time>2012-10-24T06:36:35Z</time>
      </trkpt>
      <trkpt lat="49.05877" lon="6.93673">
        <ele>236.5</ele>
        <time>2012-10-24T06:36:41Z</time>
      </trkpt>
      <trkpt lat="49.05885" lon="6.93675">
        <ele>237.9</ele>
        <time>2012-10-24T06:36:48Z</time>
      </trkpt>
      <trkpt lat="49.05893" lon="6.93679">
        <ele>237.7</ele>
        <time>2012-10-24T06:36:56Z</time>
      </trkpt>
      <trkpt lat="49.059" lon="6.93685">
        <ele>238.5</ele>
        <time>2012-10-24T06:37:03Z</time>
      </trkpt>
      <trkpt lat="49.05907" lon="6.93693">
        <ele>239.9</ele>
        <time>2012-10-24T06:37:10Z</time>
      </trkpt>
      <trkpt lat="49.05908" lon="6.93695">
        <ele>239.7</ele>
        <time>2012-10-24T06:37:11Z</time>
      </trkpt>
      <trkpt lat="49.05919" lon="6.93712">
        <ele>240.9</ele>
        <time>2012-10-24T06:37:24Z</time>
      </trkpt>
      <trkpt lat="49.05925" lon="6.93722">
        <ele>241.7</ele>
        <time>2012-10-24T06:37:31Z</time>
      </trkpt>
      <trkpt lat="49.05931" lon="6.93732">
        <ele>242.3</ele>
        <time>2012-10-24T06:37:38Z</time>
      </trkpt>
      <trkpt lat="49.05936" lon="6.93742">
        <ele>243</ele>
        <time>2012-10-24T06:37:45Z</time>
      </trkpt>
      <trkpt lat="49.05941" lon="6.93751">
        <ele>243</ele>
        <time>2012-10-24T06:37:51Z</time>
      </trkpt>
      <trkpt lat="49.05947" lon="6.9376">
        <ele>243.9</ele>
        <time>2012-10-24T06:37:57Z</time>
      </trkpt>
      <trkpt lat="49.05953" lon="6.93771">
        <ele>244.9</ele>
        <time>2012-10-24T06:38:04Z</time>
      </trkpt>
      <trkpt lat="49.05958" lon="6.93779">
        <ele>245.7</ele>
        <time>2012-10-24T06:38:10Z</time>
      </trkpt>
      <trkpt lat="49.05963" lon="6.93788">
        <ele>246</ele>
        <time>2012-10-24T06:38:16Z</time>
      </trkpt>
      <trkpt lat="49.05964" lon="6.93789">
        <ele>245.8</ele>
        <time>2012-10-24T06:38:17Z</time>
      </trkpt>
      <trkpt lat="49.05976" lon="6.93807">
        <ele>246.6</ele>
        <time>2012-10-24T06:38:30Z</time>
      </trkpt>
      <trkpt lat="49.05981" lon="6.93817">
        <ele>247.8</ele>
        <time>2012-10-24T06:38:37Z</time>
      </trkpt>
      <trkpt lat="49.05987" lon="6.93826">
        <ele>249</ele>
        <time>2012-10-24T06:38:44Z</time>
      </trkpt>
      <trkpt lat="49.05993" lon="6.93835">
        <ele>249.1</ele>
        <time>2012-10-24T06:38:51Z</time>
      </trkpt>
      <trkpt lat="49.05999" lon="6.93844">
        <ele>249.4</ele>
        <time>2012-10-24T06:38:59Z</time>
      </trkpt>
      <trkpt lat="49.06005" lon="6.93851">
        <ele>249.5</ele>
        <time>2012-10-24T06:39:06Z</time>
      </trkpt>
      <trkpt lat="49.06011" lon="6.93861">
        <ele>250.3</ele>
        <time>2012-10-24T06:39:13Z</time>
      </trkpt>
      <trkpt lat="49.06017" lon="6.9387">
        <ele>251.4</ele>
        <time>2012-10-24T06:39:20Z</time>
      </trkpt>
      <trkpt lat="49.06018" lon="6.93871">
        <ele>251.9</ele>
        <time>2012-10-24T06:39:21Z</time>
      </trkpt>
      <trkpt lat="49.06029" lon="6.93888">
        <ele>253.1</ele>
        <time>2012-10-24T06:39:34Z</time>
      </trkpt>
      <trkpt lat="49.06035" lon="6.93897">
        <ele>253.2</ele>
        <time>2012-10-24T06:39:41Z</time>
      </trkpt>
      <trkpt lat="49.06041" lon="6.93907">
        <ele>253.6</ele>
        <time>2012-10-24T06:39:49Z</time>
      </trkpt>
      <trkpt lat="49.06047" lon="6.93916">
        <ele>253.7</ele>
        <time>2012-10-24T06:39:56Z</time>
      </trkpt>
      <trkpt lat="49.06053" lon="6.93926">
        <ele>255.1</ele>
        <time>2012-10-24T06:40:03Z</time>
      </trkpt>
      <trkpt lat="49.06058" lon="6.93935">
        <ele>254.4</ele>
        <time>2012-10-24T06:40:09Z</time>
      </trkpt>
      <trkpt lat="49.06064" lon="6.93944">
        <ele>255.5</ele>
        <time>2012-10-24T06:40:15Z</time>
      </trkpt>
      <trkpt lat="49.0607" lon="6.93953">
        <ele>255.3</ele>
        <time>2012-10-24T06:40:22Z</time>
      </trkpt>
      <trkpt lat="49.0607" lon="6.93955">
        <ele>255.1</ele>
        <time>2012-10-24T06:40:23Z</time>
      </trkpt>
      <trkpt lat="49.06081" lon="6.93972">
        <ele>258</ele>
        <time>2012-10-24T06:40:35Z</time>
      </trkpt>
      <trkpt lat="49.06087" lon="6.93981">
        <ele>256.3</ele>
        <time>2012-10-24T06:40:41Z</time>
      </trkpt>
      <trkpt lat="49.06092" lon="6.93991">
        <ele>257.4</ele>
        <time>2012-10-24T06:40:47Z</time>
      </trkpt>
      <trkpt lat="49.06096" lon="6.94001">
        <ele>258</ele>
        <time>2012-10-24T06:40:53Z</time>
      </trkpt>
      <trkpt lat="49.06101" lon="6.94011">
        <ele>259.3</ele>
        <time>2012-10-24T06:41:00Z</time>
      </trkpt>
      <trkpt lat="49.06105" lon="6.94022">
        <ele>258.6</ele>
        <time>2012-10-24T06:41:07Z</time>
      </trkpt>
      <trkpt lat="49.06109" lon="6.94034">
        <ele>258</ele>
        <time>2012-10-24T06:41:14Z</time>
      </trkpt>
      <trkpt lat="49.06113" lon="6.94045">
        <ele>258.2</ele>
        <time>2012-10-24T06:41:21Z</time>
      </trkpt>
      <trkpt lat="49.06116" lon="6.94056">
        <ele>257.5</ele>
        <time>2012-10-24T06:41:27Z</time>
      </trkpt>
      <trkpt lat="49.06117" lon="6.94058">
        <ele>257.6</ele>
        <time>2012-10-24T06:41:28Z</time>
      </trkpt>
      <trkpt lat="49.06124" lon="6.9408">
        <ele>258.1</ele>
        <time>2012-10-24T06:41:41Z</time>
      </trkpt>
      <trkpt lat="49.06129" lon="6.94091">
        <ele>257.8</ele>
        <time>2012-10-24T06:41:48Z</time>
      </trkpt>
      <trkpt lat="49.06136" lon="6.94099">
        <ele>257.4</ele>
        <time>2012-10-24T06:41:55Z</time>
      </trkpt>
      <trkpt lat="49.06144" lon="6.941">
        <ele>257.1</ele>
        <time>2012-10-24T06:42:02Z</time>
      </trkpt>
      <trkpt lat="49.06152" lon="6.941">
        <ele>257.1</ele>
        <time>2012-10-24T06:42:09Z</time>
      </trkpt>
      <trkpt lat="49.06161" lon="6.941">
        <ele>256.7</ele>
        <time>2012-10-24T06:42:16Z</time>
      </trkpt>
      <trkpt lat="49.0617" lon="6.94101">
        <ele>257.2</ele>
        <time>2012-10-24T06:42:23Z</time>
      </trkpt>
      <trkpt lat="49.06178" lon="6.94101">
        <ele>257</ele>
        <time>2012-10-24T06:42:30Z</time>
      </trkpt>
      <trkpt lat="49.06179" lon="6.94102">
        <ele>256.8</ele>
        <time>2012-10-24T06:42:31Z</time>
      </trkpt>
      <trkpt lat="49.06194" lon="6.94104">
        <ele>256.6</ele>
        <time>2012-10-24T06:42:44Z</time>
      </trkpt>
      <trkpt lat="49.06202" lon="6.94106">
        <ele>256.7</ele>
        <time>2012-10-24T06:42:53Z</time>
      </trkpt>
      <trkpt lat="49.06211" lon="6.94105">
        <ele>257.4</ele>
        <time>2012-10-24T06:43:01Z</time>
      </trkpt>
      <trkpt lat="49.06219" lon="6.94108">
        <ele>256.3</ele>
        <time>2012-10-24T06:43:07Z</time>
      </trkpt>
      <trkpt lat="49.06227" lon="6.94109">
        <ele>256.9</ele>
        <time>2012-10-24T06:43:15Z</time>
      </trkpt>
      <trkpt lat="49.06236" lon="6.94112">
        <ele>255.8</ele>
        <time>2012-10-24T06:43:24Z</time>
      </trkpt>
      <trkpt lat="49.06244" lon="6.94112">
        <ele>256.3</ele>
        <time>2012-10-24T06:43:31Z</time>
      </trkpt>
      <trkpt lat="49.06245" lon="6.94111">
        <ele>256.3</ele>
        <time>2012-10-24T06:43:32Z</time>
      </trkpt>
      <trkpt lat="49.06259" lon="6.94113">
        <ele>255.8</ele>
        <time>2012-10-24T06:43:41Z</time>
      </trkpt>
      <trkpt lat="49.06267" lon="6.94111">
        <ele>255</ele>
        <time>2012-10-24T06:43:46Z</time>
      </trkpt>
      <trkpt lat="49.06274" lon="6.94105">
        <ele>255.9</ele>
        <time>2012-10-24T06:43:51Z</time>
      </trkpt>
      <trkpt lat="49.0628" lon="6.94096">
        <ele>257.3</ele>
        <time>2012-10-24T06:43:57Z</time>
      </trkpt>
      <trkpt lat="49.06286" lon="6.94087">
        <ele>257</ele>
        <time>2012-10-24T06:44:03Z</time>
      </trkpt>
      <trkpt lat="49.06291" lon="6.94078">
        <ele>257.7</ele>
        <time>2012-10-24T06:44:09Z</time>
      </trkpt>
      <trkpt lat="49.06296" lon="6.94068">
        <ele>258</ele>
        <time>2012-10-24T06:44:15Z</time>
      </trkpt>
      <trkpt lat="49.06301" lon="6.94058">
        <ele>258.2</ele>
        <time>2012-10-24T06:44:21Z</time>
      </trkpt>
      <trkpt lat="49.06307" lon="6.94049">
        <ele>257.5</ele>
        <time>2012-10-24T06:44:27Z</time>
      </trkpt>
      <trkpt lat="49.06312" lon="6.94039">
        <ele>258.5</ele>
        <time>2012-10-24T06:44:33Z</time>
      </trkpt>
      <trkpt lat="49.06313" lon="6.94038">
        <ele>258.8</ele>
        <time>2012-10-24T06:44:34Z</time>
      </trkpt>
      <trkpt lat="49.06323" lon="6.9402">
        <ele>260.2</ele>
        <time>2012-10-24T06:44:45Z</time>
      </trkpt>
      <trkpt lat="49.06328" lon="6.94011">
        <ele>261.6</ele>
        <time>2012-10-24T06:44:51Z</time>
      </trkpt>
      <trkpt lat="49.06334" lon="6.94001">
        <ele>261.9</ele>
        <time>2012-10-24T06:44:57Z</time>
      </trkpt>
      <trkpt lat="49.0634" lon="6.93991">
        <ele>261.8</ele>
        <time>2012-10-24T06:45:03Z</time>
      </trkpt>
      <trkpt lat="49.06345" lon="6.93981">
        <ele>261.9</ele>
        <time>2012-10-24T06:45:09Z</time>
      </trkpt>
      <trkpt lat="49.0635" lon="6.9397">
        <ele>263.3</ele>
        <time>2012-10-24T06:45:16Z</time>
      </trkpt>
      <trkpt lat="49.06355" lon="6.9396">
        <ele>262.1</ele>
        <time>2012-10-24T06:45:22Z</time>
      </trkpt>
      <trkpt lat="49.06361" lon="6.9395">
        <ele>262.8</ele>
        <time>2012-10-24T06:45:28Z</time>
      </trkpt>
      <trkpt lat="49.06367" lon="6.93943">
        <ele>262.3</ele>
        <time>2012-10-24T06:45:34Z</time>
      </trkpt>
      <trkpt lat="49.06368" lon="6.93941">
        <ele>262.8</ele>
        <time>2012-10-24T06:45:35Z</time>
      </trkpt>
      <trkpt lat="49.0638" lon="6.93925">
        <ele>262.2</ele>
        <time>2012-10-24T06:45:46Z</time>
      </trkpt>
      <trkpt lat="49.06386" lon="6.93916">
        <ele>261.8</ele>
        <time>2012-10-24T06:45:52Z</time>
      </trkpt>
      <trkpt lat="49.06392" lon="6.93908">
        <ele>261.7</ele>
        <time>2012-10-24T06:45:58Z</time>
      </trkpt>
      <trkpt lat="49.06398" lon="6.93899">
        <ele>262.1</ele>
        <time>2012-10-24T06:46:04Z</time>
      </trkpt>
      <trkpt lat="49.06403" lon="6.9389">
        <ele>261.8</ele>
        <time>2012-10-24T06:46:10Z</time>
      </trkpt>
      <trkpt lat="49.06409" lon="6.93882">
        <ele>262.4</ele>
        <time>2012-10-24T06:46:16Z</time>
      </trkpt>
      <trkpt lat="49.06414" lon="6.93873">
        <ele>262.4</ele>
        <time>2012-10-24T06:46:22Z</time>
      </trkpt>
      <trkpt lat="49.0642" lon="6.93865">
        <ele>262.7</ele>
        <time>2012-10-24T06:46:28Z</time>
      </trkpt>
      <trkpt lat="49.06426" lon="6.93856">
        <ele>263.4</ele>
        <time>2012-10-24T06:46:34Z</time>
      </trkpt>
      <trkpt lat="49.06432" lon="6.93847">
        <ele>262.9</ele>
        <time>2012-10-24T06:46:40Z</time>
      </trkpt>
      <trkpt lat="49.06433" lon="6.93846">
        <ele>262.7</ele>
        <time>2012-10-24T06:46:41Z</time>
      </trkpt>
      <trkpt lat="49.06444" lon="6.9383">
        <ele>263.2</ele>
        <time>2012-10-24T06:46:52Z</time>
      </trkpt>
      <trkpt lat="49.06449" lon="6.93821">
        <ele>262.5</ele>
        <time>2012-10-24T06:46:58Z</time>
      </trkpt>
      <trkpt lat="49.06455" lon="6.93813">
        <ele>263.3</ele>
        <time>2012-10-24T06:47:05Z</time>
      </trkpt>
      <trkpt lat="49.0646" lon="6.93804">
        <ele>263</ele>
        <time>2012-10-24T06:47:11Z</time>
      </trkpt>
      <trkpt lat="49.06466" lon="6.93796">
        <ele>264</ele>
        <time>2012-10-24T06:47:17Z</time>
      </trkpt>
      <trkpt lat="49.06472" lon="6.93786">
        <ele>263.9</ele>
        <time>2012-10-24T06:47:24Z</time>
      </trkpt>
      <trkpt lat="49.06478" lon="6.93776">
        <ele>263.3</ele>
        <time>2012-10-24T06:47:31Z</time>
      </trkpt>
      <trkpt lat="49.06484" lon="6.93766">
        <ele>263.5</ele>
        <time>2012-10-24T06:47:38Z</time>
      </trkpt>
      <trkpt lat="49.06491" lon="6.93757">
        <ele>263.9</ele>
        <time>2012-10-24T06:47:45Z</time>
      </trkpt>
      <trkpt lat="49.06491" lon="6.93755">
        <ele>264.3</ele>
        <time>2012-10-24T06:47:46Z</time>
      </trkpt>
      <trkpt lat="49.06503" lon="6.93738">
        <ele>263.9</ele>
        <time>2012-10-24T06:47:59Z</time>
      </trkpt>
      <trkpt lat="49.0651" lon="6.93729">
        <ele>263.5</ele>
        <time>2012-10-24T06:48:06Z</time>
      </trkpt>
      <trkpt lat="49.06516" lon="6.9372">
        <ele>262.2</ele>
        <time>2012-10-24T06:48:13Z</time>
      </trkpt>
      <trkpt lat="49.06523" lon="6.93712">
        <ele>262.6</ele>
        <time>2012-10-24T06:48:20Z</time>
      </trkpt>
      <trkpt lat="49.06529" lon="6.93704">
        <ele>261.1</ele>
        <time>2012-10-24T06:48:26Z</time>
      </trkpt>
      <trkpt lat="49.06535" lon="6.93695">
        <ele>260.9</ele>
        <time>2012-10-24T06:48:33Z</time>
      </trkpt>
      <trkpt lat="49.06541" lon="6.93686">
        <ele>260.4</ele>
        <time>2012-10-24T06:48:39Z</time>
      </trkpt>
      <trkpt lat="49.06546" lon="6.93677">
        <ele>259</ele>
        <time>2012-10-24T06:48:45Z</time>
      </trkpt>
      <trkpt lat="49.06551" lon="6.93667">
        <ele>258.8</ele>
        <time>2012-10-24T06:48:51Z</time>
      </trkpt>
      <trkpt lat="49.06551" lon="6.93666">
        <ele>258.5</ele>
        <time>2012-10-24T06:48:52Z</time>
      </trkpt>
      <trkpt lat="49.0656" lon="6.93644">
        <ele>256.1</ele>
        <time>2012-10-24T06:49:05Z</time>
      </trkpt>
      <trkpt lat="49.06564" lon="6.93634">
        <ele>256.4</ele>
        <time>2012-10-24T06:49:11Z</time>
      </trkpt>
      <trkpt lat="49.06568" lon="6.93622">
        <ele>254.8</ele>
        <time>2012-10-24T06:49:18Z</time>
      </trkpt>
      <trkpt lat="49.06572" lon="6.9361">
        <ele>254.1</ele>
        <time>2012-10-24T06:49:25Z</time>
      </trkpt>
      <trkpt lat="49.06576" lon="6.93599">
        <ele>252.8</ele>
        <time>2012-10-24T06:49:31Z</time>
      </trkpt>
      <trkpt lat="49.0658" lon="6.93587">
        <ele>252.1</ele>
        <time>2012-10-24T06:49:38Z</time>
      </trkpt>
      <trkpt lat="49.06585" lon="6.93577">
        <ele>251.9</ele>
        <time>2012-10-24T06:49:44Z</time>
      </trkpt>
      <trkpt lat="49.0659" lon="6.93566">
        <ele>251.1</ele>
        <time>2012-10-24T06:49:50Z</time>
      </trkpt>
      <trkpt lat="49.06595" lon="6.93556">
        <ele>250.1</ele>
        <time>2012-10-24T06:49:56Z</time>
      </trkpt>
      <trkpt lat="49.06595" lon="6.93554">
        <ele>250.1</ele>
        <time>2012-10-24T06:49:57Z</time>
      </trkpt>
      <trkpt lat="49.06604" lon="6.93535">
        <ele>250.9</ele>
        <time>2012-10-24T06:50:08Z</time>
      </trkpt>
      <trkpt lat="49.0661" lon="6.93526">
        <ele>251.3</ele>
        <time>2012-10-24T06:50:14Z</time>
      </trkpt>
      <trkpt lat="49.06614" lon="6.93516">
        <ele>251.1</ele>
        <time>2012-10-24T06:50:20Z</time>
      </trkpt>
      <trkpt lat="49.06619" lon="6.93506">
        <ele>252</ele>
        <time>2012-10-24T06:50:26Z</time>
      </trkpt>
      <trkpt lat="49.06624" lon="6.93496">
        <ele>252.3</ele>
        <time>2012-10-24T06:50:32Z</time>
      </trkpt>
      <trkpt lat="49.06629" lon="6.93487">
        <ele>251.9</ele>
        <time>2012-10-24T06:50:38Z</time>
      </trkpt>
      <trkpt lat="49.06634" lon="6.93478">
        <ele>253.7</ele>
        <time>2012-10-24T06:50:44Z</time>
      </trkpt>
      <trkpt lat="49.06639" lon="6.93468">
        <ele>252.9</ele>
        <time>2012-10-24T06:50:50Z</time>
      </trkpt>
      <trkpt lat="49.06644" lon="6.93458">
        <ele>254</ele>
        <time>2012-10-24T06:50:57Z</time>
      </trkpt>
      <trkpt lat="49.06649" lon="6.93446">
        <ele>254.3</ele>
        <time>2012-10-24T06:51:04Z</time>
      </trkpt>
      <trkpt lat="49.0665" lon="6.93445">
        <ele>254.2</ele>
        <time>2012-10-24T06:51:05Z</time>
      </trkpt>
      <trkpt lat="49.0666" lon="6.93426">
        <ele>255</ele>
        <time>2012-10-24T06:51:17Z</time>
      </trkpt>
      <trkpt lat="49.06668" lon="6.93426">
        <ele>255.5</ele>
        <time>2012-10-24T06:51:26Z</time>
      </trkpt>
      <trkpt lat="49.06674" lon="6.93433">
        <ele>256</ele>
        <time>2012-10-24T06:51:33Z</time>
      </trkpt>
      <trkpt lat="49.06694" lon="6.93452">
        <ele>256</ele>
        <time>2012-10-24T06:51:47Z</time>
      </trkpt>
      <trkpt lat="49.06702" lon="6.93467">
        <ele>256.2</ele>
        <time>2012-10-24T06:51:58Z</time>
      </trkpt>
      <trkpt lat="49.06711" lon="6.93464">
        <ele>257.4</ele>
        <time>2012-10-24T06:52:05Z</time>
      </trkpt>
      <trkpt lat="49.06715" lon="6.93452">
        <ele>257.1</ele>
        <time>2012-10-24T06:52:11Z</time>
      </trkpt>
      <trkpt lat="49.06715" lon="6.9345">
        <ele>257.1</ele>
        <time>2012-10-24T06:52:12Z</time>
      </trkpt>
      <trkpt lat="49.06721" lon="6.93429">
        <ele>258.4</ele>
        <time>2012-10-24T06:52:24Z</time>
      </trkpt>
      <trkpt lat="49.06724" lon="6.93417">
        <ele>259.1</ele>
        <time>2012-10-24T06:52:31Z</time>
      </trkpt>
      <trkpt lat="49.06728" lon="6.93404">
        <ele>260</ele>
        <time>2012-10-24T06:52:38Z</time>
      </trkpt>
      <trkpt lat="49.06731" lon="6.93394">
        <ele>260.5</ele>
        <time>2012-10-24T06:52:44Z</time>
      </trkpt>
      <trkpt lat="49.06735" lon="6.93383">
        <ele>260.9</ele>
        <time>2012-10-24T06:52:50Z</time>
      </trkpt>
      <trkpt lat="49.06739" lon="6.93373">
        <ele>261.3</ele>
        <time>2012-10-24T06:52:56Z</time>
      </trkpt>
      <trkpt lat="49.06743" lon="6.93362">
        <ele>262.7</ele>
        <time>2012-10-24T06:53:02Z</time>
      </trkpt>
      <trkpt lat="49.06747" lon="6.93352">
        <ele>262.6</ele>
        <time>2012-10-24T06:53:08Z</time>
      </trkpt>
      <trkpt lat="49.06751" lon="6.93342">
        <ele>263.4</ele>
        <time>2012-10-24T06:53:14Z</time>
      </trkpt>
      <trkpt lat="49.06752" lon="6.9334">
        <ele>263.3</ele>
        <time>2012-10-24T06:53:15Z</time>
      </trkpt>
      <trkpt lat="49.06759" lon="6.93321">
        <ele>263.4</ele>
        <time>2012-10-24T06:53:26Z</time>
      </trkpt>
      <trkpt lat="49.06763" lon="6.9331">
        <ele>264.2</ele>
        <time>2012-10-24T06:53:32Z</time>
      </trkpt>
      <trkpt lat="49.06767" lon="6.93299">
        <ele>264.5</ele>
        <time>2012-10-24T06:53:38Z</time>
      </trkpt>
      <trkpt lat="49.06771" lon="6.93289">
        <ele>265.1</ele>
        <time>2012-10-24T06:53:44Z</time>
      </trkpt>
      <trkpt lat="49.06775" lon="6.93278">
        <ele>264.6</ele>
        <time>2012-10-24T06:53:51Z</time>
      </trkpt>
      <trkpt lat="49.06779" lon="6.93266">
        <ele>265.2</ele>
        <time>2012-10-24T06:53:58Z</time>
      </trkpt>
      <trkpt lat="49.06783" lon="6.93254">
        <ele>265.7</ele>
        <time>2012-10-24T06:54:05Z</time>
      </trkpt>
      <trkpt lat="49.06788" lon="6.93242">
        <ele>265.6</ele>
        <time>2012-10-24T06:54:12Z</time>
      </trkpt>
      <trkpt lat="49.06792" lon="6.9323">
        <ele>266.2</ele>
        <time>2012-10-24T06:54:19Z</time>
      </trkpt>
      <trkpt lat="49.06792" lon="6.93229">
        <ele>266.4</ele>
        <time>2012-10-24T06:54:20Z</time>
      </trkpt>
      <trkpt lat="49.06799" lon="6.93209">
        <ele>266.4</ele>
        <time>2012-10-24T06:54:31Z</time>
      </trkpt>
      <trkpt lat="49.06802" lon="6.93197">
        <ele>266.3</ele>
        <time>2012-10-24T06:54:37Z</time>
      </trkpt>
      <trkpt lat="49.06806" lon="6.93186">
        <ele>266.4</ele>
        <time>2012-10-24T06:54:43Z</time>
      </trkpt>
      <trkpt lat="49.0681" lon="6.93175">
        <ele>266.4</ele>
        <time>2012-10-24T06:54:49Z</time>
      </trkpt>
      <trkpt lat="49.06813" lon="6.93164">
        <ele>266.2</ele>
        <time>2012-10-24T06:54:55Z</time>
      </trkpt>
      <trkpt lat="49.06816" lon="6.93153">
        <ele>267</ele>
        <time>2012-10-24T06:55:01Z</time>
      </trkpt>
      <trkpt lat="49.0682" lon="6.93143">
        <ele>267.3</ele>
        <time>2012-10-24T06:55:07Z</time>
      </trkpt>
      <trkpt lat="49.06824" lon="6.93132">
        <ele>266.7</ele>
        <time>2012-10-24T06:55:13Z</time>
      </trkpt>
      <trkpt lat="49.06827" lon="6.93121">
        <ele>266.8</ele>
        <time>2012-10-24T06:55:19Z</time>
      </trkpt>
      <trkpt lat="49.0683" lon="6.93109">
        <ele>267</ele>
        <time>2012-10-24T06:55:25Z</time>
      </trkpt>
      <trkpt lat="49.06831" lon="6.93107">
        <ele>267.1</ele>
        <time>2012-10-24T06:55:26Z</time>
      </trkpt>
      <trkpt lat="49.06837" lon="6.93084">
        <ele>266.5</ele>
        <time>2012-10-24T06:55:39Z</time>
      </trkpt>
      <trkpt lat="49.0684" lon="6.93071">
        <ele>266.4</ele>
        <time>2012-10-24T06:55:46Z</time>
      </trkpt>
      <trkpt lat="49.06843" lon="6.93059">
        <ele>266.2</ele>
        <time>2012-10-24T06:55:53Z</time>
      </trkpt>
      <trkpt lat="49.06846" lon="6.93046">
        <ele>265.4</ele>
        <time>2012-10-24T06:56:00Z</time>
      </trkpt>
      <trkpt lat="49.06849" lon="6.93034">
        <ele>265.5</ele>
        <time>2012-10-24T06:56:07Z</time>
      </trkpt>
      <trkpt lat="49.06851" lon="6.93022">
        <ele>264.3</ele>
        <time>2012-10-24T06:56:14Z</time>
      </trkpt>
      <trkpt lat="49.06854" lon="6.9301">
        <ele>264.2</ele>
        <time>2012-10-24T06:56:21Z</time>
      </trkpt>
      <trkpt lat="49.06856" lon="6.92998">
        <ele>263.1</ele>
        <time>2012-10-24T06:56:28Z</time>
      </trkpt>
      <trkpt lat="49.06857" lon="6.92996">
        <ele>262.8</ele>
        <time>2012-10-24T06:56:29Z</time>
      </trkpt>
      <trkpt lat="49.0686" lon="6.92971">
        <ele>260.9</ele>
        <time>2012-10-24T06:56:42Z</time>
      </trkpt>
      <trkpt lat="49.06861" lon="6.92958">
        <ele>259.7</ele>
        <time>2012-10-24T06:56:49Z</time>
      </trkpt>
      <trkpt lat="49.06863" lon="6.92946">
        <ele>259.9</ele>
        <time>2012-10-24T06:56:55Z</time>
      </trkpt>
      <trkpt lat="49.06866" lon="6.92933">
        <ele>258.5</ele>
        <time>2012-10-24T06:57:02Z</time>
      </trkpt>
      <trkpt lat="49.06867" lon="6.92922">
        <ele>257.9</ele>
        <time>2012-10-24T06:57:08Z</time>
      </trkpt>
      <trkpt lat="49.06872" lon="6.9291">
        <ele>256.9</ele>
        <time>2012-10-24T06:57:16Z</time>
      </trkpt>
      <trkpt lat="49.0688" lon="6.92904">
        <ele>256</ele>
        <time>2012-10-24T06:57:23Z</time>
      </trkpt>
      <trkpt lat="49.06888" lon="6.92899">
        <ele>254.9</ele>
        <time>2012-10-24T06:57:30Z</time>
      </trkpt>
      <trkpt lat="49.06889" lon="6.92899">
        <ele>254.8</ele>
        <time>2012-10-24T06:57:31Z</time>
      </trkpt>
      <trkpt lat="49.06903" lon="6.92887">
        <ele>255.1</ele>
        <time>2012-10-24T06:57:43Z</time>
      </trkpt>
      <trkpt lat="49.0691" lon="6.9288">
        <ele>254.7</ele>
        <time>2012-10-24T06:57:50Z</time>
      </trkpt>
      <trkpt lat="49.06916" lon="6.92871">
        <ele>255.6</ele>
        <time>2012-10-24T06:57:56Z</time>
      </trkpt>
      <trkpt lat="49.06922" lon="6.92864">
        <ele>255.6</ele>
        <time>2012-10-24T06:58:02Z</time>
      </trkpt>
      <trkpt lat="49.06928" lon="6.92856">
        <ele>255</ele>
        <time>2012-10-24T06:58:08Z</time>
      </trkpt>
      <trkpt lat="49.06935" lon="6.92851">
        <ele>256.1</ele>
        <time>2012-10-24T06:58:14Z</time>
      </trkpt>
      <trkpt lat="49.06942" lon="6.92845">
        <ele>256.4</ele>
        <time>2012-10-24T06:58:20Z</time>
      </trkpt>
      <trkpt lat="49.0695" lon="6.92839">
        <ele>256.2</ele>
        <time>2012-10-24T06:58:27Z</time>
      </trkpt>
      <trkpt lat="49.06956" lon="6.92831">
        <ele>256.4</ele>
        <time>2012-10-24T06:58:33Z</time>
      </trkpt>
      <trkpt lat="49.06956" lon="6.9283">
        <ele>256.4</ele>
        <time>2012-10-24T06:58:34Z</time>
      </trkpt>
      <trkpt lat="49.06958" lon="6.92806">
        <ele>256.5</ele>
        <time>2012-10-24T06:58:47Z</time>
      </trkpt>
      <trkpt lat="49.06956" lon="6.92793">
        <ele>258.2</ele>
        <time>2012-10-24T06:58:54Z</time>
      </trkpt>
      <trkpt lat="49.06954" lon="6.9278">
        <ele>257.2</ele>
        <time>2012-10-24T06:59:01Z</time>
      </trkpt>
      <trkpt lat="49.06952" lon="6.92769">
        <ele>256.5</ele>
        <time>2012-10-24T06:59:07Z</time>
      </trkpt>
      <trkpt lat="49.06951" lon="6.92756">
        <ele>256.2</ele>
        <time>2012-10-24T06:59:14Z</time>
      </trkpt>
      <trkpt lat="49.06949" lon="6.92742">
        <ele>257</ele>
        <time>2012-10-24T06:59:21Z</time>
      </trkpt>
      <trkpt lat="49.06947" lon="6.9273">
        <ele>256.7</ele>
        <time>2012-10-24T06:59:27Z</time>
      </trkpt>
      <trkpt lat="49.06946" lon="6.92717">
        <ele>256.9</ele>
        <time>2012-10-24T06:59:34Z</time>
      </trkpt>
      <trkpt lat="49.06946" lon="6.92715">
        <ele>257.1</ele>
        <time>2012-10-24T06:59:35Z</time>
      </trkpt>
      <trkpt lat="49.06944" lon="6.92693">
        <ele>256.6</ele>
        <time>2012-10-24T06:59:46Z</time>
      </trkpt>
      <trkpt lat="49.06942" lon="6.9268">
        <ele>256.4</ele>
        <time>2012-10-24T06:59:53Z</time>
      </trkpt>
      <trkpt lat="49.06941" lon="6.92668">
        <ele>256.8</ele>
        <time>2012-10-24T06:59:59Z</time>
      </trkpt>
      <trkpt lat="49.06941" lon="6.92656">
        <ele>256.4</ele>
        <time>2012-10-24T07:00:05Z</time>
      </trkpt>
      <trkpt lat="49.0694" lon="6.92644">
        <ele>256.5</ele>
        <time>2012-10-24T07:00:11Z</time>
      </trkpt>
      <trkpt lat="49.06939" lon="6.92632">
        <ele>255.7</ele>
        <time>2012-10-24T07:00:17Z</time>
      </trkpt>
      <trkpt lat="49.06938" lon="6.9262">
        <ele>255.3</ele>
        <time>2012-10-24T07:00:23Z</time>
      </trkpt>
      <trkpt lat="49.06938" lon="6.92607">
        <ele>254.3</ele>
        <time>2012-10-24T07:00:29Z</time>
      </trkpt>
      <trkpt lat="49.06938" lon="6.92595">
        <ele>254.4</ele>
        <time>2012-10-24T07:00:35Z</time>
      </trkpt>
      <trkpt lat="49.06939" lon="6.92582">
        <ele>253.8</ele>
        <time>2012-10-24T07:00:42Z</time>
      </trkpt>
      <trkpt lat="49.06939" lon="6.9258">
        <ele>253.7</ele>
        <time>2012-10-24T07:00:43Z</time>
      </trkpt>
      <trkpt lat="49.06938" lon="6.92556">
        <ele>252.9</ele>
        <time>2012-10-24T07:00:56Z</time>
      </trkpt>
      <trkpt lat="49.06938" lon="6.92543">
        <ele>252.8</ele>
        <time>2012-10-24T07:01:02Z</time>
      </trkpt>
      <trkpt lat="49.06939" lon="6.9253">
        <ele>252.7</ele>
        <time>2012-10-24T07:01:08Z</time>
      </trkpt>
      <trkpt lat="49.0694" lon="6.92518">
        <ele>252.3</ele>
        <time>2012-10-24T07:01:15Z</time>
      </trkpt>
      <trkpt lat="49.06939" lon="6.92506">
        <ele>251.6</ele>
        <time>2012-10-24T07:01:21Z</time>
      </trkpt>
      <trkpt lat="49.06939" lon="6.92493">
        <ele>250.8</ele>
        <time>2012-10-24T07:01:27Z</time>
      </trkpt>
      <trkpt lat="49.0694" lon="6.9248">
        <ele>249.7</ele>
        <time>2012-10-24T07:01:34Z</time>
      </trkpt>
      <trkpt lat="49.0694" lon="6.92468">
        <ele>250</ele>
        <time>2012-10-24T07:01:40Z</time>
      </trkpt>
      <trkpt lat="49.06941" lon="6.92455">
        <ele>249.2</ele>
        <time>2012-10-24T07:01:46Z</time>
      </trkpt>
      <trkpt lat="49.06941" lon="6.92453">
        <ele>249.1</ele>
        <time>2012-10-24T07:01:47Z</time>
      </trkpt>
      <trkpt lat="49.06953" lon="6.92448">
        <ele>248.6</ele>
        <time>2012-10-24T07:02:06Z</time>
      </trkpt>
      <trkpt lat="49.06954" lon="6.9246">
        <ele>249.8</ele>
        <time>2012-10-24T07:02:16Z</time>
      </trkpt>
      <trkpt lat="49.06952" lon="6.92473">
        <ele>250.5</ele>
        <time>2012-10-24T07:02:23Z</time>
      </trkpt>
      <trkpt lat="49.06952" lon="6.92486">
        <ele>251.1</ele>
        <time>2012-10-24T07:02:30Z</time>
      </trkpt>
      <trkpt lat="49.06953" lon="6.92499">
        <ele>252.7</ele>
        <time>2012-10-24T07:02:37Z</time>
      </trkpt>
      <trkpt lat="49.06952" lon="6.92512">
        <ele>253.8</ele>
        <time>2012-10-24T07:02:44Z</time>
      </trkpt>
      <trkpt lat="49.06951" lon="6.92525">
        <ele>254.5</ele>
        <time>2012-10-24T07:02:51Z</time>
      </trkpt>
      <trkpt lat="49.06952" lon="6.92526">
        <ele>254.5</ele>
        <time>2012-10-24T07:02:52Z</time>
      </trkpt>
      <trkpt lat="49.06951" lon="6.92551">
        <ele>256</ele>
        <time>2012-10-24T07:03:05Z</time>
      </trkpt>
      <trkpt lat="49.06952" lon="6.92563">
        <ele>256.8</ele>
        <time>2012-10-24T07:03:11Z</time>
      </trkpt>
      <trkpt lat="49.06954" lon="6.92577">
        <ele>257.7</ele>
        <time>2012-10-24T07:03:18Z</time>
      </trkpt>
      <trkpt lat="49.06957" lon="6.9259">
        <ele>258.3</ele>
        <time>2012-10-24T07:03:25Z</time>
      </trkpt>
      <trkpt lat="49.06961" lon="6.926">
        <ele>259.2</ele>
        <time>2012-10-24T07:03:31Z</time>
      </trkpt>
      <trkpt lat="49.06965" lon="6.92612">
        <ele>259.4</ele>
        <time>2012-10-24T07:03:38Z</time>
      </trkpt>
      <trkpt lat="49.06968" lon="6.92623">
        <ele>260</ele>
        <time>2012-10-24T07:03:44Z</time>
      </trkpt>
      <trkpt lat="49.0697" lon="6.92636">
        <ele>260.7</ele>
        <time>2012-10-24T07:03:51Z</time>
      </trkpt>
      <trkpt lat="49.06973" lon="6.92647">
        <ele>261.4</ele>
        <time>2012-10-24T07:03:57Z</time>
      </trkpt>
      <trkpt lat="49.06974" lon="6.92649">
        <ele>261.4</ele>
        <time>2012-10-24T07:03:58Z</time>
      </trkpt>
      <trkpt lat="49.06982" lon="6.92667">
        <ele>261.5</ele>
        <time>2012-10-24T07:04:10Z</time>
      </trkpt>
      <trkpt lat="49.06987" lon="6.92678">
        <ele>261.5</ele>
        <time>2012-10-24T07:04:16Z</time>
      </trkpt>
      <trkpt lat="49.0699" lon="6.9269">
        <ele>261.5</ele>
        <time>2012-10-24T07:04:22Z</time>
      </trkpt>
      <trkpt lat="49.06994" lon="6.92701">
        <ele>262.2</ele>
        <time>2012-10-24T07:04:28Z</time>
      </trkpt>
      <trkpt lat="49.07" lon="6.92711">
        <ele>262.4</ele>
        <time>2012-10-24T07:04:34Z</time>
      </trkpt>
      <trkpt lat="49.07006" lon="6.9272">
        <ele>262.4</ele>
        <time>2012-10-24T07:04:40Z</time>
      </trkpt>
      <trkpt lat="49.07013" lon="6.92727">
        <ele>263.1</ele>
        <time>2012-10-24T07:04:46Z</time>
      </trkpt>
      <trkpt lat="49.07021" lon="6.92728">
        <ele>262.9</ele>
        <time>2012-10-24T07:04:52Z</time>
      </trkpt>
      <trkpt lat="49.07029" lon="6.92724">
        <ele>263.6</ele>
        <time>2012-10-24T07:05:00Z</time>
      </trkpt>
      <trkpt lat="49.07031" lon="6.92724">
        <ele>263.5</ele>
        <time>2012-10-24T07:05:01Z</time>
      </trkpt>
      <trkpt lat="49.07046" lon="6.92719">
        <ele>264.1</ele>
        <time>2012-10-24T07:05:14Z</time>
      </trkpt>
      <trkpt lat="49.07054" lon="6.92722">
        <ele>264.5</ele>
        <time>2012-10-24T07:05:21Z</time>
      </trkpt>
      <trkpt lat="49.07062" lon="6.92725">
        <ele>265.1</ele>
        <time>2012-10-24T07:05:26Z</time>
      </trkpt>
      <trkpt lat="49.07069" lon="6.92731">
        <ele>266.1</ele>
        <time>2012-10-24T07:05:33Z</time>
      </trkpt>
      <trkpt lat="49.07076" lon="6.92739">
        <ele>267.6</ele>
        <time>2012-10-24T07:05:40Z</time>
      </trkpt>
      <trkpt lat="49.07081" lon="6.92749">
        <ele>267.4</ele>
        <time>2012-10-24T07:05:47Z</time>
      </trkpt>
      <trkpt lat="49.07086" lon="6.92759">
        <ele>267.5</ele>
        <time>2012-10-24T07:05:56Z</time>
      </trkpt>
      <trkpt lat="49.0709" lon="6.92769">
        <ele>268.6</ele>
        <time>2012-10-24T07:06:02Z</time>
      </trkpt>
      <trkpt lat="49.07092" lon="6.9277">
        <ele>268.8</ele>
        <time>2012-10-24T07:06:03Z</time>
      </trkpt>
      <trkpt lat="49.07103" lon="6.92786">
        <ele>269.6</ele>
        <time>2012-10-24T07:06:16Z</time>
      </trkpt>
      <trkpt lat="49.07111" lon="6.92791">
        <ele>269.9</ele>
        <time>2012-10-24T07:06:23Z</time>
      </trkpt>
      <trkpt lat="49.0712" lon="6.92791">
        <ele>270.2</ele>
        <time>2012-10-24T07:06:30Z</time>
      </trkpt>
      <trkpt lat="49.07127" lon="6.92792">
        <ele>271.6</ele>
        <time>2012-10-24T07:06:36Z</time>
      </trkpt>
      <trkpt lat="49.07135" lon="6.92796">
        <ele>271.7</ele>
        <time>2012-10-24T07:06:43Z</time>
      </trkpt>
      <trkpt lat="49.07141" lon="6.92807">
        <ele>272.4</ele>
        <time>2012-10-24T07:06:50Z</time>
      </trkpt>
      <trkpt lat="49.07147" lon="6.92815">
        <ele>272.8</ele>
        <time>2012-10-24T07:06:56Z</time>
      </trkpt>
      <trkpt lat="49.07151" lon="6.92825">
        <ele>272.4</ele>
        <time>2012-10-24T07:07:02Z</time>
      </trkpt>
      <trkpt lat="49.07156" lon="6.92834">
        <ele>273.8</ele>
        <time>2012-10-24T07:07:08Z</time>
      </trkpt>
      <trkpt lat="49.07157" lon="6.92836">
        <ele>274.2</ele>
        <time>2012-10-24T07:07:09Z</time>
      </trkpt>
      <trkpt lat="49.07171" lon="6.92845">
        <ele>274</ele>
        <time>2012-10-24T07:07:21Z</time>
      </trkpt>
      <trkpt lat="49.07178" lon="6.92849">
        <ele>274.9</ele>
        <time>2012-10-24T07:07:27Z</time>
      </trkpt>
      <trkpt lat="49.07185" lon="6.92858">
        <ele>275.6</ele>
        <time>2012-10-24T07:07:34Z</time>
      </trkpt>
      <trkpt lat="49.07191" lon="6.92865">
        <ele>275.7</ele>
        <time>2012-10-24T07:07:40Z</time>
      </trkpt>
      <trkpt lat="49.07197" lon="6.92874">
        <ele>276.2</ele>
        <time>2012-10-24T07:07:46Z</time>
      </trkpt>
      <trkpt lat="49.07202" lon="6.92885">
        <ele>276.6</ele>
        <time>2012-10-24T07:07:53Z</time>
      </trkpt>
      <trkpt lat="49.07208" lon="6.92892">
        <ele>276.1</ele>
        <time>2012-10-24T07:07:58Z</time>
      </trkpt>
      <trkpt lat="49.07216" lon="6.92895">
        <ele>275.7</ele>
        <time>2012-10-24T07:08:05Z</time>
      </trkpt>
      <trkpt lat="49.07224" lon="6.92898">
        <ele>276.2</ele>
        <time>2012-10-24T07:08:11Z</time>
      </trkpt>
      <trkpt lat="49.07225" lon="6.92898">
        <ele>276.1</ele>
        <time>2012-10-24T07:08:12Z</time>
      </trkpt>
      <trkpt lat="49.07238" lon="6.92913">
        <ele>276.7</ele>
        <time>2012-10-24T07:08:26Z</time>
      </trkpt>
      <trkpt lat="49.07244" lon="6.9292">
        <ele>276.4</ele>
        <time>2012-10-24T07:08:32Z</time>
      </trkpt>
      <trkpt lat="49.07251" lon="6.92928">
        <ele>275.9</ele>
        <time>2012-10-24T07:08:39Z</time>
      </trkpt>
      <trkpt lat="49.07259" lon="6.92928">
        <ele>276.1</ele>
        <time>2012-10-24T07:08:45Z</time>
      </trkpt>
      <trkpt lat="49.07267" lon="6.92932">
        <ele>276.5</ele>
        <time>2012-10-24T07:08:52Z</time>
      </trkpt>
      <trkpt lat="49.0727" lon="6.92944">
        <ele>275.9</ele>
        <time>2012-10-24T07:09:00Z</time>
      </trkpt>
      <trkpt lat="49.07273" lon="6.92956">
        <ele>276</ele>
        <time>2012-10-24T07:09:06Z</time>
      </trkpt>
      <trkpt lat="49.07277" lon="6.92967">
        <ele>276.8</ele>
        <time>2012-10-24T07:09:12Z</time>
      </trkpt>
      <trkpt lat="49.0728" lon="6.92976">
        <ele>276.7</ele>
        <time>2012-10-24T07:09:17Z</time>
      </trkpt>
      <trkpt lat="49.07281" lon="6.92978">
        <ele>276.7</ele>
        <time>2012-10-24T07:09:18Z</time>
      </trkpt>
      <trkpt lat="49.07292" lon="6.92996">
        <ele>276.7</ele>
        <time>2012-10-24T07:09:30Z</time>
      </trkpt>
      <trkpt lat="49.07299" lon="6.93005">
        <ele>276.7</ele>
        <time>2012-10-24T07:09:37Z</time>
      </trkpt>
      <trkpt lat="49.07305" lon="6.93014">
        <ele>276.8</ele>
        <time>2012-10-24T07:09:44Z</time>
      </trkpt>
      <trkpt lat="49.0731" lon="6.93023">
        <ele>277.2</ele>
        <time>2012-10-24T07:09:50Z</time>
      </trkpt>
      <trkpt lat="49.07313" lon="6.93035">
        <ele>277.7</ele>
        <time>2012-10-24T07:09:57Z</time>
      </trkpt>
      <trkpt lat="49.07315" lon="6.93047">
        <ele>277.9</ele>
        <time>2012-10-24T07:10:04Z</time>
      </trkpt>
      <trkpt lat="49.0732" lon="6.93055">
        <ele>277.2</ele>
        <time>2012-10-24T07:10:10Z</time>
      </trkpt>
      <trkpt lat="49.07325" lon="6.93066">
        <ele>277.9</ele>
        <time>2012-10-24T07:10:17Z</time>
      </trkpt>
      <trkpt lat="49.07329" lon="6.93077">
        <ele>278.9</ele>
        <time>2012-10-24T07:10:23Z</time>
      </trkpt>
      <trkpt lat="49.07329" lon="6.93078">
        <ele>278.9</ele>
        <time>2012-10-24T07:10:24Z</time>
      </trkpt>
      <trkpt lat="49.07341" lon="6.93091">
        <ele>278</ele>
        <time>2012-10-24T07:10:36Z</time>
      </trkpt>
      <trkpt lat="49.07347" lon="6.93098">
        <ele>277.6</ele>
        <time>2012-10-24T07:10:41Z</time>
      </trkpt>
      <trkpt lat="49.07353" lon="6.93106">
        <ele>278.4</ele>
        <time>2012-10-24T07:10:48Z</time>
      </trkpt>
      <trkpt lat="49.07359" lon="6.93117">
        <ele>278.8</ele>
        <time>2012-10-24T07:10:55Z</time>
      </trkpt>
      <trkpt lat="49.07366" lon="6.93126">
        <ele>278.5</ele>
        <time>2012-10-24T07:11:02Z</time>
      </trkpt>
      <trkpt lat="49.07372" lon="6.93133">
        <ele>278.7</ele>
        <time>2012-10-24T07:11:08Z</time>
      </trkpt>
      <trkpt lat="49.07378" lon="6.93142">
        <ele>279.5</ele>
        <time>2012-10-24T07:11:15Z</time>
      </trkpt>
      <trkpt lat="49.07383" lon="6.93152">
        <ele>280.3</ele>
        <time>2012-10-24T07:11:24Z</time>
      </trkpt>
      <trkpt lat="49.07384" lon="6.93153">
        <ele>279.9</ele>
        <time>2012-10-24T07:11:25Z</time>
      </trkpt>
      <trkpt lat="49.07395" lon="6.93168">
        <ele>279.3</ele>
        <time>2012-10-24T07:11:35Z</time>
      </trkpt>
      <trkpt lat="49.07402" lon="6.93174">
        <ele>279</ele>
        <time>2012-10-24T07:11:41Z</time>
      </trkpt>
      <trkpt lat="49.07408" lon="6.93181">
        <ele>279.2</ele>
        <time>2012-10-24T07:11:49Z</time>
      </trkpt>
      <trkpt lat="49.07415" lon="6.93189">
        <ele>278.3</ele>
        <time>2012-10-24T07:11:56Z</time>
      </trkpt>
      <trkpt lat="49.0742" lon="6.932">
        <ele>278.7</ele>
        <time>2012-10-24T07:12:04Z</time>
      </trkpt>
      <trkpt lat="49.07426" lon="6.93209">
        <ele>280.2</ele>
        <time>2012-10-24T07:12:10Z</time>
      </trkpt>
      <trkpt lat="49.0743" lon="6.9322">
        <ele>280.6</ele>
        <time>2012-10-24T07:12:16Z</time>
      </trkpt>
      <trkpt lat="49.07435" lon="6.9323">
        <ele>280.6</ele>
        <time>2012-10-24T07:12:22Z</time>
      </trkpt>
      <trkpt lat="49.07437" lon="6.93243">
        <ele>281.5</ele>
        <time>2012-10-24T07:12:29Z</time>
      </trkpt>
      <trkpt lat="49.07438" lon="6.93246">
        <ele>281.7</ele>
        <time>2012-10-24T07:12:30Z</time>
      </trkpt>
      <trkpt lat="49.07446" lon="6.93263">
        <ele>282.2</ele>
        <time>2012-10-24T07:12:41Z</time>
      </trkpt>
      <trkpt lat="49.07454" lon="6.93271">
        <ele>282</ele>
        <time>2012-10-24T07:12:48Z</time>
      </trkpt>
      <trkpt lat="49.0746" lon="6.93279">
        <ele>282.6</ele>
        <time>2012-10-24T07:12:55Z</time>
      </trkpt>
      <trkpt lat="49.07463" lon="6.9329">
        <ele>282.5</ele>
        <time>2012-10-24T07:13:01Z</time>
      </trkpt>
      <trkpt lat="49.07468" lon="6.933">
        <ele>282.8</ele>
        <time>2012-10-24T07:13:07Z</time>
      </trkpt>
      <trkpt lat="49.07474" lon="6.93308">
        <ele>283.7</ele>
        <time>2012-10-24T07:13:12Z</time>
      </trkpt>
      <trkpt lat="49.0748" lon="6.93317">
        <ele>283</ele>
        <time>2012-10-24T07:13:18Z</time>
      </trkpt>
      <trkpt lat="49.07485" lon="6.93325">
        <ele>282.9</ele>
        <time>2012-10-24T07:13:25Z</time>
      </trkpt>
      <trkpt lat="49.07493" lon="6.9333">
        <ele>281.7</ele>
        <time>2012-10-24T07:13:32Z</time>
      </trkpt>
      <trkpt lat="49.07494" lon="6.93331">
        <ele>281.9</ele>
        <time>2012-10-24T07:13:33Z</time>
      </trkpt>
      <trkpt lat="49.07506" lon="6.93347">
        <ele>282.2</ele>
        <time>2012-10-24T07:13:46Z</time>
      </trkpt>
      <trkpt lat="49.07514" lon="6.93352">
        <ele>282.3</ele>
        <time>2012-10-24T07:13:53Z</time>
      </trkpt>
      <trkpt lat="49.07522" lon="6.93351">
        <ele>282.3</ele>
        <time>2012-10-24T07:14:01Z</time>
      </trkpt>
      <trkpt lat="49.0753" lon="6.93349">
        <ele>283.8</ele>
        <time>2012-10-24T07:14:09Z</time>
      </trkpt>
      <trkpt lat="49.07539" lon="6.93349">
        <ele>283.1</ele>
        <time>2012-10-24T07:14:16Z</time>
      </trkpt>
      <trkpt lat="49.07547" lon="6.93346">
        <ele>282.5</ele>
        <time>2012-10-24T07:14:21Z</time>
      </trkpt>
      <trkpt lat="49.07555" lon="6.93346">
        <ele>282</ele>
        <time>2012-10-24T07:14:28Z</time>
      </trkpt>
      <trkpt lat="49.07563" lon="6.93345">
        <ele>281.7</ele>
        <time>2012-10-24T07:14:36Z</time>
      </trkpt>
      <trkpt lat="49.07564" lon="6.93345">
        <ele>281.6</ele>
        <time>2012-10-24T07:14:37Z</time>
      </trkpt>
      <trkpt lat="49.07581" lon="6.93345">
        <ele>281.8</ele>
        <time>2012-10-24T07:14:51Z</time>
      </trkpt>
      <trkpt lat="49.07589" lon="6.93346">
        <ele>281.9</ele>
        <time>2012-10-24T07:14:57Z</time>
      </trkpt>
      <trkpt lat="49.07597" lon="6.93346">
        <ele>282.3</ele>
        <time>2012-10-24T07:15:02Z</time>
      </trkpt>
      <trkpt lat="49.07605" lon="6.93349">
        <ele>281.4</ele>
        <time>2012-10-24T07:15:08Z</time>
      </trkpt>
      <trkpt lat="49.07613" lon="6.93351">
        <ele>280.5</ele>
        <time>2012-10-24T07:15:15Z</time>
      </trkpt>
      <trkpt lat="49.07622" lon="6.93353">
        <ele>280</ele>
        <time>2012-10-24T07:15:23Z</time>
      </trkpt>
      <trkpt lat="49.0763" lon="6.93353">
        <ele>278</ele>
        <time>2012-10-24T07:15:31Z</time>
      </trkpt>
      <trkpt lat="49.07638" lon="6.93349">
        <ele>277.2</ele>
        <time>2012-10-24T07:15:41Z</time>
      </trkpt>
      <trkpt lat="49.07639" lon="6.93349">
        <ele>277.3</ele>
        <time>2012-10-24T07:15:42Z</time>
      </trkpt>
      <trkpt lat="49.07654" lon="6.93346">
        <ele>274.8</ele>
        <time>2012-10-24T07:15:55Z</time>
      </trkpt>
      <trkpt lat="49.07662" lon="6.93344">
        <ele>274</ele>
        <time>2012-10-24T07:16:02Z</time>
      </trkpt>
      <trkpt lat="49.0767" lon="6.93344">
        <ele>272.5</ele>
        <time>2012-10-24T07:16:09Z</time>
      </trkpt>
      <trkpt lat="49.07679" lon="6.9334">
        <ele>271</ele>
        <time>2012-10-24T07:16:17Z</time>
      </trkpt>
      <trkpt lat="49.07686" lon="6.93334">
        <ele>268.8</ele>
        <time>2012-10-24T07:16:25Z</time>
      </trkpt>
      <trkpt lat="49.07693" lon="6.93332">
        <ele>267.4</ele>
        <time>2012-10-24T07:16:32Z</time>
      </trkpt>
      <trkpt lat="49.07702" lon="6.93331">
        <ele>267</ele>
        <time>2012-10-24T07:16:41Z</time>
      </trkpt>
      <trkpt lat="49.07711" lon="6.93329">
        <ele>265.6</ele>
        <time>2012-10-24T07:16:49Z</time>
      </trkpt>
      <trkpt lat="49.07712" lon="6.93329">
        <ele>265.5</ele>
        <time>2012-10-24T07:16:50Z</time>
      </trkpt>
      <trkpt lat="49.07727" lon="6.93333">
        <ele>264.4</ele>
        <time>2012-10-24T07:17:05Z</time>
      </trkpt>
      <trkpt lat="49.07735" lon="6.93336">
        <ele>264.4</ele>
        <time>2012-10-24T07:17:12Z</time>
      </trkpt>
      <trkpt lat="49.07743" lon="6.93336">
        <ele>263.6</ele>
        <time>2012-10-24T07:17:17Z</time>
      </trkpt>
      <trkpt lat="49.07751" lon="6.93339">
        <ele>262.2</ele>
        <time>2012-10-24T07:17:24Z</time>
      </trkpt>
      <trkpt lat="49.07759" lon="6.93342">
        <ele>262.8</ele>
        <time>2012-10-24T07:17:30Z</time>
      </trkpt>
      <trkpt lat="49.07766" lon="6.93349">
        <ele>262.1</ele>
        <time>2012-10-24T07:17:37Z</time>
      </trkpt>
      <trkpt lat="49.07774" lon="6.9335">
        <ele>261.7</ele>
        <time>2012-10-24T07:19:20Z</time>
      </trkpt>
      <trkpt lat="49.07775" lon="6.9335">
        <ele>261.6</ele>
        <time>2012-10-24T07:19:21Z</time>
      </trkpt>
      <trkpt lat="49.07791" lon="6.93345">
        <ele>260.2</ele>
        <time>2012-10-24T07:19:37Z</time>
      </trkpt>
      <trkpt lat="49.078" lon="6.93344">
        <ele>260.3</ele>
        <time>2012-10-24T07:19:45Z</time>
      </trkpt>
      <trkpt lat="49.07808" lon="6.93338">
        <ele>260.5</ele>
        <time>2012-10-24T07:19:52Z</time>
      </trkpt>
      <trkpt lat="49.07812" lon="6.9335">
        <ele>260.2</ele>
        <time>2012-10-24T07:20:03Z</time>
      </trkpt>
      <trkpt lat="49.07816" lon="6.93361">
        <ele>259.5</ele>
        <time>2012-10-24T07:20:12Z</time>
      </trkpt>
      <trkpt lat="49.07815" lon="6.93374">
        <ele>259</ele>
        <time>2012-10-24T07:20:22Z</time>
      </trkpt>
      <trkpt lat="49.07815" lon="6.93375">
        <ele>258.9</ele>
        <time>2012-10-24T07:20:23Z</time>
      </trkpt>
      <trkpt lat="49.07808" lon="6.93398">
        <ele>259.7</ele>
        <time>2012-10-24T07:20:38Z</time>
      </trkpt>
      <trkpt lat="49.07803" lon="6.93408">
        <ele>260.5</ele>
        <time>2012-10-24T07:20:44Z</time>
      </trkpt>
      <trkpt lat="49.07799" lon="6.9342">
        <ele>261</ele>
        <time>2012-10-24T07:20:51Z</time>
      </trkpt>
      <trkpt lat="49.07794" lon="6.93431">
        <ele>260.9</ele>
        <time>2012-10-24T07:20:58Z</time>
      </trkpt>
      <trkpt lat="49.07788" lon="6.9344">
        <ele>261.8</ele>
        <time>2012-10-24T07:21:05Z</time>
      </trkpt>
      <trkpt lat="49.07783" lon="6.93449">
        <ele>262.6</ele>
        <time>2012-10-24T07:21:12Z</time>
      </trkpt>
      <trkpt lat="49.07779" lon="6.93461">
        <ele>262.1</ele>
        <time>2012-10-24T07:21:18Z</time>
      </trkpt>
      <trkpt lat="49.07778" lon="6.93473">
        <ele>263.2</ele>
        <time>2012-10-24T07:21:24Z</time>
      </trkpt>
      <trkpt lat="49.07778" lon="6.93475">
        <ele>263.1</ele>
        <time>2012-10-24T07:21:25Z</time>
      </trkpt>
      <trkpt lat="49.07776" lon="6.93499">
        <ele>263.8</ele>
        <time>2012-10-24T07:21:38Z</time>
      </trkpt>
      <trkpt lat="49.07776" lon="6.93512">
        <ele>264</ele>
        <time>2012-10-24T07:21:45Z</time>
      </trkpt>
      <trkpt lat="49.07776" lon="6.93525">
        <ele>264.1</ele>
        <time>2012-10-24T07:21:51Z</time>
      </trkpt>
      <trkpt lat="49.07776" lon="6.93537">
        <ele>265</ele>
        <time>2012-10-24T07:21:57Z</time>
      </trkpt>
      <trkpt lat="49.07777" lon="6.93549">
        <ele>265.1</ele>
        <time>2012-10-24T07:22:03Z</time>
      </trkpt>
      <trkpt lat="49.07776" lon="6.93562">
        <ele>264.9</ele>
        <time>2012-10-24T07:22:09Z</time>
      </trkpt>
      <trkpt lat="49.07777" lon="6.93575">
        <ele>266.6</ele>
        <time>2012-10-24T07:22:15Z</time>
      </trkpt>
      <trkpt lat="49.07778" lon="6.93588">
        <ele>267.2</ele>
        <time>2012-10-24T07:22:21Z</time>
      </trkpt>
      <trkpt lat="49.07778" lon="6.93601">
        <ele>267.2</ele>
        <time>2012-10-24T07:22:27Z</time>
      </trkpt>
      <trkpt lat="49.07778" lon="6.93603">
        <ele>266.8</ele>
        <time>2012-10-24T07:22:28Z</time>
      </trkpt>
      <trkpt lat="49.07777" lon="6.93626">
        <ele>268.2</ele>
        <time>2012-10-24T07:22:39Z</time>
      </trkpt>
      <trkpt lat="49.07774" lon="6.93638">
        <ele>268.9</ele>
        <time>2012-10-24T07:22:46Z</time>
      </trkpt>
      <trkpt lat="49.0777" lon="6.93648">
        <ele>270.3</ele>
        <time>2012-10-24T07:22:52Z</time>
      </trkpt>
      <trkpt lat="49.07764" lon="6.93655">
        <ele>270.1</ele>
        <time>2012-10-24T07:22:58Z</time>
      </trkpt>
      <trkpt lat="49.07757" lon="6.93662">
        <ele>270.1</ele>
        <time>2012-10-24T07:23:04Z</time>
      </trkpt>
      <trkpt lat="49.07751" lon="6.93669">
        <ele>271.3</ele>
        <time>2012-10-24T07:23:10Z</time>
      </trkpt>
      <trkpt lat="49.07744" lon="6.93676">
        <ele>272</ele>
        <time>2012-10-24T07:23:16Z</time>
      </trkpt>
      <trkpt lat="49.07737" lon="6.93684">
        <ele>271.4</ele>
        <time>2012-10-24T07:23:23Z</time>
      </trkpt>
      <trkpt lat="49.07729" lon="6.93689">
        <ele>272.8</ele>
        <time>2012-10-24T07:23:30Z</time>
      </trkpt>
      <trkpt lat="49.07728" lon="6.9369">
        <ele>272.7</ele>
        <time>2012-10-24T07:23:31Z</time>
      </trkpt>
      <trkpt lat="49.07712" lon="6.93697">
        <ele>273.9</ele>
        <time>2012-10-24T07:23:43Z</time>
      </trkpt>
      <trkpt lat="49.07705" lon="6.93702">
        <ele>275</ele>
        <time>2012-10-24T07:23:48Z</time>
      </trkpt>
      <trkpt lat="49.07697" lon="6.93707">
        <ele>275.2</ele>
        <time>2012-10-24T07:23:54Z</time>
      </trkpt>
      <trkpt lat="49.07689" lon="6.93712">
        <ele>276.4</ele>
        <time>2012-10-24T07:24:00Z</time>
      </trkpt>
      <trkpt lat="49.07681" lon="6.93717">
        <ele>277.4</ele>
        <time>2012-10-24T07:24:06Z</time>
      </trkpt>
      <trkpt lat="49.07674" lon="6.93722">
        <ele>277.7</ele>
        <time>2012-10-24T07:24:12Z</time>
      </trkpt>
      <trkpt lat="49.07667" lon="6.93728">
        <ele>278.3</ele>
        <time>2012-10-24T07:24:19Z</time>
      </trkpt>
      <trkpt lat="49.07663" lon="6.93739">
        <ele>279.4</ele>
        <time>2012-10-24T07:24:26Z</time>
      </trkpt>
      <trkpt lat="49.07668" lon="6.93751">
        <ele>280.3</ele>
        <time>2012-10-24T07:24:32Z</time>
      </trkpt>
      <trkpt lat="49.07669" lon="6.93752">
        <ele>280.1</ele>
        <time>2012-10-24T07:24:33Z</time>
      </trkpt>
      <trkpt lat="49.07679" lon="6.93772">
        <ele>278.9</ele>
        <time>2012-10-24T07:24:44Z</time>
      </trkpt>
      <trkpt lat="49.07683" lon="6.93783">
        <ele>278.8</ele>
        <time>2012-10-24T07:24:50Z</time>
      </trkpt>
      <trkpt lat="49.07687" lon="6.93795">
        <ele>278.4</ele>
        <time>2012-10-24T07:24:56Z</time>
      </trkpt>
      <trkpt lat="49.07689" lon="6.93808">
        <ele>279</ele>
        <time>2012-10-24T07:25:02Z</time>
      </trkpt>
      <trkpt lat="49.07692" lon="6.93821">
        <ele>278.1</ele>
        <time>2012-10-24T07:25:08Z</time>
      </trkpt>
      <trkpt lat="49.07695" lon="6.93833">
        <ele>278.3</ele>
        <time>2012-10-24T07:25:14Z</time>
      </trkpt>
      <trkpt lat="49.07697" lon="6.93846">
        <ele>278</ele>
        <time>2012-10-24T07:25:20Z</time>
      </trkpt>
      <trkpt lat="49.07699" lon="6.93858">
        <ele>277.6</ele>
        <time>2012-10-24T07:25:26Z</time>
      </trkpt>
      <trkpt lat="49.077" lon="6.9387">
        <ele>277.4</ele>
        <time>2012-10-24T07:25:32Z</time>
      </trkpt>
      <trkpt lat="49.07701" lon="6.93882">
        <ele>277.2</ele>
        <time>2012-10-24T07:25:38Z</time>
      </trkpt>
      <trkpt lat="49.07701" lon="6.93884">
        <ele>277</ele>
        <time>2012-10-24T07:25:39Z</time>
      </trkpt>
      <trkpt lat="49.07704" lon="6.93906">
        <ele>276.8</ele>
        <time>2012-10-24T07:25:50Z</time>
      </trkpt>
      <trkpt lat="49.07706" lon="6.93917">
        <ele>276.5</ele>
        <time>2012-10-24T07:25:56Z</time>
      </trkpt>
      <trkpt lat="49.07708" lon="6.93929">
        <ele>276.4</ele>
        <time>2012-10-24T07:26:02Z</time>
      </trkpt>
      <trkpt lat="49.0771" lon="6.93941">
        <ele>276.3</ele>
        <time>2012-10-24T07:26:08Z</time>
      </trkpt>
      <trkpt lat="49.0771" lon="6.93953">
        <ele>276.6</ele>
        <time>2012-10-24T07:26:14Z</time>
      </trkpt>
      <trkpt lat="49.07712" lon="6.93965">
        <ele>276.9</ele>
        <time>2012-10-24T07:26:20Z</time>
      </trkpt>
      <trkpt lat="49.07715" lon="6.93977">
        <ele>276.8</ele>
        <time>2012-10-24T07:26:27Z</time>
      </trkpt>
      <trkpt lat="49.07718" lon="6.93988">
        <ele>275.9</ele>
        <time>2012-10-24T07:26:33Z</time>
      </trkpt>
      <trkpt lat="49.07724" lon="6.93999">
        <ele>276</ele>
        <time>2012-10-24T07:26:51Z</time>
      </trkpt>
      <trkpt lat="49.07725" lon="6.94">
        <ele>276.1</ele>
        <time>2012-10-24T07:26:52Z</time>
      </trkpt>
      <trkpt lat="49.07731" lon="6.94022">
        <ele>275.1</ele>
        <time>2012-10-24T07:27:05Z</time>
      </trkpt>
      <trkpt lat="49.07736" lon="6.94032">
        <ele>275.1</ele>
        <time>2012-10-24T07:27:11Z</time>
      </trkpt>
      <trkpt lat="49.07742" lon="6.94043">
        <ele>275.2</ele>
        <time>2012-10-24T07:27:18Z</time>
      </trkpt>
      <trkpt lat="49.07748" lon="6.94051">
        <ele>274.6</ele>
        <time>2012-10-24T07:27:24Z</time>
      </trkpt>
      <trkpt lat="49.07753" lon="6.94061">
        <ele>273.8</ele>
        <time>2012-10-24T07:27:30Z</time>
      </trkpt>
      <trkpt lat="49.07757" lon="6.94071">
        <ele>274.6</ele>
        <time>2012-10-24T07:27:36Z</time>
      </trkpt>
      <trkpt lat="49.07762" lon="6.94082">
        <ele>274.5</ele>
        <time>2012-10-24T07:27:42Z</time>
      </trkpt>
      <trkpt lat="49.07766" lon="6.94092">
        <ele>274.5</ele>
        <time>2012-10-24T07:27:47Z</time>
      </trkpt>
      <trkpt lat="49.07771" lon="6.94102">
        <ele>274.3</ele>
        <time>2012-10-24T07:27:53Z</time>
      </trkpt>
      <trkpt lat="49.07772" lon="6.94104">
        <ele>274.7</ele>
        <time>2012-10-24T07:27:54Z</time>
      </trkpt>
      <trkpt lat="49.07781" lon="6.94124">
        <ele>274.5</ele>
        <time>2012-10-24T07:28:05Z</time>
      </trkpt>
      <trkpt lat="49.07785" lon="6.94134">
        <ele>273.8</ele>
        <time>2012-10-24T07:28:11Z</time>
      </trkpt>
      <trkpt lat="49.0779" lon="6.94145">
        <ele>273.4</ele>
        <time>2012-10-24T07:28:17Z</time>
      </trkpt>
      <trkpt lat="49.07794" lon="6.94157">
        <ele>274.2</ele>
        <time>2012-10-24T07:28:24Z</time>
      </trkpt>
      <trkpt lat="49.07798" lon="6.94168">
        <ele>274.5</ele>
        <time>2012-10-24T07:28:30Z</time>
      </trkpt>
      <trkpt lat="49.07803" lon="6.9418">
        <ele>274</ele>
        <time>2012-10-24T07:28:37Z</time>
      </trkpt>
      <trkpt lat="49.07808" lon="6.9419">
        <ele>273.5</ele>
        <time>2012-10-24T07:28:43Z</time>
      </trkpt>
      <trkpt lat="49.07812" lon="6.942">
        <ele>272.1</ele>
        <time>2012-10-24T07:28:48Z</time>
      </trkpt>
      <trkpt lat="49.07817" lon="6.94211">
        <ele>273.3</ele>
        <time>2012-10-24T07:28:54Z</time>
      </trkpt>
      <trkpt lat="49.07818" lon="6.94213">
        <ele>273.3</ele>
        <time>2012-10-24T07:28:55Z</time>
      </trkpt>
      <trkpt lat="49.07827" lon="6.94233">
        <ele>273.5</ele>
        <time>2012-10-24T07:29:06Z</time>
      </trkpt>
      <trkpt lat="49.07832" lon="6.94244">
        <ele>273.4</ele>
        <time>2012-10-24T07:29:12Z</time>
      </trkpt>
      <trkpt lat="49.07835" lon="6.94254">
        <ele>272.4</ele>
        <time>2012-10-24T07:29:18Z</time>
      </trkpt>
      <trkpt lat="49.07839" lon="6.94266">
        <ele>272.6</ele>
        <time>2012-10-24T07:29:25Z</time>
      </trkpt>
      <trkpt lat="49.07843" lon="6.94276">
        <ele>271.8</ele>
        <time>2012-10-24T07:29:33Z</time>
      </trkpt>
      <trkpt lat="49.07847" lon="6.94287">
        <ele>271.7</ele>
        <time>2012-10-24T07:29:40Z</time>
      </trkpt>
      <trkpt lat="49.07856" lon="6.94288">
        <ele>271.3</ele>
        <time>2012-10-24T07:30:57Z</time>
      </trkpt>
      <trkpt lat="49.07857" lon="6.94287">
        <ele>271.2</ele>
        <time>2012-10-24T07:30:58Z</time>
      </trkpt>
      <trkpt lat="49.0787" lon="6.94273">
        <ele>270.9</ele>
        <time>2012-10-24T07:31:12Z</time>
      </trkpt>
      <trkpt lat="49.07877" lon="6.94266">
        <ele>269.8</ele>
        <time>2012-10-24T07:31:19Z</time>
      </trkpt>
      <trkpt lat="49.07884" lon="6.9426">
        <ele>268.9</ele>
        <time>2012-10-24T07:31:26Z</time>
      </trkpt>
      <trkpt lat="49.07891" lon="6.94253">
        <ele>267.7</ele>
        <time>2012-10-24T07:31:33Z</time>
      </trkpt>
      <trkpt lat="49.07898" lon="6.94247">
        <ele>266.7</ele>
        <time>2012-10-24T07:31:40Z</time>
      </trkpt>
      <trkpt lat="49.07905" lon="6.9424">
        <ele>264.2</ele>
        <time>2012-10-24T07:31:47Z</time>
      </trkpt>
      <trkpt lat="49.07913" lon="6.94233">
        <ele>263.3</ele>
        <time>2012-10-24T07:31:54Z</time>
      </trkpt>
      <trkpt lat="49.0792" lon="6.94227">
        <ele>262</ele>
        <time>2012-10-24T07:32:01Z</time>
      </trkpt>
      <trkpt lat="49.07921" lon="6.94226">
        <ele>261.8</ele>
        <time>2012-10-24T07:32:02Z</time>
      </trkpt>
      <trkpt lat="49.07934" lon="6.94212">
        <ele>260.7</ele>
        <time>2012-10-24T07:32:14Z</time>
      </trkpt>
      <trkpt lat="49.07941" lon="6.94205">
        <ele>259.9</ele>
        <time>2012-10-24T07:32:20Z</time>
      </trkpt>
      <trkpt lat="49.07948" lon="6.94199">
        <ele>258.2</ele>
        <time>2012-10-24T07:32:26Z</time>
      </trkpt>
      <trkpt lat="49.07955" lon="6.94192">
        <ele>257.1</ele>
        <time>2012-10-24T07:32:32Z</time>
      </trkpt>
      <trkpt lat="49.07962" lon="6.94187">
        <ele>256</ele>
        <time>2012-10-24T07:32:38Z</time>
      </trkpt>
      <trkpt lat="49.07969" lon="6.9418">
        <ele>255.6</ele>
        <time>2012-10-24T07:32:45Z</time>
      </trkpt>
      <trkpt lat="49.07976" lon="6.94171">
        <ele>255.9</ele>
        <time>2012-10-24T07:32:53Z</time>
      </trkpt>
      <trkpt lat="49.07983" lon="6.94164">
        <ele>254.8</ele>
        <time>2012-10-24T07:33:00Z</time>
      </trkpt>
      <trkpt lat="49.07991" lon="6.94159">
        <ele>253.2</ele>
        <time>2012-10-24T07:33:06Z</time>
      </trkpt>
      <trkpt lat="49.07992" lon="6.94158">
        <ele>253.1</ele>
        <time>2012-10-24T07:33:07Z</time>
      </trkpt>
      <trkpt lat="49.08007" lon="6.94152">
        <ele>254.5</ele>
        <time>2012-10-24T07:33:20Z</time>
      </trkpt>
      <trkpt lat="49.08015" lon="6.94151">
        <ele>254.6</ele>
        <time>2012-10-24T07:33:26Z</time>
      </trkpt>
      <trkpt lat="49.08024" lon="6.94149">
        <ele>255.1</ele>
        <time>2012-10-24T07:33:32Z</time>
      </trkpt>
      <trkpt lat="49.08031" lon="6.94147">
        <ele>255.2</ele>
        <time>2012-10-24T07:33:37Z</time>
      </trkpt>
      <trkpt lat="49.08039" lon="6.94146">
        <ele>254.6</ele>
        <time>2012-10-24T07:33:42Z</time>
      </trkpt>
      <trkpt lat="49.08048" lon="6.94146">
        <ele>255</ele>
        <time>2012-10-24T07:33:48Z</time>
      </trkpt>
      <trkpt lat="49.08055" lon="6.94146">
        <ele>255.3</ele>
        <time>2012-10-24T07:33:53Z</time>
      </trkpt>
      <trkpt lat="49.08064" lon="6.94145">
        <ele>255.3</ele>
        <time>2012-10-24T07:33:58Z</time>
      </trkpt>
      <trkpt lat="49.08072" lon="6.94146">
        <ele>256.2</ele>
        <time>2012-10-24T07:34:03Z</time>
      </trkpt>
      <trkpt lat="49.0808" lon="6.94146">
        <ele>256.7</ele>
        <time>2012-10-24T07:34:08Z</time>
      </trkpt>
      <trkpt lat="49.08082" lon="6.94146">
        <ele>256.5</ele>
        <time>2012-10-24T07:34:09Z</time>
      </trkpt>
      <trkpt lat="49.08097" lon="6.94147">
        <ele>257</ele>
        <time>2012-10-24T07:34:18Z</time>
      </trkpt>
      <trkpt lat="49.08105" lon="6.94146">
        <ele>257.2</ele>
        <time>2012-10-24T07:34:23Z</time>
      </trkpt>
      <trkpt lat="49.08113" lon="6.94146">
        <ele>257.8</ele>
        <time>2012-10-24T07:34:28Z</time>
      </trkpt>
      <trkpt lat="49.08121" lon="6.94144">
        <ele>257.3</ele>
        <time>2012-10-24T07:34:33Z</time>
      </trkpt>
      <trkpt lat="49.08129" lon="6.94144">
        <ele>255.5</ele>
        <time>2012-10-24T07:34:39Z</time>
      </trkpt>
      <trkpt lat="49.08137" lon="6.94144">
        <ele>255.9</ele>
        <time>2012-10-24T07:34:44Z</time>
      </trkpt>
      <trkpt lat="49.08145" lon="6.94142">
        <ele>255.4</ele>
        <time>2012-10-24T07:34:50Z</time>
      </trkpt>
      <trkpt lat="49.08153" lon="6.94142">
        <ele>256.6</ele>
        <time>2012-10-24T07:34:57Z</time>
      </trkpt>
      <trkpt lat="49.0816" lon="6.94139">
        <ele>256.4</ele>
        <time>2012-10-24T07:35:02Z</time>
      </trkpt>
      <trkpt lat="49.08168" lon="6.94138">
        <ele>256.4</ele>
        <time>2012-10-24T07:35:07Z</time>
      </trkpt>
      <trkpt lat="49.08176" lon="6.94137">
        <ele>256.3</ele>
        <time>2012-10-24T07:35:12Z</time>
      </trkpt>
      <trkpt lat="49.08178" lon="6.94137">
        <ele>256.3</ele>
        <time>2012-10-24T07:35:13Z</time>
      </trkpt>
      <trkpt lat="49.08192" lon="6.94135">
        <ele>256.9</ele>
        <time>2012-10-24T07:35:23Z</time>
      </trkpt>
      <trkpt lat="49.08201" lon="6.94133">
        <ele>256.8</ele>
        <time>2012-10-24T07:35:28Z</time>
      </trkpt>
      <trkpt lat="49.08209" lon="6.94133">
        <ele>256.9</ele>
        <time>2012-10-24T07:35:34Z</time>
      </trkpt>
      <trkpt lat="49.08217" lon="6.94134">
        <ele>258.2</ele>
        <time>2012-10-24T07:35:41Z</time>
      </trkpt>
      <trkpt lat="49.08225" lon="6.94136">
        <ele>257.9</ele>
        <time>2012-10-24T07:35:48Z</time>
      </trkpt>
      <trkpt lat="49.08233" lon="6.9414">
        <ele>257.8</ele>
        <time>2012-10-24T07:35:56Z</time>
      </trkpt>
      <trkpt lat="49.08241" lon="6.94143">
        <ele>258.5</ele>
        <time>2012-10-24T07:36:02Z</time>
      </trkpt>
      <trkpt lat="49.08249" lon="6.94147">
        <ele>258</ele>
        <time>2012-10-24T07:36:08Z</time>
      </trkpt>
      <trkpt lat="49.08256" lon="6.94153">
        <ele>258.9</ele>
        <time>2012-10-24T07:36:14Z</time>
      </trkpt>
      <trkpt lat="49.08258" lon="6.94153">
        <ele>258.1</ele>
        <time>2012-10-24T07:36:15Z</time>
      </trkpt>
      <trkpt lat="49.08272" lon="6.94163">
        <ele>256.6</ele>
        <time>2012-10-24T07:36:26Z</time>
      </trkpt>
      <trkpt lat="49.08279" lon="6.94169">
        <ele>257.4</ele>
        <time>2012-10-24T07:36:31Z</time>
      </trkpt>
      <trkpt lat="49.08285" lon="6.94177">
        <ele>256.6</ele>
        <time>2012-10-24T07:36:36Z</time>
      </trkpt>
      <trkpt lat="49.08292" lon="6.94186">
        <ele>255.6</ele>
        <time>2012-10-24T07:36:42Z</time>
      </trkpt>
      <trkpt lat="49.08299" lon="6.94195">
        <ele>255.6</ele>
        <time>2012-10-24T07:36:48Z</time>
      </trkpt>
      <trkpt lat="49.08306" lon="6.94203">
        <ele>255.7</ele>
        <time>2012-10-24T07:36:53Z</time>
      </trkpt>
      <trkpt lat="49.08312" lon="6.94211">
        <ele>255.3</ele>
        <time>2012-10-24T07:36:58Z</time>
      </trkpt>
      <trkpt lat="49.08317" lon="6.94221">
        <ele>254.9</ele>
        <time>2012-10-24T07:37:05Z</time>
      </trkpt>
      <trkpt lat="49.08323" lon="6.9423">
        <ele>254.2</ele>
        <time>2012-10-24T07:37:14Z</time>
      </trkpt>
      <trkpt lat="49.0833" lon="6.9424">
        <ele>253.3</ele>
        <time>2012-10-24T07:37:23Z</time>
      </trkpt>
      <trkpt lat="49.08331" lon="6.94241">
        <ele>253.3</ele>
        <time>2012-10-24T07:37:24Z</time>
      </trkpt>
      <trkpt lat="49.08343" lon="6.94257">
        <ele>252.6</ele>
        <time>2012-10-24T07:37:36Z</time>
      </trkpt>
      <trkpt lat="49.08349" lon="6.94265">
        <ele>251.7</ele>
        <time>2012-10-24T07:37:41Z</time>
      </trkpt>
      <trkpt lat="49.08356" lon="6.94272">
        <ele>251.6</ele>
        <time>2012-10-24T07:37:47Z</time>
      </trkpt>
      <trkpt lat="49.08363" lon="6.94279">
        <ele>251.6</ele>
        <time>2012-10-24T07:37:53Z</time>
      </trkpt>
      <trkpt lat="49.0837" lon="6.94287">
        <ele>251.3</ele>
        <time>2012-10-24T07:38:01Z</time>
      </trkpt>
      <trkpt lat="49.08377" lon="6.94294">
        <ele>251.4</ele>
        <time>2012-10-24T07:38:06Z</time>
      </trkpt>
      <trkpt lat="49.08384" lon="6.943">
        <ele>251.1</ele>
        <time>2012-10-24T07:38:12Z</time>
      </trkpt>
      <trkpt lat="49.0839" lon="6.94309">
        <ele>251.1</ele>
        <time>2012-10-24T07:38:19Z</time>
      </trkpt>
      <trkpt lat="49.08397" lon="6.94317">
        <ele>250.7</ele>
        <time>2012-10-24T07:38:24Z</time>
      </trkpt>
      <trkpt lat="49.08398" lon="6.94318">
        <ele>250.6</ele>
        <time>2012-10-24T07:38:25Z</time>
      </trkpt>
      <trkpt lat="49.08408" lon="6.94331">
        <ele>249.8</ele>
        <time>2012-10-24T07:38:33Z</time>
      </trkpt>
      <trkpt lat="49.08415" lon="6.9434">
        <ele>249.8</ele>
        <time>2012-10-24T07:38:38Z</time>
      </trkpt>
      <trkpt lat="49.08421" lon="6.94348">
        <ele>250.1</ele>
        <time>2012-10-24T07:38:43Z</time>
      </trkpt>
      <trkpt lat="49.08427" lon="6.94357">
        <ele>250.7</ele>
        <time>2012-10-24T07:38:49Z</time>
      </trkpt>
      <trkpt lat="49.08432" lon="6.94368">
        <ele>250.5</ele>
        <time>2012-10-24T07:38:55Z</time>
      </trkpt>
      <trkpt lat="49.08438" lon="6.94375">
        <ele>250</ele>
        <time>2012-10-24T07:39:01Z</time>
      </trkpt>
      <trkpt lat="49.08444" lon="6.94384">
        <ele>250.4</ele>
        <time>2012-10-24T07:39:07Z</time>
      </trkpt>
      <trkpt lat="49.0845" lon="6.94393">
        <ele>249.9</ele>
        <time>2012-10-24T07:39:13Z</time>
      </trkpt>
      <trkpt lat="49.08456" lon="6.94403">
        <ele>250.1</ele>
        <time>2012-10-24T07:39:19Z</time>
      </trkpt>
      <trkpt lat="49.08462" lon="6.94412">
        <ele>249.3</ele>
        <time>2012-10-24T07:39:25Z</time>
      </trkpt>
      <trkpt lat="49.08463" lon="6.94414">
        <ele>249.2</ele>
        <time>2012-10-24T07:39:26Z</time>
      </trkpt>
      <trkpt lat="49.08472" lon="6.94433">
        <ele>249.4</ele>
        <time>2012-10-24T07:39:40Z</time>
      </trkpt>
      <trkpt lat="49.08477" lon="6.94442">
        <ele>249</ele>
        <time>2012-10-24T07:39:45Z</time>
      </trkpt>
      <trkpt lat="49.08483" lon="6.9445">
        <ele>248.5</ele>
        <time>2012-10-24T07:39:50Z</time>
      </trkpt>
      <trkpt lat="49.08488" lon="6.94459">
        <ele>248.9</ele>
        <time>2012-10-24T07:39:55Z</time>
      </trkpt>
      <trkpt lat="49.08494" lon="6.94468">
        <ele>248.1</ele>
        <time>2012-10-24T07:40:00Z</time>
      </trkpt>
      <trkpt lat="49.08499" lon="6.94478">
        <ele>248.4</ele>
        <time>2012-10-24T07:40:06Z</time>
      </trkpt>
      <trkpt lat="49.08505" lon="6.94488">
        <ele>248.4</ele>
        <time>2012-10-24T07:40:12Z</time>
      </trkpt>
      <trkpt lat="49.0851" lon="6.94497">
        <ele>247.4</ele>
        <time>2012-10-24T07:40:17Z</time>
      </trkpt>
      <trkpt lat="49.08516" lon="6.94506">
        <ele>247.8</ele>
        <time>2012-10-24T07:40:22Z</time>
      </trkpt>
      <trkpt lat="49.08521" lon="6.94515">
        <ele>247.4</ele>
        <time>2012-10-24T07:40:27Z</time>
      </trkpt>
      <trkpt lat="49.08522" lon="6.94517">
        <ele>247</ele>
        <time>2012-10-24T07:40:28Z</time>
      </trkpt>
      <trkpt lat="49.08532" lon="6.94535">
        <ele>247.3</ele>
        <time>2012-10-24T07:40:39Z</time>
      </trkpt>
      <trkpt lat="49.08535" lon="6.94546">
        <ele>247.5</ele>
        <time>2012-10-24T07:40:46Z</time>
      </trkpt>
      <trkpt lat="49.0854" lon="6.94556">
        <ele>248.7</ele>
        <time>2012-10-24T07:40:52Z</time>
      </trkpt>
      <trkpt lat="49.08545" lon="6.94567">
        <ele>247.9</ele>
        <time>2012-10-24T07:40:59Z</time>
      </trkpt>
      <trkpt lat="49.0855" lon="6.94575">
        <ele>248.3</ele>
        <time>2012-10-24T07:41:04Z</time>
      </trkpt>
      <trkpt lat="49.08554" lon="6.94586">
        <ele>248.2</ele>
        <time>2012-10-24T07:41:11Z</time>
      </trkpt>
      <trkpt lat="49.08561" lon="6.94592">
        <ele>248.1</ele>
        <time>2012-10-24T07:41:17Z</time>
      </trkpt>
      <trkpt lat="49.08567" lon="6.946">
        <ele>248.6</ele>
        <time>2012-10-24T07:41:22Z</time>
      </trkpt>
      <trkpt lat="49.08572" lon="6.94609">
        <ele>248.5</ele>
        <time>2012-10-24T07:41:28Z</time>
      </trkpt>
      <trkpt lat="49.08573" lon="6.9461">
        <ele>248.4</ele>
        <time>2012-10-24T07:41:29Z</time>
      </trkpt>
      <trkpt lat="49.08583" lon="6.94628">
        <ele>249.5</ele>
        <time>2012-10-24T07:41:41Z</time>
      </trkpt>
      <trkpt lat="49.0859" lon="6.94637">
        <ele>248.4</ele>
        <time>2012-10-24T07:41:47Z</time>
      </trkpt>
      <trkpt lat="49.08596" lon="6.94645">
        <ele>248.7</ele>
        <time>2012-10-24T07:41:53Z</time>
      </trkpt>
      <trkpt lat="49.08601" lon="6.94654">
        <ele>248.1</ele>
        <time>2012-10-24T07:41:59Z</time>
      </trkpt>
      <trkpt lat="49.08607" lon="6.94663">
        <ele>249</ele>
        <time>2012-10-24T07:42:05Z</time>
      </trkpt>
      <trkpt lat="49.08612" lon="6.94673">
        <ele>248.7</ele>
        <time>2012-10-24T07:42:12Z</time>
      </trkpt>
      <trkpt lat="49.08617" lon="6.94685">
        <ele>248.7</ele>
        <time>2012-10-24T07:42:20Z</time>
      </trkpt>
      <trkpt lat="49.08623" lon="6.94695">
        <ele>248.3</ele>
        <time>2012-10-24T07:42:27Z</time>
      </trkpt>
      <trkpt lat="49.08628" lon="6.94703">
        <ele>248.3</ele>
        <time>2012-10-24T07:42:32Z</time>
      </trkpt>
      <trkpt lat="49.08629" lon="6.94705">
        <ele>248.4</ele>
        <time>2012-10-24T07:42:33Z</time>
      </trkpt>
      <trkpt lat="49.0864" lon="6.94722">
        <ele>248.5</ele>
        <time>2012-10-24T07:42:44Z</time>
      </trkpt>
      <trkpt lat="49.08644" lon="6.94733">
        <ele>248.3</ele>
        <time>2012-10-24T07:42:53Z</time>
      </trkpt>
      <trkpt lat="49.0865" lon="6.94742">
        <ele>248.5</ele>
        <time>2012-10-24T07:43:01Z</time>
      </trkpt>
      <trkpt lat="49.08658" lon="6.94747">
        <ele>248.3</ele>
        <time>2012-10-24T07:43:10Z</time>
      </trkpt>
      <trkpt lat="49.08666" lon="6.94753">
        <ele>248.5</ele>
        <time>2012-10-24T07:43:19Z</time>
      </trkpt>
      <trkpt lat="49.08673" lon="6.94759">
        <ele>247.9</ele>
        <time>2012-10-24T07:43:28Z</time>
      </trkpt>
      <trkpt lat="49.0868" lon="6.94766">
        <ele>247.7</ele>
        <time>2012-10-24T07:43:36Z</time>
      </trkpt>
      <trkpt lat="49.08681" lon="6.94767">
        <ele>247.8</ele>
        <time>2012-10-24T07:43:37Z</time>
      </trkpt>
      <trkpt lat="49.08695" lon="6.94781">
        <ele>247.3</ele>
        <time>2012-10-24T07:43:51Z</time>
      </trkpt>
      <trkpt lat="49.08701" lon="6.94789">
        <ele>247.7</ele>
        <time>2012-10-24T07:43:57Z</time>
      </trkpt>
      <trkpt lat="49.08707" lon="6.94798">
        <ele>247.7</ele>
        <time>2012-10-24T07:44:03Z</time>
      </trkpt>
      <trkpt lat="49.08714" lon="6.94806">
        <ele>247.9</ele>
        <time>2012-10-24T07:44:09Z</time>
      </trkpt>
      <trkpt lat="49.08721" lon="6.94813">
        <ele>247.5</ele>
        <time>2012-10-24T07:44:14Z</time>
      </trkpt>
      <trkpt lat="49.08727" lon="6.94823">
        <ele>248.1</ele>
        <time>2012-10-24T07:44:22Z</time>
      </trkpt>
      <trkpt lat="49.08732" lon="6.94832">
        <ele>248.5</ele>
        <time>2012-10-24T07:44:29Z</time>
      </trkpt>
      <trkpt lat="49.08738" lon="6.94842">
        <ele>248.3</ele>
        <time>2012-10-24T07:44:37Z</time>
      </trkpt>
      <trkpt lat="49.08739" lon="6.94844">
        <ele>248.3</ele>
        <time>2012-10-24T07:44:38Z</time>
      </trkpt>
      <trkpt lat="49.08749" lon="6.94862">
        <ele>249.3</ele>
        <time>2012-10-24T07:44:50Z</time>
      </trkpt>
      <trkpt lat="49.08754" lon="6.94872">
        <ele>248.7</ele>
        <time>2012-10-24T07:44:58Z</time>
      </trkpt>
      <trkpt lat="49.0876" lon="6.94882">
        <ele>249.4</ele>
        <time>2012-10-24T07:45:06Z</time>
      </trkpt>
      <trkpt lat="49.08767" lon="6.9489">
        <ele>248.8</ele>
        <time>2012-10-24T07:45:11Z</time>
      </trkpt>
      <trkpt lat="49.08773" lon="6.94899">
        <ele>249.1</ele>
        <time>2012-10-24T07:45:16Z</time>
      </trkpt>
      <trkpt lat="49.0878" lon="6.94907">
        <ele>249.4</ele>
        <time>2012-10-24T07:45:21Z</time>
      </trkpt>
      <trkpt lat="49.08787" lon="6.94916">
        <ele>249.3</ele>
        <time>2012-10-24T07:45:26Z</time>
      </trkpt>
      <trkpt lat="49.0879" lon="6.94927">
        <ele>249.4</ele>
        <time>2012-10-24T07:45:32Z</time>
      </trkpt>
      <trkpt lat="49.08795" lon="6.94937">
        <ele>249.5</ele>
        <time>2012-10-24T07:45:37Z</time>
      </trkpt>
      <trkpt lat="49.08802" lon="6.94945">
        <ele>249.2</ele>
        <time>2012-10-24T07:45:43Z</time>
      </trkpt>
      <trkpt lat="49.08803" lon="6.94946">
        <ele>249.3</ele>
        <time>2012-10-24T07:45:44Z</time>
      </trkpt>
      <trkpt lat="49.08812" lon="6.94967">
        <ele>249.1</ele>
        <time>2012-10-24T07:45:56Z</time>
      </trkpt>
      <trkpt lat="49.08817" lon="6.94977">
        <ele>248.5</ele>
        <time>2012-10-24T07:46:01Z</time>
      </trkpt>
      <trkpt lat="49.08821" lon="6.94987">
        <ele>248.9</ele>
        <time>2012-10-24T07:46:06Z</time>
      </trkpt>
      <trkpt lat="49.08826" lon="6.94998">
        <ele>248.9</ele>
        <time>2012-10-24T07:46:11Z</time>
      </trkpt>
      <trkpt lat="49.0883" lon="6.95008">
        <ele>248.6</ele>
        <time>2012-10-24T07:46:16Z</time>
      </trkpt>
      <trkpt lat="49.08835" lon="6.95018">
        <ele>248.5</ele>
        <time>2012-10-24T07:46:22Z</time>
      </trkpt>
      <trkpt lat="49.08839" lon="6.95029">
        <ele>248.6</ele>
        <time>2012-10-24T07:46:28Z</time>
      </trkpt>
      <trkpt lat="49.08842" lon="6.95041">
        <ele>248.1</ele>
        <time>2012-10-24T07:46:34Z</time>
      </trkpt>
      <trkpt lat="49.08847" lon="6.95051">
        <ele>248.2</ele>
        <time>2012-10-24T07:46:40Z</time>
      </trkpt>
      <trkpt lat="49.08852" lon="6.9506">
        <ele>247.4</ele>
        <time>2012-10-24T07:46:46Z</time>
      </trkpt>
      <trkpt lat="49.08853" lon="6.95061">
        <ele>247.8</ele>
        <time>2012-10-24T07:46:47Z</time>
      </trkpt>
      <trkpt lat="49.08864" lon="6.95079">
        <ele>247.6</ele>
        <time>2012-10-24T07:47:00Z</time>
      </trkpt>
      <trkpt lat="49.08869" lon="6.9509">
        <ele>247.1</ele>
        <time>2012-10-24T07:47:06Z</time>
      </trkpt>
      <trkpt lat="49.08873" lon="6.95102">
        <ele>248.4</ele>
        <time>2012-10-24T07:47:12Z</time>
      </trkpt>
      <trkpt lat="49.08877" lon="6.95114">
        <ele>247.1</ele>
        <time>2012-10-24T07:47:18Z</time>
      </trkpt>
      <trkpt lat="49.08881" lon="6.95126">
        <ele>246.7</ele>
        <time>2012-10-24T07:47:24Z</time>
      </trkpt>
      <trkpt lat="49.08885" lon="6.95137">
        <ele>246.3</ele>
        <time>2012-10-24T07:47:30Z</time>
      </trkpt>
      <trkpt lat="49.0889" lon="6.95146">
        <ele>247.2</ele>
        <time>2012-10-24T07:47:35Z</time>
      </trkpt>
      <trkpt lat="49.08895" lon="6.95155">
        <ele>246.8</ele>
        <time>2012-10-24T07:47:40Z</time>
      </trkpt>
      <trkpt lat="49.089" lon="6.95165">
        <ele>246.3</ele>
        <time>2012-10-24T07:47:45Z</time>
      </trkpt>
      <trkpt lat="49.08903" lon="6.95176">
        <ele>245.9</ele>
        <time>2012-10-24T07:47:51Z</time>
      </trkpt>
      <trkpt lat="49.08903" lon="6.95178">
        <ele>245.9</ele>
        <time>2012-10-24T07:47:52Z</time>
      </trkpt>
      <trkpt lat="49.08913" lon="6.95195">
        <ele>245.1</ele>
        <time>2012-10-24T07:48:03Z</time>
      </trkpt>
      <trkpt lat="49.08918" lon="6.95204">
        <ele>245.9</ele>
        <time>2012-10-24T07:48:09Z</time>
      </trkpt>
      <trkpt lat="49.08924" lon="6.95213">
        <ele>246.5</ele>
        <time>2012-10-24T07:48:16Z</time>
      </trkpt>
      <trkpt lat="49.08931" lon="6.95222">
        <ele>246.2</ele>
        <time>2012-10-24T07:48:24Z</time>
      </trkpt>
      <trkpt lat="49.08936" lon="6.95232">
        <ele>245.4</ele>
        <time>2012-10-24T07:48:31Z</time>
      </trkpt>
      <trkpt lat="49.08939" lon="6.95244">
        <ele>245</ele>
        <time>2012-10-24T07:48:40Z</time>
      </trkpt>
      <trkpt lat="49.08944" lon="6.95255">
        <ele>244.7</ele>
        <time>2012-10-24T07:49:13Z</time>
      </trkpt>
      <trkpt lat="49.08945" lon="6.95255">
        <ele>244.8</ele>
        <time>2012-10-24T07:49:14Z</time>
      </trkpt>
      <trkpt lat="49.08956" lon="6.9527">
        <ele>244.7</ele>
        <time>2012-10-24T07:49:59Z</time>
      </trkpt>
      <trkpt lat="49.08957" lon="6.95284">
        <ele>244.1</ele>
        <time>2012-10-24T07:50:07Z</time>
      </trkpt>
      <trkpt lat="49.08959" lon="6.95297">
        <ele>243.6</ele>
        <time>2012-10-24T07:50:16Z</time>
      </trkpt>
      <trkpt lat="49.08959" lon="6.95299">
        <ele>243.7</ele>
        <time>2012-10-24T07:50:17Z</time>
      </trkpt>
      <trkpt lat="49.08964" lon="6.95321">
        <ele>242</ele>
        <time>2012-10-24T07:50:31Z</time>
      </trkpt>
      <trkpt lat="49.08968" lon="6.95333">
        <ele>241.4</ele>
        <time>2012-10-24T07:50:37Z</time>
      </trkpt>
      <trkpt lat="49.08972" lon="6.95344">
        <ele>241.3</ele>
        <time>2012-10-24T07:50:43Z</time>
      </trkpt>
      <trkpt lat="49.08976" lon="6.95355">
        <ele>240</ele>
        <time>2012-10-24T07:50:49Z</time>
      </trkpt>
      <trkpt lat="49.0898" lon="6.95366">
        <ele>240.4</ele>
        <time>2012-10-24T07:50:54Z</time>
      </trkpt>
      <trkpt lat="49.08983" lon="6.95377">
        <ele>240.3</ele>
        <time>2012-10-24T07:51:00Z</time>
      </trkpt>
      <trkpt lat="49.08987" lon="6.95388">
        <ele>239.3</ele>
        <time>2012-10-24T07:51:05Z</time>
      </trkpt>
      <trkpt lat="49.08992" lon="6.95397">
        <ele>238.3</ele>
        <time>2012-10-24T07:51:11Z</time>
      </trkpt>
      <trkpt lat="49.08998" lon="6.95406">
        <ele>238.4</ele>
        <time>2012-10-24T07:51:17Z</time>
      </trkpt>
      <trkpt lat="49.08999" lon="6.95407">
        <ele>238.5</ele>
        <time>2012-10-24T07:51:18Z</time>
      </trkpt>
      <trkpt lat="49.09008" lon="6.95426">
        <ele>238.3</ele>
        <time>2012-10-24T07:51:29Z</time>
      </trkpt>
      <trkpt lat="49.09013" lon="6.95435">
        <ele>237.8</ele>
        <time>2012-10-24T07:51:35Z</time>
      </trkpt>
      <trkpt lat="49.09019" lon="6.95446">
        <ele>238.3</ele>
        <time>2012-10-24T07:51:42Z</time>
      </trkpt>
      <trkpt lat="49.09023" lon="6.95456">
        <ele>238.3</ele>
        <time>2012-10-24T07:51:48Z</time>
      </trkpt>
      <trkpt lat="49.09028" lon="6.95467">
        <ele>238.4</ele>
        <time>2012-10-24T07:51:55Z</time>
      </trkpt>
      <trkpt lat="49.09033" lon="6.95476">
        <ele>238.5</ele>
        <time>2012-10-24T07:52:01Z</time>
      </trkpt>
      <trkpt lat="49.0904" lon="6.95486">
        <ele>238.9</ele>
        <time>2012-10-24T07:52:08Z</time>
      </trkpt>
      <trkpt lat="49.09044" lon="6.95495">
        <ele>239.6</ele>
        <time>2012-10-24T07:52:14Z</time>
      </trkpt>
      <trkpt lat="49.0905" lon="6.95505">
        <ele>239.1</ele>
        <time>2012-10-24T07:52:20Z</time>
      </trkpt>
      <trkpt lat="49.0905" lon="6.95507">
        <ele>239.1</ele>
        <time>2012-10-24T07:52:21Z</time>
      </trkpt>
      <trkpt lat="49.09058" lon="6.95525">
        <ele>238.7</ele>
        <time>2012-10-24T07:52:32Z</time>
      </trkpt>
      <trkpt lat="49.09063" lon="6.95536">
        <ele>239.4</ele>
        <time>2012-10-24T07:52:39Z</time>
      </trkpt>
      <trkpt lat="49.09066" lon="6.95549">
        <ele>239.1</ele>
        <time>2012-10-24T07:52:45Z</time>
      </trkpt>
      <trkpt lat="49.09064" lon="6.95561">
        <ele>239.1</ele>
        <time>2012-10-24T07:52:53Z</time>
      </trkpt>
      <trkpt lat="49.09057" lon="6.95569">
        <ele>239.5</ele>
        <time>2012-10-24T07:53:01Z</time>
      </trkpt>
      <trkpt lat="49.09049" lon="6.95575">
        <ele>239.3</ele>
        <time>2012-10-24T07:53:08Z</time>
      </trkpt>
      <trkpt lat="49.09042" lon="6.9558">
        <ele>238.6</ele>
        <time>2012-10-24T07:53:14Z</time>
      </trkpt>
      <trkpt lat="49.09034" lon="6.95585">
        <ele>238.3</ele>
        <time>2012-10-24T07:53:20Z</time>
      </trkpt>
      <trkpt lat="49.09026" lon="6.95588">
        <ele>236.8</ele>
        <time>2012-10-24T07:53:27Z</time>
      </trkpt>
      <trkpt lat="49.09025" lon="6.95589">
        <ele>237</ele>
        <time>2012-10-24T07:53:28Z</time>
      </trkpt>
      <trkpt lat="49.0901" lon="6.95597">
        <ele>235.2</ele>
        <time>2012-10-24T07:53:41Z</time>
      </trkpt>
      <trkpt lat="49.09001" lon="6.95602">
        <ele>234.1</ele>
        <time>2012-10-24T07:53:48Z</time>
      </trkpt>
      <trkpt lat="49.08993" lon="6.95606">
        <ele>233.7</ele>
        <time>2012-10-24T07:53:54Z</time>
      </trkpt>
      <trkpt lat="49.08986" lon="6.9561">
        <ele>232.7</ele>
        <time>2012-10-24T07:53:59Z</time>
      </trkpt>
      <trkpt lat="49.08978" lon="6.95614">
        <ele>232.1</ele>
        <time>2012-10-24T07:54:04Z</time>
      </trkpt>
      <trkpt lat="49.08971" lon="6.95618">
        <ele>231.4</ele>
        <time>2012-10-24T07:54:09Z</time>
      </trkpt>
      <trkpt lat="49.08963" lon="6.9562">
        <ele>230.2</ele>
        <time>2012-10-24T07:54:15Z</time>
      </trkpt>
      <trkpt lat="49.08954" lon="6.95623">
        <ele>230.6</ele>
        <time>2012-10-24T07:54:21Z</time>
      </trkpt>
      <trkpt lat="49.08946" lon="6.95625">
        <ele>229.6</ele>
        <time>2012-10-24T07:54:27Z</time>
      </trkpt>
      <trkpt lat="49.08939" lon="6.95627">
        <ele>229.6</ele>
        <time>2012-10-24T07:54:32Z</time>
      </trkpt>
      <trkpt lat="49.08937" lon="6.95628">
        <ele>229.5</ele>
        <time>2012-10-24T07:54:33Z</time>
      </trkpt>
      <trkpt lat="49.08921" lon="6.95632">
        <ele>227.6</ele>
        <time>2012-10-24T07:54:44Z</time>
      </trkpt>
      <trkpt lat="49.08913" lon="6.95632">
        <ele>228</ele>
        <time>2012-10-24T07:54:50Z</time>
      </trkpt>
      <trkpt lat="49.08905" lon="6.95635">
        <ele>226.9</ele>
        <time>2012-10-24T07:54:58Z</time>
      </trkpt>
      <trkpt lat="49.08898" lon="6.95644">
        <ele>227.5</ele>
        <time>2012-10-24T07:55:11Z</time>
      </trkpt>
      <trkpt lat="49.0889" lon="6.95648">
        <ele>228.2</ele>
        <time>2012-10-24T07:55:19Z</time>
      </trkpt>
      <trkpt lat="49.08882" lon="6.95646">
        <ele>227.6</ele>
        <time>2012-10-24T07:55:27Z</time>
      </trkpt>
      <trkpt lat="49.08874" lon="6.9564">
        <ele>227.3</ele>
        <time>2012-10-24T07:55:35Z</time>
      </trkpt>
      <trkpt lat="49.08872" lon="6.95639">
        <ele>227.4</ele>
        <time>2012-10-24T07:55:36Z</time>
      </trkpt>
      <trkpt lat="49.08858" lon="6.95631">
        <ele>227.8</ele>
        <time>2012-10-24T07:55:47Z</time>
      </trkpt>
      <trkpt lat="49.08852" lon="6.9564">
        <ele>227</ele>
        <time>2012-10-24T07:55:53Z</time>
      </trkpt>
      <trkpt lat="49.08847" lon="6.9565">
        <ele>227.3</ele>
        <time>2012-10-24T07:56:00Z</time>
      </trkpt>
      <trkpt lat="49.08843" lon="6.95661">
        <ele>226.3</ele>
        <time>2012-10-24T07:56:07Z</time>
      </trkpt>
      <trkpt lat="49.0884" lon="6.95673">
        <ele>226.6</ele>
        <time>2012-10-24T07:56:14Z</time>
      </trkpt>
      <trkpt lat="49.08836" lon="6.95685">
        <ele>226.6</ele>
        <time>2012-10-24T07:56:21Z</time>
      </trkpt>
      <trkpt lat="49.08832" lon="6.95697">
        <ele>227.4</ele>
        <time>2012-10-24T07:56:28Z</time>
      </trkpt>
      <trkpt lat="49.08828" lon="6.95707">
        <ele>226.4</ele>
        <time>2012-10-24T07:56:34Z</time>
      </trkpt>
      <trkpt lat="49.08823" lon="6.95717">
        <ele>226.8</ele>
        <time>2012-10-24T07:56:40Z</time>
      </trkpt>
      <trkpt lat="49.08822" lon="6.95719">
        <ele>226.9</ele>
        <time>2012-10-24T07:56:41Z</time>
      </trkpt>
      <trkpt lat="49.08813" lon="6.95738">
        <ele>227</ele>
        <time>2012-10-24T07:56:52Z</time>
      </trkpt>
      <trkpt lat="49.08809" lon="6.95749">
        <ele>227.6</ele>
        <time>2012-10-24T07:57:00Z</time>
      </trkpt>
      <trkpt lat="49.08804" lon="6.9576">
        <ele>227.3</ele>
        <time>2012-10-24T07:57:06Z</time>
      </trkpt>
      <trkpt lat="49.08799" lon="6.9577">
        <ele>228</ele>
        <time>2012-10-24T07:57:12Z</time>
      </trkpt>
      <trkpt lat="49.08793" lon="6.95779">
        <ele>228.5</ele>
        <time>2012-10-24T07:57:18Z</time>
      </trkpt>
      <trkpt lat="49.08789" lon="6.9579">
        <ele>228.8</ele>
        <time>2012-10-24T07:57:24Z</time>
      </trkpt>
      <trkpt lat="49.08784" lon="6.958">
        <ele>229.1</ele>
        <time>2012-10-24T07:57:30Z</time>
      </trkpt>
      <trkpt lat="49.0878" lon="6.9581">
        <ele>230.6</ele>
        <time>2012-10-24T07:57:36Z</time>
      </trkpt>
      <trkpt lat="49.08775" lon="6.95821">
        <ele>230.2</ele>
        <time>2012-10-24T07:57:42Z</time>
      </trkpt>
      <trkpt lat="49.08774" lon="6.95823">
        <ele>230.2</ele>
        <time>2012-10-24T07:57:43Z</time>
      </trkpt>
      <trkpt lat="49.08766" lon="6.95841">
        <ele>231.6</ele>
        <time>2012-10-24T07:57:54Z</time>
      </trkpt>
      <trkpt lat="49.08758" lon="6.95846">
        <ele>232.1</ele>
        <time>2012-10-24T07:58:00Z</time>
      </trkpt>
      <trkpt lat="49.0875" lon="6.95845">
        <ele>232.6</ele>
        <time>2012-10-24T07:58:06Z</time>
      </trkpt>
      <trkpt lat="49.08743" lon="6.9584">
        <ele>232.7</ele>
        <time>2012-10-24T07:58:12Z</time>
      </trkpt>
      <trkpt lat="49.08735" lon="6.95835">
        <ele>233.7</ele>
        <time>2012-10-24T07:58:18Z</time>
      </trkpt>
      <trkpt lat="49.08728" lon="6.95829">
        <ele>233.7</ele>
        <time>2012-10-24T07:58:24Z</time>
      </trkpt>
      <trkpt lat="49.0872" lon="6.95823">
        <ele>234.6</ele>
        <time>2012-10-24T07:58:30Z</time>
      </trkpt>
      <trkpt lat="49.08713" lon="6.95818">
        <ele>234.8</ele>
        <time>2012-10-24T07:58:36Z</time>
      </trkpt>
      <trkpt lat="49.08705" lon="6.95813">
        <ele>235.2</ele>
        <time>2012-10-24T07:58:42Z</time>
      </trkpt>
      <trkpt lat="49.08698" lon="6.95808">
        <ele>235.7</ele>
        <time>2012-10-24T07:58:48Z</time>
      </trkpt>
      <trkpt lat="49.08696" lon="6.95807">
        <ele>235.7</ele>
        <time>2012-10-24T07:58:49Z</time>
      </trkpt>
      <trkpt lat="49.08682" lon="6.95802">
        <ele>237.1</ele>
        <time>2012-10-24T07:59:01Z</time>
      </trkpt>
      <trkpt lat="49.08674" lon="6.95801">
        <ele>238.7</ele>
        <time>2012-10-24T07:59:08Z</time>
      </trkpt>
      <trkpt lat="49.08666" lon="6.95802">
        <ele>239.7</ele>
        <time>2012-10-24T07:59:15Z</time>
      </trkpt>
      <trkpt lat="49.08658" lon="6.95804">
        <ele>240.9</ele>
        <time>2012-10-24T07:59:23Z</time>
      </trkpt>
      <trkpt lat="49.0865" lon="6.95809">
        <ele>243.2</ele>
        <time>2012-10-24T07:59:31Z</time>
      </trkpt>
      <trkpt lat="49.08643" lon="6.95817">
        <ele>244.4</ele>
        <time>2012-10-24T07:59:39Z</time>
      </trkpt>
      <trkpt lat="49.08635" lon="6.95823">
        <ele>245.1</ele>
        <time>2012-10-24T07:59:46Z</time>
      </trkpt>
      <trkpt lat="49.08628" lon="6.9583">
        <ele>246.9</ele>
        <time>2012-10-24T07:59:54Z</time>
      </trkpt>
      <trkpt lat="49.08627" lon="6.95831">
        <ele>246.9</ele>
        <time>2012-10-24T07:59:55Z</time>
      </trkpt>
      <trkpt lat="49.08614" lon="6.95844">
        <ele>248.8</ele>
        <time>2012-10-24T08:00:09Z</time>
      </trkpt>
      <trkpt lat="49.08607" lon="6.95851">
        <ele>249.6</ele>
        <time>2012-10-24T08:00:16Z</time>
      </trkpt>
      <trkpt lat="49.086" lon="6.95857">
        <ele>250.1</ele>
        <time>2012-10-24T08:00:22Z</time>
      </trkpt>
      <trkpt lat="49.08594" lon="6.95865">
        <ele>251.1</ele>
        <time>2012-10-24T08:00:28Z</time>
      </trkpt>
      <trkpt lat="49.08587" lon="6.95872">
        <ele>251.3</ele>
        <time>2012-10-24T08:00:34Z</time>
      </trkpt>
      <trkpt lat="49.0858" lon="6.95879">
        <ele>251.1</ele>
        <time>2012-10-24T08:00:41Z</time>
      </trkpt>
      <trkpt lat="49.08573" lon="6.95885">
        <ele>251.2</ele>
        <time>2012-10-24T08:00:47Z</time>
      </trkpt>
      <trkpt lat="49.08565" lon="6.95891">
        <ele>250</ele>
        <time>2012-10-24T08:00:54Z</time>
      </trkpt>
      <trkpt lat="49.08557" lon="6.95896">
        <ele>250.4</ele>
        <time>2012-10-24T08:01:01Z</time>
      </trkpt>
      <trkpt lat="49.08556" lon="6.95897">
        <ele>250.3</ele>
        <time>2012-10-24T08:01:02Z</time>
      </trkpt>
      <trkpt lat="49.08542" lon="6.95908">
        <ele>250.6</ele>
        <time>2012-10-24T08:01:19Z</time>
      </trkpt>
      <trkpt lat="49.08533" lon="6.95909">
        <ele>250.8</ele>
        <time>2012-10-24T08:02:19Z</time>
      </trkpt>
      <trkpt lat="49.08533" lon="6.95908">
        <ele>251.2</ele>
        <time>2012-10-24T08:02:20Z</time>
      </trkpt>
      <trkpt lat="49.08529" lon="6.95884">
        <ele>253.3</ele>
        <time>2012-10-24T08:02:39Z</time>
      </trkpt>
      <trkpt lat="49.08526" lon="6.95871">
        <ele>254.8</ele>
        <time>2012-10-24T08:02:48Z</time>
      </trkpt>
      <trkpt lat="49.08522" lon="6.9586">
        <ele>256.3</ele>
        <time>2012-10-24T08:02:56Z</time>
      </trkpt>
      <trkpt lat="49.08518" lon="6.95849">
        <ele>257.6</ele>
        <time>2012-10-24T08:03:05Z</time>
      </trkpt>
      <trkpt lat="49.08514" lon="6.95837">
        <ele>258.3</ele>
        <time>2012-10-24T08:03:14Z</time>
      </trkpt>
      <trkpt lat="49.0851" lon="6.95826">
        <ele>259.1</ele>
        <time>2012-10-24T08:03:23Z</time>
      </trkpt>
      <trkpt lat="49.0851" lon="6.95824">
        <ele>258.9</ele>
        <time>2012-10-24T08:03:24Z</time>
      </trkpt>
      <trkpt lat="49.08502" lon="6.95804">
        <ele>261.1</ele>
        <time>2012-10-24T08:03:38Z</time>
      </trkpt>
      <trkpt lat="49.08498" lon="6.95794">
        <ele>261.6</ele>
        <time>2012-10-24T08:03:45Z</time>
      </trkpt>
      <trkpt lat="49.08495" lon="6.95782">
        <ele>261.9</ele>
        <time>2012-10-24T08:03:52Z</time>
      </trkpt>
      <trkpt lat="49.08491" lon="6.95771">
        <ele>261.6</ele>
        <time>2012-10-24T08:03:59Z</time>
      </trkpt>
      <trkpt lat="49.08487" lon="6.9576">
        <ele>263.5</ele>
        <time>2012-10-24T08:04:07Z</time>
      </trkpt>
      <trkpt lat="49.08482" lon="6.95749">
        <ele>263.5</ele>
        <time>2012-10-24T08:04:14Z</time>
      </trkpt>
      <trkpt lat="49.08478" lon="6.95739">
        <ele>263.4</ele>
        <time>2012-10-24T08:04:21Z</time>
      </trkpt>
      <trkpt lat="49.08474" lon="6.95729">
        <ele>264.1</ele>
        <time>2012-10-24T08:04:28Z</time>
      </trkpt>
      <trkpt lat="49.08473" lon="6.95727">
        <ele>264.3</ele>
        <time>2012-10-24T08:04:29Z</time>
      </trkpt>
      <trkpt lat="49.08465" lon="6.95706">
        <ele>264.2</ele>
        <time>2012-10-24T08:04:43Z</time>
      </trkpt>
      <trkpt lat="49.08458" lon="6.95698">
        <ele>264.8</ele>
        <time>2012-10-24T08:04:51Z</time>
      </trkpt>
      <trkpt lat="49.08451" lon="6.95691">
        <ele>265.9</ele>
        <time>2012-10-24T08:04:58Z</time>
      </trkpt>
      <trkpt lat="49.08444" lon="6.95683">
        <ele>265</ele>
        <time>2012-10-24T08:05:05Z</time>
      </trkpt>
      <trkpt lat="49.0844" lon="6.95673">
        <ele>265.7</ele>
        <time>2012-10-24T08:05:12Z</time>
      </trkpt>
      <trkpt lat="49.08435" lon="6.95663">
        <ele>265.7</ele>
        <time>2012-10-24T08:05:19Z</time>
      </trkpt>
      <trkpt lat="49.08431" lon="6.95652">
        <ele>265.7</ele>
        <time>2012-10-24T08:05:26Z</time>
      </trkpt>
      <trkpt lat="49.08425" lon="6.95642">
        <ele>266</ele>
        <time>2012-10-24T08:05:34Z</time>
      </trkpt>
      <trkpt lat="49.08425" lon="6.95641">
        <ele>265.9</ele>
        <time>2012-10-24T08:05:35Z</time>
      </trkpt>
      <trkpt lat="49.08419" lon="6.95619">
        <ele>266.5</ele>
        <time>2012-10-24T08:05:49Z</time>
      </trkpt>
      <trkpt lat="49.08416" lon="6.95608">
        <ele>266.3</ele>
        <time>2012-10-24T08:05:55Z</time>
      </trkpt>
      <trkpt lat="49.08414" lon="6.95595">
        <ele>265.7</ele>
        <time>2012-10-24T08:06:02Z</time>
      </trkpt>
      <trkpt lat="49.08412" lon="6.95582">
        <ele>266</ele>
        <time>2012-10-24T08:06:09Z</time>
      </trkpt>
      <trkpt lat="49.08406" lon="6.95571">
        <ele>266.6</ele>
        <time>2012-10-24T08:06:16Z</time>
      </trkpt>
      <trkpt lat="49.08398" lon="6.95567">
        <ele>266.1</ele>
        <time>2012-10-24T08:06:24Z</time>
      </trkpt>
      <trkpt lat="49.08389" lon="6.95566">
        <ele>266.7</ele>
        <time>2012-10-24T08:06:31Z</time>
      </trkpt>
      <trkpt lat="49.08381" lon="6.9557">
        <ele>266.2</ele>
        <time>2012-10-24T08:06:38Z</time>
      </trkpt>
      <trkpt lat="49.0838" lon="6.95571">
        <ele>266</ele>
        <time>2012-10-24T08:06:39Z</time>
      </trkpt>
      <trkpt lat="49.08365" lon="6.9558">
        <ele>265.1</ele>
        <time>2012-10-24T08:06:52Z</time>
      </trkpt>
      <trkpt lat="49.08357" lon="6.95585">
        <ele>264.5</ele>
        <time>2012-10-24T08:06:59Z</time>
      </trkpt>
      <trkpt lat="49.0835" lon="6.95589">
        <ele>263.6</ele>
        <time>2012-10-24T08:07:06Z</time>
      </trkpt>
      <trkpt lat="49.08342" lon="6.95594">
        <ele>262.4</ele>
        <time>2012-10-24T08:07:13Z</time>
      </trkpt>
      <trkpt lat="49.08334" lon="6.95599">
        <ele>261.5</ele>
        <time>2012-10-24T08:07:20Z</time>
      </trkpt>
      <trkpt lat="49.08326" lon="6.95603">
        <ele>261.2</ele>
        <time>2012-10-24T08:07:27Z</time>
      </trkpt>
      <trkpt lat="49.08318" lon="6.95607">
        <ele>260.3</ele>
        <time>2012-10-24T08:07:34Z</time>
      </trkpt>
      <trkpt lat="49.08311" lon="6.95612">
        <ele>259.6</ele>
        <time>2012-10-24T08:07:41Z</time>
      </trkpt>
      <trkpt lat="49.0831" lon="6.95613">
        <ele>259.4</ele>
        <time>2012-10-24T08:07:42Z</time>
      </trkpt>
      <trkpt lat="49.08295" lon="6.95621">
        <ele>257.3</ele>
        <time>2012-10-24T08:07:55Z</time>
      </trkpt>
      <trkpt lat="49.08288" lon="6.95625">
        <ele>256.1</ele>
        <time>2012-10-24T08:08:02Z</time>
      </trkpt>
      <trkpt lat="49.0828" lon="6.9563">
        <ele>254.8</ele>
        <time>2012-10-24T08:08:09Z</time>
      </trkpt>
      <trkpt lat="49.08273" lon="6.95635">
        <ele>254.5</ele>
        <time>2012-10-24T08:08:16Z</time>
      </trkpt>
      <trkpt lat="49.08265" lon="6.95641">
        <ele>253.2</ele>
        <time>2012-10-24T08:08:23Z</time>
      </trkpt>
      <trkpt lat="49.08257" lon="6.95644">
        <ele>252</ele>
        <time>2012-10-24T08:08:30Z</time>
      </trkpt>
      <trkpt lat="49.08249" lon="6.95649">
        <ele>251.2</ele>
        <time>2012-10-24T08:08:37Z</time>
      </trkpt>
      <trkpt lat="49.08241" lon="6.95653">
        <ele>250.1</ele>
        <time>2012-10-24T08:08:44Z</time>
      </trkpt>
      <trkpt lat="49.0824" lon="6.95654">
        <ele>250</ele>
        <time>2012-10-24T08:08:45Z</time>
      </trkpt>
      <trkpt lat="49.08225" lon="6.95663">
        <ele>247.9</ele>
        <time>2012-10-24T08:08:58Z</time>
      </trkpt>
      <trkpt lat="49.08217" lon="6.95667">
        <ele>246.8</ele>
        <time>2012-10-24T08:09:05Z</time>
      </trkpt>
      <trkpt lat="49.08209" lon="6.95671">
        <ele>246</ele>
        <time>2012-10-24T08:09:12Z</time>
      </trkpt>
      <trkpt lat="49.08201" lon="6.95675">
        <ele>245</ele>
        <time>2012-10-24T08:09:19Z</time>
      </trkpt>
      <trkpt lat="49.08193" lon="6.9568">
        <ele>243.1</ele>
        <time>2012-10-24T08:09:26Z</time>
      </trkpt>
      <trkpt lat="49.08185" lon="6.95685">
        <ele>242.8</ele>
        <time>2012-10-24T08:09:33Z</time>
      </trkpt>
      <trkpt lat="49.08177" lon="6.95689">
        <ele>241.5</ele>
        <time>2012-10-24T08:09:40Z</time>
      </trkpt>
      <trkpt lat="49.08169" lon="6.95695">
        <ele>239.8</ele>
        <time>2012-10-24T08:09:47Z</time>
      </trkpt>
      <trkpt lat="49.08168" lon="6.95695">
        <ele>240</ele>
        <time>2012-10-24T08:09:48Z</time>
      </trkpt>
      <trkpt lat="49.08154" lon="6.95703">
        <ele>238.8</ele>
        <time>2012-10-24T08:10:00Z</time>
      </trkpt>
      <trkpt lat="49.08146" lon="6.95708">
        <ele>237.4</ele>
        <time>2012-10-24T08:10:07Z</time>
      </trkpt>
      <trkpt lat="49.08138" lon="6.95713">
        <ele>236</ele>
        <time>2012-10-24T08:10:14Z</time>
      </trkpt>
      <trkpt lat="49.0813" lon="6.95717">
        <ele>236.5</ele>
        <time>2012-10-24T08:10:21Z</time>
      </trkpt>
      <trkpt lat="49.08122" lon="6.95722">
        <ele>235.8</ele>
        <time>2012-10-24T08:10:28Z</time>
      </trkpt>
      <trkpt lat="49.08115" lon="6.95727">
        <ele>235.2</ele>
        <time>2012-10-24T08:10:42Z</time>
      </trkpt>
      <trkpt lat="49.08108" lon="6.95735">
        <ele>235.2</ele>
        <time>2012-10-24T08:10:56Z</time>
      </trkpt>
      <trkpt lat="49.08108" lon="6.95736">
        <ele>235</ele>
        <time>2012-10-24T08:10:57Z</time>
      </trkpt>
      <trkpt lat="49.08091" lon="6.95732">
        <ele>233.9</ele>
        <time>2012-10-24T08:11:26Z</time>
      </trkpt>
      <trkpt lat="49.08086" lon="6.95723">
        <ele>233.4</ele>
        <time>2012-10-24T08:11:38Z</time>
      </trkpt>
      <trkpt lat="49.08083" lon="6.95711">
        <ele>234</ele>
        <time>2012-10-24T08:11:46Z</time>
      </trkpt>
      <trkpt lat="49.08082" lon="6.95698">
        <ele>234.2</ele>
        <time>2012-10-24T08:11:53Z</time>
      </trkpt>
      <trkpt lat="49.0808" lon="6.95685">
        <ele>234.1</ele>
        <time>2012-10-24T08:12:00Z</time>
      </trkpt>
      <trkpt lat="49.0808" lon="6.95683">
        <ele>234.1</ele>
        <time>2012-10-24T08:12:01Z</time>
      </trkpt>
      <trkpt lat="49.08076" lon="6.95659">
        <ele>234.6</ele>
        <time>2012-10-24T08:12:14Z</time>
      </trkpt>
      <trkpt lat="49.08074" lon="6.95647">
        <ele>234.3</ele>
        <time>2012-10-24T08:12:20Z</time>
      </trkpt>
      <trkpt lat="49.08072" lon="6.95635">
        <ele>234.7</ele>
        <time>2012-10-24T08:12:26Z</time>
      </trkpt>
      <trkpt lat="49.08071" lon="6.95623">
        <ele>234.5</ele>
        <time>2012-10-24T08:12:32Z</time>
      </trkpt>
      <trkpt lat="49.08066" lon="6.95612">
        <ele>234.8</ele>
        <time>2012-10-24T08:12:39Z</time>
      </trkpt>
      <trkpt lat="49.08065" lon="6.95599">
        <ele>235.2</ele>
        <time>2012-10-24T08:12:46Z</time>
      </trkpt>
      <trkpt lat="49.08064" lon="6.95586">
        <ele>235.7</ele>
        <time>2012-10-24T08:12:53Z</time>
      </trkpt>
      <trkpt lat="49.08064" lon="6.95573">
        <ele>235.9</ele>
        <time>2012-10-24T08:13:00Z</time>
      </trkpt>
      <trkpt lat="49.08063" lon="6.95559">
        <ele>236.6</ele>
        <time>2012-10-24T08:13:07Z</time>
      </trkpt>
      <trkpt lat="49.08063" lon="6.95557">
        <ele>236.5</ele>
        <time>2012-10-24T08:13:08Z</time>
      </trkpt>
      <trkpt lat="49.08063" lon="6.95533">
        <ele>237</ele>
        <time>2012-10-24T08:13:21Z</time>
      </trkpt>
      <trkpt lat="49.08063" lon="6.9552">
        <ele>237</ele>
        <time>2012-10-24T08:13:27Z</time>
      </trkpt>
      <trkpt lat="49.08065" lon="6.95507">
        <ele>237.8</ele>
        <time>2012-10-24T08:13:34Z</time>
      </trkpt>
      <trkpt lat="49.08068" lon="6.95494">
        <ele>237.7</ele>
        <time>2012-10-24T08:13:41Z</time>
      </trkpt>
      <trkpt lat="49.0807" lon="6.95481">
        <ele>238.5</ele>
        <time>2012-10-24T08:13:48Z</time>
      </trkpt>
      <trkpt lat="49.08072" lon="6.95468">
        <ele>238.7</ele>
        <time>2012-10-24T08:13:55Z</time>
      </trkpt>
      <trkpt lat="49.08073" lon="6.95456">
        <ele>238.3</ele>
        <time>2012-10-24T08:14:01Z</time>
      </trkpt>
      <trkpt lat="49.08075" lon="6.95445">
        <ele>239</ele>
        <time>2012-10-24T08:14:07Z</time>
      </trkpt>
      <trkpt lat="49.08076" lon="6.95431">
        <ele>239.2</ele>
        <time>2012-10-24T08:14:14Z</time>
      </trkpt>
      <trkpt lat="49.08076" lon="6.95429">
        <ele>239.2</ele>
        <time>2012-10-24T08:14:15Z</time>
      </trkpt>
      <trkpt lat="49.08066" lon="6.95413">
        <ele>239.1</ele>
        <time>2012-10-24T08:14:27Z</time>
      </trkpt>
      <trkpt lat="49.08058" lon="6.95407">
        <ele>239.5</ele>
        <time>2012-10-24T08:14:35Z</time>
      </trkpt>
      <trkpt lat="49.08051" lon="6.95403">
        <ele>240.3</ele>
        <time>2012-10-24T08:14:42Z</time>
      </trkpt>
      <trkpt lat="49.08043" lon="6.95399">
        <ele>240.5</ele>
        <time>2012-10-24T08:14:50Z</time>
      </trkpt>
      <trkpt lat="49.08035" lon="6.95394">
        <ele>240.2</ele>
        <time>2012-10-24T08:14:58Z</time>
      </trkpt>
      <trkpt lat="49.08029" lon="6.95386">
        <ele>240.8</ele>
        <time>2012-10-24T08:15:05Z</time>
      </trkpt>
      <trkpt lat="49.08022" lon="6.95378">
        <ele>241.3</ele>
        <time>2012-10-24T08:15:12Z</time>
      </trkpt>
      <trkpt lat="49.08016" lon="6.95368">
        <ele>241.5</ele>
        <time>2012-10-24T08:15:19Z</time>
      </trkpt>
      <trkpt lat="49.08015" lon="6.95367">
        <ele>241.9</ele>
        <time>2012-10-24T08:15:20Z</time>
      </trkpt>
      <trkpt lat="49.08004" lon="6.9535">
        <ele>243</ele>
        <time>2012-10-24T08:15:34Z</time>
      </trkpt>
      <trkpt lat="49.07998" lon="6.9534">
        <ele>243.9</ele>
        <time>2012-10-24T08:15:42Z</time>
      </trkpt>
      <trkpt lat="49.07992" lon="6.95331">
        <ele>244.7</ele>
        <time>2012-10-24T08:15:49Z</time>
      </trkpt>
      <trkpt lat="49.07985" lon="6.95322">
        <ele>245.5</ele>
        <time>2012-10-24T08:15:56Z</time>
      </trkpt>
      <trkpt lat="49.0798" lon="6.95312">
        <ele>246.1</ele>
        <time>2012-10-24T08:16:04Z</time>
      </trkpt>
      <trkpt lat="49.07973" lon="6.95303">
        <ele>246.8</ele>
        <time>2012-10-24T08:16:11Z</time>
      </trkpt>
      <trkpt lat="49.07966" lon="6.95296">
        <ele>247.5</ele>
        <time>2012-10-24T08:16:17Z</time>
      </trkpt>
      <trkpt lat="49.07959" lon="6.95288">
        <ele>248.3</ele>
        <time>2012-10-24T08:16:24Z</time>
      </trkpt>
      <trkpt lat="49.07959" lon="6.95287">
        <ele>248.3</ele>
        <time>2012-10-24T08:16:25Z</time>
      </trkpt>
      <trkpt lat="49.07945" lon="6.95273">
        <ele>249.9</ele>
        <time>2012-10-24T08:16:38Z</time>
      </trkpt>
      <trkpt lat="49.07939" lon="6.95264">
        <ele>250.9</ele>
        <time>2012-10-24T08:16:45Z</time>
      </trkpt>
      <trkpt lat="49.07932" lon="6.95256">
        <ele>252.5</ele>
        <time>2012-10-24T08:16:52Z</time>
      </trkpt>
      <trkpt lat="49.07925" lon="6.95249">
        <ele>252.5</ele>
        <time>2012-10-24T08:16:59Z</time>
      </trkpt>
      <trkpt lat="49.07918" lon="6.95241">
        <ele>253.4</ele>
        <time>2012-10-24T08:17:06Z</time>
      </trkpt>
      <trkpt lat="49.07912" lon="6.95234">
        <ele>253.8</ele>
        <time>2012-10-24T08:17:14Z</time>
      </trkpt>
      <trkpt lat="49.07904" lon="6.95227">
        <ele>255.2</ele>
        <time>2012-10-24T08:17:22Z</time>
      </trkpt>
      <trkpt lat="49.07898" lon="6.95219">
        <ele>256.4</ele>
        <time>2012-10-24T08:17:30Z</time>
      </trkpt>
      <trkpt lat="49.07897" lon="6.95218">
        <ele>256.4</ele>
        <time>2012-10-24T08:17:31Z</time>
      </trkpt>
      <trkpt lat="49.07883" lon="6.95204">
        <ele>258.2</ele>
        <time>2012-10-24T08:17:45Z</time>
      </trkpt>
      <trkpt lat="49.07875" lon="6.95199">
        <ele>258.7</ele>
        <time>2012-10-24T08:17:52Z</time>
      </trkpt>
      <trkpt lat="49.07868" lon="6.95193">
        <ele>259.7</ele>
        <time>2012-10-24T08:17:58Z</time>
      </trkpt>
      <trkpt lat="49.07861" lon="6.95187">
        <ele>259</ele>
        <time>2012-10-24T08:18:04Z</time>
      </trkpt>
      <trkpt lat="49.07854" lon="6.95181">
        <ele>259.4</ele>
        <time>2012-10-24T08:18:10Z</time>
      </trkpt>
      <trkpt lat="49.07846" lon="6.95175">
        <ele>260.9</ele>
        <time>2012-10-24T08:18:17Z</time>
      </trkpt>
      <trkpt lat="49.07839" lon="6.9517">
        <ele>260.7</ele>
        <time>2012-10-24T08:18:23Z</time>
      </trkpt>
      <trkpt lat="49.07831" lon="6.95164">
        <ele>261.5</ele>
        <time>2012-10-24T08:18:29Z</time>
      </trkpt>
      <trkpt lat="49.07823" lon="6.95158">
        <ele>261.9</ele>
        <time>2012-10-24T08:18:35Z</time>
      </trkpt>
      <trkpt lat="49.07822" lon="6.95157">
        <ele>262.1</ele>
        <time>2012-10-24T08:18:36Z</time>
      </trkpt>
      <trkpt lat="49.07809" lon="6.95147">
        <ele>262.9</ele>
        <time>2012-10-24T08:18:47Z</time>
      </trkpt>
      <trkpt lat="49.07801" lon="6.95142">
        <ele>263.2</ele>
        <time>2012-10-24T08:18:53Z</time>
      </trkpt>
      <trkpt lat="49.07795" lon="6.95135">
        <ele>263.1</ele>
        <time>2012-10-24T08:19:00Z</time>
      </trkpt>
      <trkpt lat="49.07788" lon="6.95129">
        <ele>263.1</ele>
        <time>2012-10-24T08:19:06Z</time>
      </trkpt>
      <trkpt lat="49.07781" lon="6.95123">
        <ele>263.9</ele>
        <time>2012-10-24T08:19:12Z</time>
      </trkpt>
      <trkpt lat="49.07774" lon="6.95116">
        <ele>263.4</ele>
        <time>2012-10-24T08:19:18Z</time>
      </trkpt>
      <trkpt lat="49.07767" lon="6.95109">
        <ele>263.5</ele>
        <time>2012-10-24T08:19:24Z</time>
      </trkpt>
      <trkpt lat="49.07761" lon="6.951">
        <ele>263.5</ele>
        <time>2012-10-24T08:19:30Z</time>
      </trkpt>
      <trkpt lat="49.07756" lon="6.9509">
        <ele>263.9</ele>
        <time>2012-10-24T08:19:36Z</time>
      </trkpt>
      <trkpt lat="49.07755" lon="6.95088">
        <ele>263.5</ele>
        <time>2012-10-24T08:19:37Z</time>
      </trkpt>
      <trkpt lat="49.07745" lon="6.95069">
        <ele>263.7</ele>
        <time>2012-10-24T08:19:49Z</time>
      </trkpt>
      <trkpt lat="49.0774" lon="6.95059">
        <ele>264</ele>
        <time>2012-10-24T08:19:55Z</time>
      </trkpt>
      <trkpt lat="49.07735" lon="6.95049">
        <ele>263</ele>
        <time>2012-10-24T08:20:01Z</time>
      </trkpt>
      <trkpt lat="49.0773" lon="6.95039">
        <ele>263</ele>
        <time>2012-10-24T08:20:07Z</time>
      </trkpt>
      <trkpt lat="49.07726" lon="6.95028">
        <ele>262.2</ele>
        <time>2012-10-24T08:20:13Z</time>
      </trkpt>
      <trkpt lat="49.07721" lon="6.95017">
        <ele>263</ele>
        <time>2012-10-24T08:20:19Z</time>
      </trkpt>
      <trkpt lat="49.07717" lon="6.95007">
        <ele>262.8</ele>
        <time>2012-10-24T08:20:26Z</time>
      </trkpt>
      <trkpt lat="49.07713" lon="6.94996">
        <ele>263</ele>
        <time>2012-10-24T08:20:32Z</time>
      </trkpt>
      <trkpt lat="49.07709" lon="6.94986">
        <ele>262.7</ele>
        <time>2012-10-24T08:20:38Z</time>
      </trkpt>
      <trkpt lat="49.07708" lon="6.94984">
        <ele>262.6</ele>
        <time>2012-10-24T08:20:39Z</time>
      </trkpt>
      <trkpt lat="49.077" lon="6.94964">
        <ele>262.6</ele>
        <time>2012-10-24T08:20:51Z</time>
      </trkpt>
      <trkpt lat="49.07692" lon="6.94959">
        <ele>261.9</ele>
        <time>2012-10-24T08:21:00Z</time>
      </trkpt>
      <trkpt lat="49.07685" lon="6.94966">
        <ele>261.9</ele>
        <time>2012-10-24T08:21:08Z</time>
      </trkpt>
      <trkpt lat="49.07678" lon="6.94976">
        <ele>261</ele>
        <time>2012-10-24T08:21:15Z</time>
      </trkpt>
      <trkpt lat="49.07672" lon="6.94985">
        <ele>261</ele>
        <time>2012-10-24T08:21:22Z</time>
      </trkpt>
      <trkpt lat="49.07665" lon="6.94993">
        <ele>260.1</ele>
        <time>2012-10-24T08:21:29Z</time>
      </trkpt>
      <trkpt lat="49.07659" lon="6.95">
        <ele>259.9</ele>
        <time>2012-10-24T08:21:35Z</time>
      </trkpt>
      <trkpt lat="49.07652" lon="6.95006">
        <ele>259.6</ele>
        <time>2012-10-24T08:21:41Z</time>
      </trkpt>
      <trkpt lat="49.07651" lon="6.95007">
        <ele>259.8</ele>
        <time>2012-10-24T08:21:42Z</time>
      </trkpt>
      <trkpt lat="49.07639" lon="6.95019">
        <ele>259.3</ele>
        <time>2012-10-24T08:21:53Z</time>
      </trkpt>
      <trkpt lat="49.07632" lon="6.95026">
        <ele>259.1</ele>
        <time>2012-10-24T08:21:59Z</time>
      </trkpt>
      <trkpt lat="49.07626" lon="6.95033">
        <ele>257.8</ele>
        <time>2012-10-24T08:22:05Z</time>
      </trkpt>
      <trkpt lat="49.07619" lon="6.95041">
        <ele>258</ele>
        <time>2012-10-24T08:22:12Z</time>
      </trkpt>
      <trkpt lat="49.07612" lon="6.95047">
        <ele>256.6</ele>
        <time>2012-10-24T08:22:23Z</time>
      </trkpt>
      <trkpt lat="49.07605" lon="6.95053">
        <ele>257.2</ele>
        <time>2012-10-24T08:22:29Z</time>
      </trkpt>
      <trkpt lat="49.07597" lon="6.95059">
        <ele>257.7</ele>
        <time>2012-10-24T08:22:35Z</time>
      </trkpt>
      <trkpt lat="49.0759" lon="6.95066">
        <ele>257.2</ele>
        <time>2012-10-24T08:22:41Z</time>
      </trkpt>
      <trkpt lat="49.07582" lon="6.95073">
        <ele>256.7</ele>
        <time>2012-10-24T08:22:47Z</time>
      </trkpt>
      <trkpt lat="49.07581" lon="6.95074">
        <ele>256.6</ele>
        <time>2012-10-24T08:22:48Z</time>
      </trkpt>
      <trkpt lat="49.07568" lon="6.95086">
        <ele>256.8</ele>
        <time>2012-10-24T08:22:59Z</time>
      </trkpt>
      <trkpt lat="49.0756" lon="6.95093">
        <ele>256.4</ele>
        <time>2012-10-24T08:23:05Z</time>
      </trkpt>
      <trkpt lat="49.07554" lon="6.95101">
        <ele>256</ele>
        <time>2012-10-24T08:23:12Z</time>
      </trkpt>
      <trkpt lat="49.07548" lon="6.9511">
        <ele>257</ele>
        <time>2012-10-24T08:23:18Z</time>
      </trkpt>
      <trkpt lat="49.07543" lon="6.95121">
        <ele>256.7</ele>
        <time>2012-10-24T08:23:24Z</time>
      </trkpt>
      <trkpt lat="49.07538" lon="6.95132">
        <ele>257.1</ele>
        <time>2012-10-24T08:23:30Z</time>
      </trkpt>
      <trkpt lat="49.07534" lon="6.95144">
        <ele>257.5</ele>
        <time>2012-10-24T08:23:36Z</time>
      </trkpt>
      <trkpt lat="49.07529" lon="6.95155">
        <ele>257.4</ele>
        <time>2012-10-24T08:23:42Z</time>
      </trkpt>
      <trkpt lat="49.07524" lon="6.95166">
        <ele>257.5</ele>
        <time>2012-10-24T08:23:48Z</time>
      </trkpt>
      <trkpt lat="49.07523" lon="6.95168">
        <ele>257.8</ele>
        <time>2012-10-24T08:23:49Z</time>
      </trkpt>
      <trkpt lat="49.07516" lon="6.95188">
        <ele>257.9</ele>
        <time>2012-10-24T08:24:00Z</time>
      </trkpt>
      <trkpt lat="49.07514" lon="6.95201">
        <ele>258.1</ele>
        <time>2012-10-24T08:24:06Z</time>
      </trkpt>
      <trkpt lat="49.07513" lon="6.95213">
        <ele>257.4</ele>
        <time>2012-10-24T08:24:12Z</time>
      </trkpt>
      <trkpt lat="49.07513" lon="6.95226">
        <ele>257.9</ele>
        <time>2012-10-24T08:24:18Z</time>
      </trkpt>
      <trkpt lat="49.07513" lon="6.95238">
        <ele>257.9</ele>
        <time>2012-10-24T08:24:23Z</time>
      </trkpt>
      <trkpt lat="49.07513" lon="6.95251">
        <ele>258.3</ele>
        <time>2012-10-24T08:24:29Z</time>
      </trkpt>
      <trkpt lat="49.07513" lon="6.95265">
        <ele>259.1</ele>
        <time>2012-10-24T08:24:35Z</time>
      </trkpt>
      <trkpt lat="49.07513" lon="6.95278">
        <ele>260.1</ele>
        <time>2012-10-24T08:24:41Z</time>
      </trkpt>
      <trkpt lat="49.07513" lon="6.95291">
        <ele>260.2</ele>
        <time>2012-10-24T08:24:47Z</time>
      </trkpt>
      <trkpt lat="49.07512" lon="6.95304">
        <ele>260.5</ele>
        <time>2012-10-24T08:24:54Z</time>
      </trkpt>
      <trkpt lat="49.07512" lon="6.95305">
        <ele>260.3</ele>
        <time>2012-10-24T08:24:55Z</time>
      </trkpt>
      <trkpt lat="49.07509" lon="6.95328">
        <ele>260</ele>
        <time>2012-10-24T08:25:07Z</time>
      </trkpt>
      <trkpt lat="49.07506" lon="6.9534">
        <ele>260.4</ele>
        <time>2012-10-24T08:25:14Z</time>
      </trkpt>
      <trkpt lat="49.07502" lon="6.9535">
        <ele>260.4</ele>
        <time>2012-10-24T08:25:20Z</time>
      </trkpt>
      <trkpt lat="49.07496" lon="6.95358">
        <ele>259.9</ele>
        <time>2012-10-24T08:25:26Z</time>
      </trkpt>
      <trkpt lat="49.07489" lon="6.95367">
        <ele>260.4</ele>
        <time>2012-10-24T08:25:33Z</time>
      </trkpt>
      <trkpt lat="49.07482" lon="6.95373">
        <ele>260.2</ele>
        <time>2012-10-24T08:25:40Z</time>
      </trkpt>
      <trkpt lat="49.07474" lon="6.9538">
        <ele>260</ele>
        <time>2012-10-24T08:25:46Z</time>
      </trkpt>
      <trkpt lat="49.07467" lon="6.95385">
        <ele>259.8</ele>
        <time>2012-10-24T08:25:51Z</time>
      </trkpt>
      <trkpt lat="49.0746" lon="6.95389">
        <ele>260.2</ele>
        <time>2012-10-24T08:25:56Z</time>
      </trkpt>
      <trkpt lat="49.07458" lon="6.9539">
        <ele>260</ele>
        <time>2012-10-24T08:25:57Z</time>
      </trkpt>
      <trkpt lat="49.07445" lon="6.95396">
        <ele>260.2</ele>
        <time>2012-10-24T08:26:06Z</time>
      </trkpt>
      <trkpt lat="49.07437" lon="6.95399">
        <ele>260.3</ele>
        <time>2012-10-24T08:26:12Z</time>
      </trkpt>
      <trkpt lat="49.07429" lon="6.95402">
        <ele>260.8</ele>
        <time>2012-10-24T08:26:17Z</time>
      </trkpt>
      <trkpt lat="49.07421" lon="6.95405">
        <ele>260.4</ele>
        <time>2012-10-24T08:26:23Z</time>
      </trkpt>
      <trkpt lat="49.07413" lon="6.95409">
        <ele>260.3</ele>
        <time>2012-10-24T08:26:29Z</time>
      </trkpt>
      <trkpt lat="49.07404" lon="6.95412">
        <ele>259.4</ele>
        <time>2012-10-24T08:26:35Z</time>
      </trkpt>
      <trkpt lat="49.07397" lon="6.95416">
        <ele>260</ele>
        <time>2012-10-24T08:26:41Z</time>
      </trkpt>
      <trkpt lat="49.07388" lon="6.9542">
        <ele>260</ele>
        <time>2012-10-24T08:26:48Z</time>
      </trkpt>
      <trkpt lat="49.07381" lon="6.95424">
        <ele>259.8</ele>
        <time>2012-10-24T08:26:54Z</time>
      </trkpt>
      <trkpt lat="49.07373" lon="6.95428">
        <ele>260</ele>
        <time>2012-10-24T08:27:00Z</time>
      </trkpt>
      <trkpt lat="49.07371" lon="6.95429">
        <ele>260.2</ele>
        <time>2012-10-24T08:27:01Z</time>
      </trkpt>
      <trkpt lat="49.07357" lon="6.95436">
        <ele>260.2</ele>
        <time>2012-10-24T08:27:12Z</time>
      </trkpt>
      <trkpt lat="49.0735" lon="6.9544">
        <ele>260.1</ele>
        <time>2012-10-24T08:27:18Z</time>
      </trkpt>
      <trkpt lat="49.07342" lon="6.95444">
        <ele>259.9</ele>
        <time>2012-10-24T08:27:24Z</time>
      </trkpt>
      <trkpt lat="49.07334" lon="6.95448">
        <ele>259.6</ele>
        <time>2012-10-24T08:27:30Z</time>
      </trkpt>
      <trkpt lat="49.07326" lon="6.95451">
        <ele>260.2</ele>
        <time>2012-10-24T08:27:36Z</time>
      </trkpt>
      <trkpt lat="49.07318" lon="6.95455">
        <ele>260.1</ele>
        <time>2012-10-24T08:27:42Z</time>
      </trkpt>
      <trkpt lat="49.0731" lon="6.95458">
        <ele>260.8</ele>
        <time>2012-10-24T08:27:48Z</time>
      </trkpt>
      <trkpt lat="49.07302" lon="6.9546">
        <ele>261.1</ele>
        <time>2012-10-24T08:27:54Z</time>
      </trkpt>
      <trkpt lat="49.07294" lon="6.95462">
        <ele>261.2</ele>
        <time>2012-10-24T08:28:00Z</time>
      </trkpt>
      <trkpt lat="49.07286" lon="6.95464">
        <ele>260.7</ele>
        <time>2012-10-24T08:28:06Z</time>
      </trkpt>
      <trkpt lat="49.07285" lon="6.95465">
        <ele>261</ele>
        <time>2012-10-24T08:28:07Z</time>
      </trkpt>
      <trkpt lat="49.0727" lon="6.95469">
        <ele>260.9</ele>
        <time>2012-10-24T08:28:18Z</time>
      </trkpt>
      <trkpt lat="49.07263" lon="6.95471">
        <ele>261.5</ele>
        <time>2012-10-24T08:28:24Z</time>
      </trkpt>
      <trkpt lat="49.07255" lon="6.95472">
        <ele>261.8</ele>
        <time>2012-10-24T08:28:30Z</time>
      </trkpt>
      <trkpt lat="49.07247" lon="6.95474">
        <ele>261.8</ele>
        <time>2012-10-24T08:28:36Z</time>
      </trkpt>
      <trkpt lat="49.07239" lon="6.95476">
        <ele>261.4</ele>
        <time>2012-10-24T08:28:43Z</time>
      </trkpt>
      <trkpt lat="49.0723" lon="6.95476">
        <ele>260.6</ele>
        <time>2012-10-24T08:28:51Z</time>
      </trkpt>
      <trkpt lat="49.07222" lon="6.9548">
        <ele>261.3</ele>
        <time>2012-10-24T08:28:58Z</time>
      </trkpt>
      <trkpt lat="49.07213" lon="6.95483">
        <ele>262.3</ele>
        <time>2012-10-24T08:29:05Z</time>
      </trkpt>
      <trkpt lat="49.07205" lon="6.95487">
        <ele>261.5</ele>
        <time>2012-10-24T08:29:12Z</time>
      </trkpt>
      <trkpt lat="49.07204" lon="6.95488">
        <ele>261.5</ele>
        <time>2012-10-24T08:29:13Z</time>
      </trkpt>
      <trkpt lat="49.07189" lon="6.95495">
        <ele>261.8</ele>
        <time>2012-10-24T08:29:26Z</time>
      </trkpt>
      <trkpt lat="49.07181" lon="6.95499">
        <ele>261.3</ele>
        <time>2012-10-24T08:29:34Z</time>
      </trkpt>
      <trkpt lat="49.07173" lon="6.95503">
        <ele>261.3</ele>
        <time>2012-10-24T08:29:42Z</time>
      </trkpt>
      <trkpt lat="49.07165" lon="6.95508">
        <ele>261.2</ele>
        <time>2012-10-24T08:29:49Z</time>
      </trkpt>
      <trkpt lat="49.07158" lon="6.95513">
        <ele>261.2</ele>
        <time>2012-10-24T08:29:56Z</time>
      </trkpt>
      <trkpt lat="49.07151" lon="6.95522">
        <ele>261.5</ele>
        <time>2012-10-24T08:30:03Z</time>
      </trkpt>
      <trkpt lat="49.07145" lon="6.95531">
        <ele>260.9</ele>
        <time>2012-10-24T08:30:09Z</time>
      </trkpt>
      <trkpt lat="49.0714" lon="6.9554">
        <ele>261.5</ele>
        <time>2012-10-24T08:30:15Z</time>
      </trkpt>
      <trkpt lat="49.0714" lon="6.95542">
        <ele>261.7</ele>
        <time>2012-10-24T08:30:16Z</time>
      </trkpt>
      <trkpt lat="49.0713" lon="6.95562">
        <ele>259.9</ele>
        <time>2012-10-24T08:30:28Z</time>
      </trkpt>
      <trkpt lat="49.07125" lon="6.95571">
        <ele>259.8</ele>
        <time>2012-10-24T08:30:34Z</time>
      </trkpt>
      <trkpt lat="49.0712" lon="6.95582">
        <ele>258.9</ele>
        <time>2012-10-24T08:30:40Z</time>
      </trkpt>
      <trkpt lat="49.07114" lon="6.95591">
        <ele>257.7</ele>
        <time>2012-10-24T08:30:46Z</time>
      </trkpt>
      <trkpt lat="49.0711" lon="6.95601">
        <ele>257.6</ele>
        <time>2012-10-24T08:30:52Z</time>
      </trkpt>
      <trkpt lat="49.07105" lon="6.95609">
        <ele>257.1</ele>
        <time>2012-10-24T08:30:58Z</time>
      </trkpt>
      <trkpt lat="49.07098" lon="6.95618">
        <ele>256.3</ele>
        <time>2012-10-24T08:31:05Z</time>
      </trkpt>
      <trkpt lat="49.07092" lon="6.95625">
        <ele>255.7</ele>
        <time>2012-10-24T08:31:12Z</time>
      </trkpt>
      <trkpt lat="49.07084" lon="6.95631">
        <ele>255.2</ele>
        <time>2012-10-24T08:31:20Z</time>
      </trkpt>
      <trkpt lat="49.07084" lon="6.95632">
        <ele>255</ele>
        <time>2012-10-24T08:31:21Z</time>
      </trkpt>
      <trkpt lat="49.07071" lon="6.95649">
        <ele>255</ele>
        <time>2012-10-24T08:31:40Z</time>
      </trkpt>
      <trkpt lat="49.07067" lon="6.9566">
        <ele>255.2</ele>
        <time>2012-10-24T08:31:49Z</time>
      </trkpt>
      <trkpt lat="49.07063" lon="6.95671">
        <ele>254.4</ele>
        <time>2012-10-24T08:31:56Z</time>
      </trkpt>
      <trkpt lat="49.07058" lon="6.9568">
        <ele>255.4</ele>
        <time>2012-10-24T08:32:03Z</time>
      </trkpt>
      <trkpt lat="49.07053" lon="6.95691">
        <ele>255</ele>
        <time>2012-10-24T08:32:10Z</time>
      </trkpt>
      <trkpt lat="49.07048" lon="6.957">
        <ele>255</ele>
        <time>2012-10-24T08:32:17Z</time>
      </trkpt>
      <trkpt lat="49.07042" lon="6.9571">
        <ele>255.3</ele>
        <time>2012-10-24T08:32:24Z</time>
      </trkpt>
      <trkpt lat="49.07041" lon="6.95711">
        <ele>255.5</ele>
        <time>2012-10-24T08:32:25Z</time>
      </trkpt>
      <trkpt lat="49.07028" lon="6.95725">
        <ele>257</ele>
        <time>2012-10-24T08:32:43Z</time>
      </trkpt>
      <trkpt lat="49.0702" lon="6.95733">
        <ele>257.5</ele>
        <time>2012-10-24T08:32:54Z</time>
      </trkpt>
      <trkpt lat="49.07012" lon="6.95733">
        <ele>257.2</ele>
        <time>2012-10-24T08:33:06Z</time>
      </trkpt>
      <trkpt lat="49.07004" lon="6.95734">
        <ele>258.4</ele>
        <time>2012-10-24T08:33:16Z</time>
      </trkpt>
      <trkpt lat="49.06995" lon="6.95732">
        <ele>258.8</ele>
        <time>2012-10-24T08:33:27Z</time>
      </trkpt>
      <trkpt lat="49.06994" lon="6.95732">
        <ele>258.9</ele>
        <time>2012-10-24T08:33:28Z</time>
      </trkpt>
      <trkpt lat="49.06978" lon="6.95733">
        <ele>260.5</ele>
        <time>2012-10-24T08:33:41Z</time>
      </trkpt>
      <trkpt lat="49.06971" lon="6.9574">
        <ele>261.1</ele>
        <time>2012-10-24T08:33:50Z</time>
      </trkpt>
      <trkpt lat="49.06964" lon="6.95746">
        <ele>260.8</ele>
        <time>2012-10-24T08:33:56Z</time>
      </trkpt>
      <trkpt lat="49.06957" lon="6.95753">
        <ele>261.1</ele>
        <time>2012-10-24T08:34:03Z</time>
      </trkpt>
      <trkpt lat="49.0695" lon="6.95761">
        <ele>261</ele>
        <time>2012-10-24T08:34:11Z</time>
      </trkpt>
      <trkpt lat="49.06943" lon="6.95769">
        <ele>262.1</ele>
        <time>2012-10-24T08:34:31Z</time>
      </trkpt>
      <trkpt lat="49.06943" lon="6.9577">
        <ele>262</ele>
        <time>2012-10-24T08:34:32Z</time>
      </trkpt>
      <trkpt lat="49.06931" lon="6.95787">
        <ele>262.2</ele>
        <time>2012-10-24T08:35:00Z</time>
      </trkpt>
      <trkpt lat="49.06923" lon="6.95791">
        <ele>262.5</ele>
        <time>2012-10-24T08:35:09Z</time>
      </trkpt>
      <trkpt lat="49.06915" lon="6.95795">
        <ele>263.9</ele>
        <time>2012-10-24T08:35:19Z</time>
      </trkpt>
      <trkpt lat="49.06908" lon="6.95801">
        <ele>264.9</ele>
        <time>2012-10-24T08:35:27Z</time>
      </trkpt>
      <trkpt lat="49.069" lon="6.95808">
        <ele>265.3</ele>
        <time>2012-10-24T08:35:35Z</time>
      </trkpt>
      <trkpt lat="49.06899" lon="6.95809">
        <ele>265.1</ele>
        <time>2012-10-24T08:35:36Z</time>
      </trkpt>
      <trkpt lat="49.06884" lon="6.95819">
        <ele>265.6</ele>
        <time>2012-10-24T08:35:49Z</time>
      </trkpt>
      <trkpt lat="49.06877" lon="6.95825">
        <ele>266.1</ele>
        <time>2012-10-24T08:35:56Z</time>
      </trkpt>
      <trkpt lat="49.0687" lon="6.95832">
        <ele>265.8</ele>
        <time>2012-10-24T08:36:03Z</time>
      </trkpt>
      <trkpt lat="49.06862" lon="6.95838">
        <ele>266.1</ele>
        <time>2012-10-24T08:36:10Z</time>
      </trkpt>
      <trkpt lat="49.06855" lon="6.95842">
        <ele>266</ele>
        <time>2012-10-24T08:36:17Z</time>
      </trkpt>
      <trkpt lat="49.06847" lon="6.95845">
        <ele>265.6</ele>
        <time>2012-10-24T08:36:24Z</time>
      </trkpt>
      <trkpt lat="49.06838" lon="6.95847">
        <ele>264.9</ele>
        <time>2012-10-24T08:36:30Z</time>
      </trkpt>
      <trkpt lat="49.0683" lon="6.95848">
        <ele>264.2</ele>
        <time>2012-10-24T08:36:37Z</time>
      </trkpt>
      <trkpt lat="49.06829" lon="6.95847">
        <ele>264.2</ele>
        <time>2012-10-24T08:36:38Z</time>
      </trkpt>
      <trkpt lat="49.06813" lon="6.95846">
        <ele>264</ele>
        <time>2012-10-24T08:36:51Z</time>
      </trkpt>
      <trkpt lat="49.06805" lon="6.95845">
        <ele>264.3</ele>
        <time>2012-10-24T08:36:56Z</time>
      </trkpt>
      <trkpt lat="49.06797" lon="6.95849">
        <ele>263.9</ele>
        <time>2012-10-24T08:37:04Z</time>
      </trkpt>
      <trkpt lat="49.06795" lon="6.95862">
        <ele>263.6</ele>
        <time>2012-10-24T08:37:12Z</time>
      </trkpt>
      <trkpt lat="49.06798" lon="6.95873">
        <ele>264.6</ele>
        <time>2012-10-24T08:37:19Z</time>
      </trkpt>
      <trkpt lat="49.06802" lon="6.95883">
        <ele>263.7</ele>
        <time>2012-10-24T08:37:25Z</time>
      </trkpt>
      <trkpt lat="49.06807" lon="6.95894">
        <ele>264.1</ele>
        <time>2012-10-24T08:37:31Z</time>
      </trkpt>
      <trkpt lat="49.06812" lon="6.95905">
        <ele>263.4</ele>
        <time>2012-10-24T08:37:37Z</time>
      </trkpt>
      <trkpt lat="49.06812" lon="6.95918">
        <ele>263.5</ele>
        <time>2012-10-24T08:37:45Z</time>
      </trkpt>
      <trkpt lat="49.06811" lon="6.95919">
        <ele>263.5</ele>
        <time>2012-10-24T08:37:46Z</time>
      </trkpt>
      <trkpt lat="49.06798" lon="6.95934">
        <ele>263</ele>
        <time>2012-10-24T08:37:58Z</time>
      </trkpt>
      <trkpt lat="49.06791" lon="6.9594">
        <ele>263.3</ele>
        <time>2012-10-24T08:38:03Z</time>
      </trkpt>
      <trkpt lat="49.06785" lon="6.95945">
        <ele>263.5</ele>
        <time>2012-10-24T08:38:08Z</time>
      </trkpt>
      <trkpt lat="49.06777" lon="6.95951">
        <ele>262.5</ele>
        <time>2012-10-24T08:38:14Z</time>
      </trkpt>
      <trkpt lat="49.0677" lon="6.95957">
        <ele>263.2</ele>
        <time>2012-10-24T08:38:20Z</time>
      </trkpt>
      <trkpt lat="49.06762" lon="6.95961">
        <ele>262.4</ele>
        <time>2012-10-24T08:38:26Z</time>
      </trkpt>
      <trkpt lat="49.06754" lon="6.95965">
        <ele>263.3</ele>
        <time>2012-10-24T08:38:33Z</time>
      </trkpt>
      <trkpt lat="49.06746" lon="6.95971">
        <ele>263</ele>
        <time>2012-10-24T08:38:40Z</time>
      </trkpt>
      <trkpt lat="49.0674" lon="6.95981">
        <ele>263.3</ele>
        <time>2012-10-24T08:38:47Z</time>
      </trkpt>
      <trkpt lat="49.06739" lon="6.95983">
        <ele>262.8</ele>
        <time>2012-10-24T08:38:48Z</time>
      </trkpt>
      <trkpt lat="49.06729" lon="6.95998">
        <ele>262.2</ele>
        <time>2012-10-24T08:38:57Z</time>
      </trkpt>
      <trkpt lat="49.06721" lon="6.96004">
        <ele>262.4</ele>
        <time>2012-10-24T08:39:03Z</time>
      </trkpt>
      <trkpt lat="49.06713" lon="6.96009">
        <ele>263.3</ele>
        <time>2012-10-24T08:39:09Z</time>
      </trkpt>
      <trkpt lat="49.06705" lon="6.96014">
        <ele>263.2</ele>
        <time>2012-10-24T08:39:15Z</time>
      </trkpt>
      <trkpt lat="49.06697" lon="6.96019">
        <ele>264.1</ele>
        <time>2012-10-24T08:39:24Z</time>
      </trkpt>
      <trkpt lat="49.0669" lon="6.96024">
        <ele>264.1</ele>
        <time>2012-10-24T08:39:30Z</time>
      </trkpt>
      <trkpt lat="49.06682" lon="6.96027">
        <ele>265.1</ele>
        <time>2012-10-24T08:39:36Z</time>
      </trkpt>
      <trkpt lat="49.06675" lon="6.96031">
        <ele>265.2</ele>
        <time>2012-10-24T08:39:42Z</time>
      </trkpt>
      <trkpt lat="49.06667" lon="6.96036">
        <ele>265.9</ele>
        <time>2012-10-24T08:39:48Z</time>
      </trkpt>
      <trkpt lat="49.06665" lon="6.96036">
        <ele>265.9</ele>
        <time>2012-10-24T08:39:49Z</time>
      </trkpt>
      <trkpt lat="49.06651" lon="6.96044">
        <ele>267</ele>
        <time>2012-10-24T08:40:00Z</time>
      </trkpt>
      <trkpt lat="49.06644" lon="6.96049">
        <ele>267</ele>
        <time>2012-10-24T08:40:06Z</time>
      </trkpt>
      <trkpt lat="49.06636" lon="6.96053">
        <ele>267.9</ele>
        <time>2012-10-24T08:40:12Z</time>
      </trkpt>
      <trkpt lat="49.06629" lon="6.96059">
        <ele>267.8</ele>
        <time>2012-10-24T08:40:18Z</time>
      </trkpt>
      <trkpt lat="49.06621" lon="6.96063">
        <ele>268.3</ele>
        <time>2012-10-24T08:40:26Z</time>
      </trkpt>
      <trkpt lat="49.06613" lon="6.96068">
        <ele>269.5</ele>
        <time>2012-10-24T08:40:34Z</time>
      </trkpt>
      <trkpt lat="49.06606" lon="6.96071">
        <ele>269.8</ele>
        <time>2012-10-24T08:40:40Z</time>
      </trkpt>
      <trkpt lat="49.06598" lon="6.96075">
        <ele>270.2</ele>
        <time>2012-10-24T08:40:46Z</time>
      </trkpt>
      <trkpt lat="49.06591" lon="6.9608">
        <ele>271.8</ele>
        <time>2012-10-24T08:40:53Z</time>
      </trkpt>
      <trkpt lat="49.0659" lon="6.9608">
        <ele>272.1</ele>
        <time>2012-10-24T08:40:54Z</time>
      </trkpt>
      <trkpt lat="49.06575" lon="6.96086">
        <ele>273.3</ele>
        <time>2012-10-24T08:41:07Z</time>
      </trkpt>
      <trkpt lat="49.06566" lon="6.96088">
        <ele>273.3</ele>
        <time>2012-10-24T08:41:14Z</time>
      </trkpt>
      <trkpt lat="49.06559" lon="6.96083">
        <ele>273.8</ele>
        <time>2012-10-24T08:41:20Z</time>
      </trkpt>
      <trkpt lat="49.06551" lon="6.96082">
        <ele>273.6</ele>
        <time>2012-10-24T08:41:26Z</time>
      </trkpt>
      <trkpt lat="49.06543" lon="6.96079">
        <ele>275</ele>
        <time>2012-10-24T08:41:33Z</time>
      </trkpt>
      <trkpt lat="49.06536" lon="6.96074">
        <ele>275.4</ele>
        <time>2012-10-24T08:41:40Z</time>
      </trkpt>
      <trkpt lat="49.06528" lon="6.96067">
        <ele>275.5</ele>
        <time>2012-10-24T08:41:47Z</time>
      </trkpt>
      <trkpt lat="49.06522" lon="6.9606">
        <ele>276.5</ele>
        <time>2012-10-24T08:41:53Z</time>
      </trkpt>
      <trkpt lat="49.06515" lon="6.96053">
        <ele>276.7</ele>
        <time>2012-10-24T08:41:59Z</time>
      </trkpt>
      <trkpt lat="49.06514" lon="6.96052">
        <ele>276.6</ele>
        <time>2012-10-24T08:42:00Z</time>
      </trkpt>
      <trkpt lat="49.065" lon="6.9604">
        <ele>277.3</ele>
        <time>2012-10-24T08:42:13Z</time>
      </trkpt>
      <trkpt lat="49.06493" lon="6.96033">
        <ele>278.3</ele>
        <time>2012-10-24T08:42:20Z</time>
      </trkpt>
      <trkpt lat="49.06486" lon="6.96025">
        <ele>278.6</ele>
        <time>2012-10-24T08:42:28Z</time>
      </trkpt>
      <trkpt lat="49.06478" lon="6.96019">
        <ele>279.4</ele>
        <time>2012-10-24T08:42:36Z</time>
      </trkpt>
      <trkpt lat="49.06474" lon="6.96009">
        <ele>278.5</ele>
        <time>2012-10-24T08:42:44Z</time>
      </trkpt>
      <trkpt lat="49.06469" lon="6.95998">
        <ele>279.4</ele>
        <time>2012-10-24T08:42:56Z</time>
      </trkpt>
      <trkpt lat="49.06466" lon="6.95986">
        <ele>279.8</ele>
        <time>2012-10-24T08:43:08Z</time>
      </trkpt>
      <trkpt lat="49.06465" lon="6.95985">
        <ele>280</ele>
        <time>2012-10-24T08:43:09Z</time>
      </trkpt>
      <trkpt lat="49.06449" lon="6.95983">
        <ele>278.9</ele>
        <time>2012-10-24T08:43:24Z</time>
      </trkpt>
      <trkpt lat="49.06441" lon="6.95979">
        <ele>279.1</ele>
        <time>2012-10-24T08:43:31Z</time>
      </trkpt>
      <trkpt lat="49.06433" lon="6.95975">
        <ele>278.4</ele>
        <time>2012-10-24T08:43:38Z</time>
      </trkpt>
      <trkpt lat="49.06426" lon="6.9597">
        <ele>278.4</ele>
        <time>2012-10-24T08:43:45Z</time>
      </trkpt>
      <trkpt lat="49.06418" lon="6.95965">
        <ele>278.3</ele>
        <time>2012-10-24T08:43:53Z</time>
      </trkpt>
      <trkpt lat="49.0641" lon="6.95959">
        <ele>278.6</ele>
        <time>2012-10-24T08:44:02Z</time>
      </trkpt>
      <trkpt lat="49.06403" lon="6.95954">
        <ele>277.9</ele>
        <time>2012-10-24T08:44:08Z</time>
      </trkpt>
      <trkpt lat="49.06396" lon="6.95948">
        <ele>278</ele>
        <time>2012-10-24T08:44:14Z</time>
      </trkpt>
      <trkpt lat="49.06395" lon="6.95947">
        <ele>278.2</ele>
        <time>2012-10-24T08:44:15Z</time>
      </trkpt>
      <trkpt lat="49.0638" lon="6.95938">
        <ele>278.2</ele>
        <time>2012-10-24T08:44:27Z</time>
      </trkpt>
      <trkpt lat="49.06373" lon="6.95934">
        <ele>277.5</ele>
        <time>2012-10-24T08:44:33Z</time>
      </trkpt>
      <trkpt lat="49.06365" lon="6.9593">
        <ele>278.9</ele>
        <time>2012-10-24T08:44:39Z</time>
      </trkpt>
      <trkpt lat="49.06357" lon="6.95927">
        <ele>278.1</ele>
        <time>2012-10-24T08:44:45Z</time>
      </trkpt>
      <trkpt lat="49.0635" lon="6.95923">
        <ele>277.7</ele>
        <time>2012-10-24T08:44:51Z</time>
      </trkpt>
      <trkpt lat="49.06342" lon="6.95919">
        <ele>277.4</ele>
        <time>2012-10-24T08:44:58Z</time>
      </trkpt>
      <trkpt lat="49.06334" lon="6.95915">
        <ele>277.9</ele>
        <time>2012-10-24T08:45:05Z</time>
      </trkpt>
      <trkpt lat="49.06326" lon="6.95912">
        <ele>277.5</ele>
        <time>2012-10-24T08:45:12Z</time>
      </trkpt>
      <trkpt lat="49.06319" lon="6.95908">
        <ele>277.5</ele>
        <time>2012-10-24T08:45:18Z</time>
      </trkpt>
      <trkpt lat="49.06318" lon="6.95907">
        <ele>277.4</ele>
        <time>2012-10-24T08:45:19Z</time>
      </trkpt>
      <trkpt lat="49.06303" lon="6.95898">
        <ele>277</ele>
        <time>2012-10-24T08:45:31Z</time>
      </trkpt>
      <trkpt lat="49.06296" lon="6.95892">
        <ele>277.4</ele>
        <time>2012-10-24T08:45:37Z</time>
      </trkpt>
      <trkpt lat="49.06288" lon="6.95889">
        <ele>277.2</ele>
        <time>2012-10-24T08:45:43Z</time>
      </trkpt>
      <trkpt lat="49.0628" lon="6.95883">
        <ele>276.8</ele>
        <time>2012-10-24T08:45:52Z</time>
      </trkpt>
      <trkpt lat="49.06273" lon="6.95877">
        <ele>277.3</ele>
        <time>2012-10-24T08:45:59Z</time>
      </trkpt>
      <trkpt lat="49.06267" lon="6.95869">
        <ele>276.4</ele>
        <time>2012-10-24T08:46:05Z</time>
      </trkpt>
      <trkpt lat="49.06261" lon="6.95861">
        <ele>277</ele>
        <time>2012-10-24T08:46:12Z</time>
      </trkpt>
      <trkpt lat="49.06256" lon="6.95852">
        <ele>276.6</ele>
        <time>2012-10-24T08:46:19Z</time>
      </trkpt>
      <trkpt lat="49.06255" lon="6.95851">
        <ele>276.5</ele>
        <time>2012-10-24T08:46:20Z</time>
      </trkpt>
      <trkpt lat="49.06244" lon="6.95833">
        <ele>276</ele>
        <time>2012-10-24T08:46:32Z</time>
      </trkpt>
      <trkpt lat="49.06238" lon="6.95823">
        <ele>276</ele>
        <time>2012-10-24T08:46:38Z</time>
      </trkpt>
      <trkpt lat="49.06231" lon="6.95814">
        <ele>277</ele>
        <time>2012-10-24T08:46:45Z</time>
      </trkpt>
      <trkpt lat="49.06226" lon="6.95805">
        <ele>277.3</ele>
        <time>2012-10-24T08:46:52Z</time>
      </trkpt>
      <trkpt lat="49.0622" lon="6.95798">
        <ele>276.1</ele>
        <time>2012-10-24T08:46:57Z</time>
      </trkpt>
      <trkpt lat="49.06214" lon="6.95789">
        <ele>277.3</ele>
        <time>2012-10-24T08:47:03Z</time>
      </trkpt>
      <trkpt lat="49.06209" lon="6.9578">
        <ele>276.8</ele>
        <time>2012-10-24T08:47:09Z</time>
      </trkpt>
      <trkpt lat="49.06203" lon="6.95772">
        <ele>276.6</ele>
        <time>2012-10-24T08:47:15Z</time>
      </trkpt>
      <trkpt lat="49.06197" lon="6.95763">
        <ele>276.4</ele>
        <time>2012-10-24T08:47:22Z</time>
      </trkpt>
      <trkpt lat="49.06196" lon="6.95762">
        <ele>276.3</ele>
        <time>2012-10-24T08:47:23Z</time>
      </trkpt>
      <trkpt lat="49.06184" lon="6.95745">
        <ele>276</ele>
        <time>2012-10-24T08:47:38Z</time>
      </trkpt>
      <trkpt lat="49.06178" lon="6.95736">
        <ele>277</ele>
        <time>2012-10-24T08:47:45Z</time>
      </trkpt>
      <trkpt lat="49.06173" lon="6.95728">
        <ele>275.1</ele>
        <time>2012-10-24T08:47:52Z</time>
      </trkpt>
      <trkpt lat="49.06166" lon="6.95719">
        <ele>274.8</ele>
        <time>2012-10-24T08:47:59Z</time>
      </trkpt>
      <trkpt lat="49.06161" lon="6.9571">
        <ele>275.2</ele>
        <time>2012-10-24T08:48:06Z</time>
      </trkpt>
      <trkpt lat="49.06154" lon="6.95701">
        <ele>274.5</ele>
        <time>2012-10-24T08:48:12Z</time>
      </trkpt>
      <trkpt lat="49.0615" lon="6.95691">
        <ele>274.5</ele>
        <time>2012-10-24T08:48:19Z</time>
      </trkpt>
      <trkpt lat="49.06144" lon="6.95681">
        <ele>275</ele>
        <time>2012-10-24T08:48:25Z</time>
      </trkpt>
      <trkpt lat="49.06143" lon="6.9568">
        <ele>274.9</ele>
        <time>2012-10-24T08:48:26Z</time>
      </trkpt>
      <trkpt lat="49.06131" lon="6.95663">
        <ele>275</ele>
        <time>2012-10-24T08:48:39Z</time>
      </trkpt>
      <trkpt lat="49.06126" lon="6.95654">
        <ele>275.1</ele>
        <time>2012-10-24T08:48:45Z</time>
      </trkpt>
      <trkpt lat="49.0612" lon="6.95644">
        <ele>274.8</ele>
        <time>2012-10-24T08:48:52Z</time>
      </trkpt>
      <trkpt lat="49.06115" lon="6.95635">
        <ele>274.5</ele>
        <time>2012-10-24T08:48:58Z</time>
      </trkpt>
      <trkpt lat="49.06109" lon="6.95624">
        <ele>274.5</ele>
        <time>2012-10-24T08:49:06Z</time>
      </trkpt>
      <trkpt lat="49.06106" lon="6.95612">
        <ele>274.4</ele>
        <time>2012-10-24T08:49:18Z</time>
      </trkpt>
      <trkpt lat="49.06106" lon="6.95598">
        <ele>274.4</ele>
        <time>2012-10-24T08:49:27Z</time>
      </trkpt>
      <trkpt lat="49.06106" lon="6.95597">
        <ele>274.4</ele>
        <time>2012-10-24T08:49:28Z</time>
      </trkpt>
      <trkpt lat="49.06095" lon="6.95578">
        <ele>274.2</ele>
        <time>2012-10-24T08:49:45Z</time>
      </trkpt>
      <trkpt lat="49.06089" lon="6.95569">
        <ele>274.2</ele>
        <time>2012-10-24T08:49:52Z</time>
      </trkpt>
      <trkpt lat="49.06084" lon="6.9556">
        <ele>274.6</ele>
        <time>2012-10-24T08:49:58Z</time>
      </trkpt>
      <trkpt lat="49.06081" lon="6.95548">
        <ele>274</ele>
        <time>2012-10-24T08:50:05Z</time>
      </trkpt>
      <trkpt lat="49.0608" lon="6.95535">
        <ele>273.3</ele>
        <time>2012-10-24T08:50:12Z</time>
      </trkpt>
      <trkpt lat="49.06077" lon="6.95523">
        <ele>273.2</ele>
        <time>2012-10-24T08:50:19Z</time>
      </trkpt>
      <trkpt lat="49.06072" lon="6.95512">
        <ele>272.9</ele>
        <time>2012-10-24T08:50:27Z</time>
      </trkpt>
      <trkpt lat="49.06069" lon="6.955">
        <ele>272.5</ele>
        <time>2012-10-24T08:50:34Z</time>
      </trkpt>
      <trkpt lat="49.06068" lon="6.95499">
        <ele>272.2</ele>
        <time>2012-10-24T08:50:35Z</time>
      </trkpt>
      <trkpt lat="49.0606" lon="6.9548">
        <ele>272</ele>
        <time>2012-10-24T08:50:46Z</time>
      </trkpt>
      <trkpt lat="49.06053" lon="6.95472">
        <ele>272</ele>
        <time>2012-10-24T08:50:52Z</time>
      </trkpt>
      <trkpt lat="49.06048" lon="6.95462">
        <ele>271</ele>
        <time>2012-10-24T08:50:59Z</time>
      </trkpt>
      <trkpt lat="49.06046" lon="6.95449">
        <ele>270.8</ele>
        <time>2012-10-24T08:51:07Z</time>
      </trkpt>
      <trkpt lat="49.06047" lon="6.95437">
        <ele>270.5</ele>
        <time>2012-10-24T08:51:14Z</time>
      </trkpt>
      <trkpt lat="49.06046" lon="6.95425">
        <ele>269.3</ele>
        <time>2012-10-24T08:51:21Z</time>
      </trkpt>
      <trkpt lat="49.06045" lon="6.95413">
        <ele>268.8</ele>
        <time>2012-10-24T08:51:27Z</time>
      </trkpt>
      <trkpt lat="49.06045" lon="6.954">
        <ele>268</ele>
        <time>2012-10-24T08:51:33Z</time>
      </trkpt>
      <trkpt lat="49.06043" lon="6.95387">
        <ele>268</ele>
        <time>2012-10-24T08:51:39Z</time>
      </trkpt>
      <trkpt lat="49.06043" lon="6.95385">
        <ele>267.9</ele>
        <time>2012-10-24T08:51:40Z</time>
      </trkpt>
      <trkpt lat="49.06043" lon="6.95362">
        <ele>267.3</ele>
        <time>2012-10-24T08:51:51Z</time>
      </trkpt>
      <trkpt lat="49.06042" lon="6.95349">
        <ele>266.3</ele>
        <time>2012-10-24T08:51:57Z</time>
      </trkpt>
      <trkpt lat="49.06041" lon="6.95337">
        <ele>266.1</ele>
        <time>2012-10-24T08:52:03Z</time>
      </trkpt>
      <trkpt lat="49.06042" lon="6.95323">
        <ele>265.7</ele>
        <time>2012-10-24T08:52:09Z</time>
      </trkpt>
      <trkpt lat="49.06042" lon="6.9531">
        <ele>264.1</ele>
        <time>2012-10-24T08:52:17Z</time>
      </trkpt>
      <trkpt lat="49.06042" lon="6.95297">
        <ele>263.6</ele>
        <time>2012-10-24T08:52:24Z</time>
      </trkpt>
      <trkpt lat="49.06041" lon="6.95283">
        <ele>262.7</ele>
        <time>2012-10-24T08:52:32Z</time>
      </trkpt>
      <trkpt lat="49.06042" lon="6.95271">
        <ele>263</ele>
        <time>2012-10-24T08:52:39Z</time>
      </trkpt>
      <trkpt lat="49.06043" lon="6.95258">
        <ele>262</ele>
        <time>2012-10-24T08:52:47Z</time>
      </trkpt>
      <trkpt lat="49.06043" lon="6.95256">
        <ele>261.9</ele>
        <time>2012-10-24T08:52:48Z</time>
      </trkpt>
      <trkpt lat="49.06043" lon="6.95232">
        <ele>261.7</ele>
        <time>2012-10-24T08:52:59Z</time>
      </trkpt>
      <trkpt lat="49.06044" lon="6.95219">
        <ele>261</ele>
        <time>2012-10-24T08:53:05Z</time>
      </trkpt>
      <trkpt lat="49.06044" lon="6.95206">
        <ele>260</ele>
        <time>2012-10-24T08:53:12Z</time>
      </trkpt>
      <trkpt lat="49.06044" lon="6.95193">
        <ele>260.9</ele>
        <time>2012-10-24T08:53:18Z</time>
      </trkpt>
      <trkpt lat="49.06043" lon="6.95181">
        <ele>259.8</ele>
        <time>2012-10-24T08:53:25Z</time>
      </trkpt>
      <trkpt lat="49.06042" lon="6.95167">
        <ele>259.1</ele>
        <time>2012-10-24T08:53:32Z</time>
      </trkpt>
      <trkpt lat="49.06042" lon="6.95155">
        <ele>258.3</ele>
        <time>2012-10-24T08:53:38Z</time>
      </trkpt>
      <trkpt lat="49.06042" lon="6.95143">
        <ele>257.3</ele>
        <time>2012-10-24T08:53:43Z</time>
      </trkpt>
      <trkpt lat="49.06043" lon="6.9513">
        <ele>257.9</ele>
        <time>2012-10-24T08:53:49Z</time>
      </trkpt>
      <trkpt lat="49.06043" lon="6.95127">
        <ele>257.9</ele>
        <time>2012-10-24T08:53:50Z</time>
      </trkpt>
      <trkpt lat="49.06046" lon="6.95106">
        <ele>257.1</ele>
        <time>2012-10-24T08:53:59Z</time>
      </trkpt>
      <trkpt lat="49.06048" lon="6.95093">
        <ele>256.5</ele>
        <time>2012-10-24T08:54:04Z</time>
      </trkpt>
      <trkpt lat="49.06051" lon="6.95081">
        <ele>256.6</ele>
        <time>2012-10-24T08:54:13Z</time>
      </trkpt>
      <trkpt lat="49.06048" lon="6.9507">
        <ele>257.9</ele>
        <time>2012-10-24T08:54:20Z</time>
      </trkpt>
      <trkpt lat="49.06041" lon="6.95062">
        <ele>258.2</ele>
        <time>2012-10-24T08:54:26Z</time>
      </trkpt>
      <trkpt lat="49.06034" lon="6.95056">
        <ele>258.1</ele>
        <time>2012-10-24T08:54:32Z</time>
      </trkpt>
      <trkpt lat="49.06026" lon="6.95051">
        <ele>257.7</ele>
        <time>2012-10-24T08:54:39Z</time>
      </trkpt>
      <trkpt lat="49.06018" lon="6.95047">
        <ele>257.9</ele>
        <time>2012-10-24T08:54:45Z</time>
      </trkpt>
      <trkpt lat="49.0601" lon="6.95043">
        <ele>257.4</ele>
        <time>2012-10-24T08:54:51Z</time>
      </trkpt>
      <trkpt lat="49.06009" lon="6.95043">
        <ele>257.1</ele>
        <time>2012-10-24T08:54:52Z</time>
      </trkpt>
      <trkpt lat="49.05994" lon="6.95038">
        <ele>256.9</ele>
        <time>2012-10-24T08:55:04Z</time>
      </trkpt>
      <trkpt lat="49.05986" lon="6.95035">
        <ele>257.7</ele>
        <time>2012-10-24T08:55:11Z</time>
      </trkpt>
      <trkpt lat="49.05978" lon="6.95032">
        <ele>257</ele>
        <time>2012-10-24T08:55:18Z</time>
      </trkpt>
      <trkpt lat="49.0597" lon="6.95033">
        <ele>256.9</ele>
        <time>2012-10-24T08:55:25Z</time>
      </trkpt>
      <trkpt lat="49.05961" lon="6.95034">
        <ele>256.7</ele>
        <time>2012-10-24T08:55:33Z</time>
      </trkpt>
      <trkpt lat="49.05953" lon="6.95035">
        <ele>256.3</ele>
        <time>2012-10-24T08:55:41Z</time>
      </trkpt>
      <trkpt lat="49.05944" lon="6.95035">
        <ele>255.9</ele>
        <time>2012-10-24T08:55:48Z</time>
      </trkpt>
      <trkpt lat="49.05936" lon="6.95035">
        <ele>255.3</ele>
        <time>2012-10-24T08:55:55Z</time>
      </trkpt>
      <trkpt lat="49.05935" lon="6.95035">
        <ele>255.2</ele>
        <time>2012-10-24T08:55:56Z</time>
      </trkpt>
      <trkpt lat="49.05919" lon="6.95034">
        <ele>255.2</ele>
        <time>2012-10-24T08:56:09Z</time>
      </trkpt>
      <trkpt lat="49.0591" lon="6.95034">
        <ele>254.8</ele>
        <time>2012-10-24T08:56:17Z</time>
      </trkpt>
      <trkpt lat="49.05901" lon="6.95035">
        <ele>254.9</ele>
        <time>2012-10-24T08:56:24Z</time>
      </trkpt>
      <trkpt lat="49.05893" lon="6.95034">
        <ele>254.9</ele>
        <time>2012-10-24T08:56:31Z</time>
      </trkpt>
      <trkpt lat="49.05884" lon="6.95035">
        <ele>255.1</ele>
        <time>2012-10-24T08:56:37Z</time>
      </trkpt>
      <trkpt lat="49.05876" lon="6.95035">
        <ele>254.8</ele>
        <time>2012-10-24T08:56:42Z</time>
      </trkpt>
      <trkpt lat="49.05868" lon="6.95035">
        <ele>255.5</ele>
        <time>2012-10-24T08:56:47Z</time>
      </trkpt>
      <trkpt lat="49.05861" lon="6.95037">
        <ele>255.6</ele>
        <time>2012-10-24T08:56:52Z</time>
      </trkpt>
      <trkpt lat="49.05853" lon="6.95037">
        <ele>256.1</ele>
        <time>2012-10-24T08:56:57Z</time>
      </trkpt>
      <trkpt lat="49.05852" lon="6.95037">
        <ele>256</ele>
        <time>2012-10-24T08:56:58Z</time>
      </trkpt>
      <trkpt lat="49.05837" lon="6.95039">
        <ele>256.5</ele>
        <time>2012-10-24T08:57:09Z</time>
      </trkpt>
      <trkpt lat="49.05829" lon="6.9504">
        <ele>256.3</ele>
        <time>2012-10-24T08:57:15Z</time>
      </trkpt>
      <trkpt lat="49.05821" lon="6.95042">
        <ele>256.7</ele>
        <time>2012-10-24T08:57:21Z</time>
      </trkpt>
      <trkpt lat="49.05813" lon="6.95044">
        <ele>256.7</ele>
        <time>2012-10-24T08:57:27Z</time>
      </trkpt>
      <trkpt lat="49.05805" lon="6.95048">
        <ele>256.6</ele>
        <time>2012-10-24T08:57:33Z</time>
      </trkpt>
      <trkpt lat="49.05797" lon="6.9505">
        <ele>256.7</ele>
        <time>2012-10-24T08:57:40Z</time>
      </trkpt>
      <trkpt lat="49.05788" lon="6.95052">
        <ele>257.7</ele>
        <time>2012-10-24T08:57:47Z</time>
      </trkpt>
      <trkpt lat="49.0578" lon="6.95054">
        <ele>258.2</ele>
        <time>2012-10-24T08:57:53Z</time>
      </trkpt>
      <trkpt lat="49.05772" lon="6.95055">
        <ele>258.1</ele>
        <time>2012-10-24T08:57:59Z</time>
      </trkpt>
      <trkpt lat="49.05771" lon="6.95055">
        <ele>258.2</ele>
        <time>2012-10-24T08:58:00Z</time>
      </trkpt>
      <trkpt lat="49.05755" lon="6.95059">
        <ele>258.4</ele>
        <time>2012-10-24T08:58:13Z</time>
      </trkpt>
      <trkpt lat="49.05747" lon="6.95062">
        <ele>258.8</ele>
        <time>2012-10-24T08:58:20Z</time>
      </trkpt>
      <trkpt lat="49.05738" lon="6.95064">
        <ele>259.1</ele>
        <time>2012-10-24T08:58:27Z</time>
      </trkpt>
      <trkpt lat="49.0573" lon="6.95068">
        <ele>258.8</ele>
        <time>2012-10-24T08:58:33Z</time>
      </trkpt>
      <trkpt lat="49.05722" lon="6.95071">
        <ele>259</ele>
        <time>2012-10-24T08:58:39Z</time>
      </trkpt>
      <trkpt lat="49.05714" lon="6.95074">
        <ele>259.1</ele>
        <time>2012-10-24T08:58:45Z</time>
      </trkpt>
      <trkpt lat="49.05706" lon="6.95077">
        <ele>259</ele>
        <time>2012-10-24T08:58:51Z</time>
      </trkpt>
      <trkpt lat="49.05698" lon="6.9508">
        <ele>258.4</ele>
        <time>2012-10-24T08:58:57Z</time>
      </trkpt>
      <trkpt lat="49.05691" lon="6.95083">
        <ele>257.6</ele>
        <time>2012-10-24T08:59:02Z</time>
      </trkpt>
      <trkpt lat="49.05689" lon="6.95084">
        <ele>257.9</ele>
        <time>2012-10-24T08:59:03Z</time>
      </trkpt>
      <trkpt lat="49.05674" lon="6.9509">
        <ele>258</ele>
        <time>2012-10-24T08:59:15Z</time>
      </trkpt>
      <trkpt lat="49.05666" lon="6.95089">
        <ele>258.7</ele>
        <time>2012-10-24T08:59:22Z</time>
      </trkpt>
      <trkpt lat="49.05659" lon="6.95085">
        <ele>258.2</ele>
        <time>2012-10-24T08:59:31Z</time>
      </trkpt>
      <trkpt lat="49.05651" lon="6.95078">
        <ele>257.7</ele>
        <time>2012-10-24T08:59:39Z</time>
      </trkpt>
      <trkpt lat="49.05646" lon="6.95069">
        <ele>257.3</ele>
        <time>2012-10-24T08:59:47Z</time>
      </trkpt>
      <trkpt lat="49.0564" lon="6.9506">
        <ele>255.8</ele>
        <time>2012-10-24T08:59:54Z</time>
      </trkpt>
      <trkpt lat="49.05635" lon="6.95051">
        <ele>255.9</ele>
        <time>2012-10-24T09:00:00Z</time>
      </trkpt>
      <trkpt lat="49.0563" lon="6.9504">
        <ele>255.4</ele>
        <time>2012-10-24T09:00:06Z</time>
      </trkpt>
      <trkpt lat="49.05629" lon="6.95038">
        <ele>255.3</ele>
        <time>2012-10-24T09:00:07Z</time>
      </trkpt>
      <trkpt lat="49.05622" lon="6.95018">
        <ele>255.1</ele>
        <time>2012-10-24T09:00:19Z</time>
      </trkpt>
      <trkpt lat="49.05619" lon="6.95006">
        <ele>254.9</ele>
        <time>2012-10-24T09:00:25Z</time>
      </trkpt>
      <trkpt lat="49.05616" lon="6.94995">
        <ele>253.8</ele>
        <time>2012-10-24T09:00:30Z</time>
      </trkpt>
      <trkpt lat="49.05613" lon="6.94984">
        <ele>253.9</ele>
        <time>2012-10-24T09:00:35Z</time>
      </trkpt>
      <trkpt lat="49.05611" lon="6.94972">
        <ele>253.7</ele>
        <time>2012-10-24T09:00:40Z</time>
      </trkpt>
      <trkpt lat="49.05608" lon="6.9496">
        <ele>253.1</ele>
        <time>2012-10-24T09:00:45Z</time>
      </trkpt>
      <trkpt lat="49.05605" lon="6.94949">
        <ele>252.5</ele>
        <time>2012-10-24T09:00:50Z</time>
      </trkpt>
      <trkpt lat="49.05603" lon="6.94937">
        <ele>251.9</ele>
        <time>2012-10-24T09:00:55Z</time>
      </trkpt>
      <trkpt lat="49.05601" lon="6.94926">
        <ele>252.2</ele>
        <time>2012-10-24T09:01:00Z</time>
      </trkpt>
      <trkpt lat="49.05599" lon="6.94914">
        <ele>251.9</ele>
        <time>2012-10-24T09:01:05Z</time>
      </trkpt>
      <trkpt lat="49.05597" lon="6.94902">
        <ele>251.2</ele>
        <time>2012-10-24T09:01:11Z</time>
      </trkpt>
      <trkpt lat="49.05596" lon="6.949">
        <ele>250.9</ele>
        <time>2012-10-24T09:01:12Z</time>
      </trkpt>
      <trkpt lat="49.05592" lon="6.94877">
        <ele>249.8</ele>
        <time>2012-10-24T09:01:23Z</time>
      </trkpt>
      <trkpt lat="49.05591" lon="6.94865">
        <ele>249.8</ele>
        <time>2012-10-24T09:01:29Z</time>
      </trkpt>
      <trkpt lat="49.05589" lon="6.94853">
        <ele>248.6</ele>
        <time>2012-10-24T09:01:35Z</time>
      </trkpt>
      <trkpt lat="49.05587" lon="6.94842">
        <ele>248.2</ele>
        <time>2012-10-24T09:01:41Z</time>
      </trkpt>
      <trkpt lat="49.05585" lon="6.9483">
        <ele>247.9</ele>
        <time>2012-10-24T09:01:47Z</time>
      </trkpt>
      <trkpt lat="49.05583" lon="6.94818">
        <ele>247.8</ele>
        <time>2012-10-24T09:01:53Z</time>
      </trkpt>
      <trkpt lat="49.05581" lon="6.94806">
        <ele>247.5</ele>
        <time>2012-10-24T09:01:59Z</time>
      </trkpt>
      <trkpt lat="49.05579" lon="6.94795">
        <ele>246.9</ele>
        <time>2012-10-24T09:02:05Z</time>
      </trkpt>
      <trkpt lat="49.05578" lon="6.94783">
        <ele>247.1</ele>
        <time>2012-10-24T09:02:11Z</time>
      </trkpt>
      <trkpt lat="49.05576" lon="6.94771">
        <ele>246.1</ele>
        <time>2012-10-24T09:02:17Z</time>
      </trkpt>
      <trkpt lat="49.05576" lon="6.94769">
        <ele>245.9</ele>
        <time>2012-10-24T09:02:18Z</time>
      </trkpt>
      <trkpt lat="49.05573" lon="6.94745">
        <ele>245.2</ele>
        <time>2012-10-24T09:02:31Z</time>
      </trkpt>
      <trkpt lat="49.05571" lon="6.94732">
        <ele>243.9</ele>
        <time>2012-10-24T09:02:38Z</time>
      </trkpt>
      <trkpt lat="49.05569" lon="6.94719">
        <ele>244.4</ele>
        <time>2012-10-24T09:02:45Z</time>
      </trkpt>
      <trkpt lat="49.05568" lon="6.94708">
        <ele>242.7</ele>
        <time>2012-10-24T09:02:51Z</time>
      </trkpt>
      <trkpt lat="49.05567" lon="6.94696">
        <ele>242.8</ele>
        <time>2012-10-24T09:02:57Z</time>
      </trkpt>
      <trkpt lat="49.05566" lon="6.94683">
        <ele>241.5</ele>
        <time>2012-10-24T09:03:04Z</time>
      </trkpt>
      <trkpt lat="49.05565" lon="6.94671">
        <ele>241.4</ele>
        <time>2012-10-24T09:03:11Z</time>
      </trkpt>
      <trkpt lat="49.05564" lon="6.94658">
        <ele>240.4</ele>
        <time>2012-10-24T09:03:19Z</time>
      </trkpt>
      <trkpt lat="49.05564" lon="6.94656">
        <ele>240.1</ele>
        <time>2012-10-24T09:03:20Z</time>
      </trkpt>
      <trkpt lat="49.05561" lon="6.94634">
        <ele>239</ele>
        <time>2012-10-24T09:03:32Z</time>
      </trkpt>
      <trkpt lat="49.05559" lon="6.94621">
        <ele>238.3</ele>
        <time>2012-10-24T09:03:40Z</time>
      </trkpt>
      <trkpt lat="49.05557" lon="6.94609">
        <ele>238.4</ele>
        <time>2012-10-24T09:03:47Z</time>
      </trkpt>
      <trkpt lat="49.05556" lon="6.94597">
        <ele>237.7</ele>
        <time>2012-10-24T09:03:53Z</time>
      </trkpt>
      <trkpt lat="49.05555" lon="6.94584">
        <ele>236.5</ele>
        <time>2012-10-24T09:03:59Z</time>
      </trkpt>
      <trkpt lat="49.05552" lon="6.94572">
        <ele>235.9</ele>
        <time>2012-10-24T09:04:05Z</time>
      </trkpt>
      <trkpt lat="49.0555" lon="6.9456">
        <ele>235.2</ele>
        <time>2012-10-24T09:04:11Z</time>
      </trkpt>
      <trkpt lat="49.05548" lon="6.94549">
        <ele>235.5</ele>
        <time>2012-10-24T09:04:17Z</time>
      </trkpt>
      <trkpt lat="49.05546" lon="6.94536">
        <ele>234.7</ele>
        <time>2012-10-24T09:04:23Z</time>
      </trkpt>
      <trkpt lat="49.05546" lon="6.94534">
        <ele>234.7</ele>
        <time>2012-10-24T09:04:24Z</time>
      </trkpt>
      <trkpt lat="49.05543" lon="6.94509">
        <ele>234.9</ele>
        <time>2012-10-24T09:04:35Z</time>
      </trkpt>
      <trkpt lat="49.05542" lon="6.94496">
        <ele>235.4</ele>
        <time>2012-10-24T09:04:41Z</time>
      </trkpt>
      <trkpt lat="49.0554" lon="6.94483">
        <ele>234.6</ele>
        <time>2012-10-24T09:04:47Z</time>
      </trkpt>
      <trkpt lat="49.05539" lon="6.94471">
        <ele>235.3</ele>
        <time>2012-10-24T09:04:53Z</time>
      </trkpt>
      <trkpt lat="49.05537" lon="6.94458">
        <ele>234.8</ele>
        <time>2012-10-24T09:04:59Z</time>
      </trkpt>
      <trkpt lat="49.05536" lon="6.94445">
        <ele>234.5</ele>
        <time>2012-10-24T09:05:05Z</time>
      </trkpt>
      <trkpt lat="49.05534" lon="6.94432">
        <ele>235</ele>
        <time>2012-10-24T09:05:11Z</time>
      </trkpt>
      <trkpt lat="49.05532" lon="6.9442">
        <ele>234.8</ele>
        <time>2012-10-24T09:05:17Z</time>
      </trkpt>
      <trkpt lat="49.0553" lon="6.94409">
        <ele>234.3</ele>
        <time>2012-10-24T09:05:23Z</time>
      </trkpt>
      <trkpt lat="49.05528" lon="6.94397">
        <ele>234.2</ele>
        <time>2012-10-24T09:05:29Z</time>
      </trkpt>
      <trkpt lat="49.05528" lon="6.94395">
        <ele>234.3</ele>
        <time>2012-10-24T09:05:30Z</time>
      </trkpt>
      <trkpt lat="49.05525" lon="6.94373">
        <ele>235</ele>
        <time>2012-10-24T09:05:41Z</time>
      </trkpt>
      <trkpt lat="49.05523" lon="6.94362">
        <ele>235.3</ele>
        <time>2012-10-24T09:05:47Z</time>
      </trkpt>
      <trkpt lat="49.05521" lon="6.9435">
        <ele>235.5</ele>
        <time>2012-10-24T09:05:53Z</time>
      </trkpt>
      <trkpt lat="49.05519" lon="6.94338">
        <ele>234.9</ele>
        <time>2012-10-24T09:05:59Z</time>
      </trkpt>
      <trkpt lat="49.05517" lon="6.94326">
        <ele>235.1</ele>
        <time>2012-10-24T09:06:05Z</time>
      </trkpt>
      <trkpt lat="49.05515" lon="6.94314">
        <ele>235.1</ele>
        <time>2012-10-24T09:06:11Z</time>
      </trkpt>
      <trkpt lat="49.05513" lon="6.94301">
        <ele>235.5</ele>
        <time>2012-10-24T09:06:17Z</time>
      </trkpt>
      <trkpt lat="49.05511" lon="6.94289">
        <ele>234.1</ele>
        <time>2012-10-24T09:06:23Z</time>
      </trkpt>
      <trkpt lat="49.05508" lon="6.94277">
        <ele>233.9</ele>
        <time>2012-10-24T09:06:29Z</time>
      </trkpt>
      <trkpt lat="49.05504" lon="6.94267">
        <ele>234.5</ele>
        <time>2012-10-24T09:06:35Z</time>
      </trkpt>
      <trkpt lat="49.05503" lon="6.94265">
        <ele>234.5</ele>
        <time>2012-10-24T09:06:36Z</time>
      </trkpt>
      <trkpt lat="49.05493" lon="6.94248">
        <ele>234.3</ele>
        <time>2012-10-24T09:06:47Z</time>
      </trkpt>
      <trkpt lat="49.05487" lon="6.9424">
        <ele>235</ele>
        <time>2012-10-24T09:06:53Z</time>
      </trkpt>
      <trkpt lat="49.05481" lon="6.94231">
        <ele>234.6</ele>
        <time>2012-10-24T09:07:00Z</time>
      </trkpt>
      <trkpt lat="49.05476" lon="6.94221">
        <ele>235</ele>
        <time>2012-10-24T09:07:07Z</time>
      </trkpt>
      <trkpt lat="49.0547" lon="6.94211">
        <ele>235.2</ele>
        <time>2012-10-24T09:07:14Z</time>
      </trkpt>
      <trkpt lat="49.05465" lon="6.94201">
        <ele>235.2</ele>
        <time>2012-10-24T09:07:20Z</time>
      </trkpt>
      <trkpt lat="49.05462" lon="6.94189">
        <ele>235.9</ele>
        <time>2012-10-24T09:07:27Z</time>
      </trkpt>
      <trkpt lat="49.05458" lon="6.94178">
        <ele>236.6</ele>
        <time>2012-10-24T09:07:35Z</time>
      </trkpt>
      <trkpt lat="49.05455" lon="6.94166">
        <ele>237.2</ele>
        <time>2012-10-24T09:07:42Z</time>
      </trkpt>
      <trkpt lat="49.05455" lon="6.94164">
        <ele>237.2</ele>
        <time>2012-10-24T09:07:43Z</time>
      </trkpt>
      <trkpt lat="49.0545" lon="6.94141">
        <ele>238.1</ele>
        <time>2012-10-24T09:07:54Z</time>
      </trkpt>
      <trkpt lat="49.05449" lon="6.94128">
        <ele>238.5</ele>
        <time>2012-10-24T09:08:00Z</time>
      </trkpt>
      <trkpt lat="49.05448" lon="6.94115">
        <ele>239.3</ele>
        <time>2012-10-24T09:08:06Z</time>
      </trkpt>
      <trkpt lat="49.05446" lon="6.94102">
        <ele>239.7</ele>
        <time>2012-10-24T09:08:12Z</time>
      </trkpt>
      <trkpt lat="49.05444" lon="6.94089">
        <ele>239.8</ele>
        <time>2012-10-24T09:08:20Z</time>
      </trkpt>
      <trkpt lat="49.05444" lon="6.94077">
        <ele>240.2</ele>
        <time>2012-10-24T09:08:28Z</time>
      </trkpt>
      <trkpt lat="49.05444" lon="6.94063">
        <ele>240.8</ele>
        <time>2012-10-24T09:08:35Z</time>
      </trkpt>
      <trkpt lat="49.05443" lon="6.94051">
        <ele>240.6</ele>
        <time>2012-10-24T09:08:41Z</time>
      </trkpt>
      <trkpt lat="49.05442" lon="6.94037">
        <ele>241.3</ele>
        <time>2012-10-24T09:08:48Z</time>
      </trkpt>
      <trkpt lat="49.05441" lon="6.94035">
        <ele>241.4</ele>
        <time>2012-10-24T09:08:49Z</time>
      </trkpt>
      <trkpt lat="49.05438" lon="6.94013">
        <ele>242</ele>
        <time>2012-10-24T09:09:02Z</time>
      </trkpt>
      <trkpt lat="49.05436" lon="6.94001">
        <ele>242.3</ele>
        <time>2012-10-24T09:09:08Z</time>
      </trkpt>
      <trkpt lat="49.05434" lon="6.9399">
        <ele>242.4</ele>
        <time>2012-10-24T09:09:14Z</time>
      </trkpt>
      <trkpt lat="49.05432" lon="6.93978">
        <ele>242.5</ele>
        <time>2012-10-24T09:09:20Z</time>
      </trkpt>
      <trkpt lat="49.0543" lon="6.93965">
        <ele>243</ele>
        <time>2012-10-24T09:09:27Z</time>
      </trkpt>
      <trkpt lat="49.05428" lon="6.93952">
        <ele>243.8</ele>
        <time>2012-10-24T09:09:33Z</time>
      </trkpt>
      <trkpt lat="49.05427" lon="6.9394">
        <ele>243.1</ele>
        <time>2012-10-24T09:09:39Z</time>
      </trkpt>
      <trkpt lat="49.05426" lon="6.93929">
        <ele>244.1</ele>
        <time>2012-10-24T09:09:45Z</time>
      </trkpt>
      <trkpt lat="49.05424" lon="6.93917">
        <ele>244.7</ele>
        <time>2012-10-24T09:09:51Z</time>
      </trkpt>
      <trkpt lat="49.05424" lon="6.93915">
        <ele>244.9</ele>
        <time>2012-10-24T09:09:52Z</time>
      </trkpt>
      <trkpt lat="49.05422" lon="6.93893">
        <ele>244.4</ele>
        <time>2012-10-24T09:10:03Z</time>
      </trkpt>
      <trkpt lat="49.0542" lon="6.9388">
        <ele>245.1</ele>
        <time>2012-10-24T09:10:10Z</time>
      </trkpt>
      <trkpt lat="49.05419" lon="6.93868">
        <ele>245.2</ele>
        <time>2012-10-24T09:10:16Z</time>
      </trkpt>
      <trkpt lat="49.05418" lon="6.93856">
        <ele>244.8</ele>
        <time>2012-10-24T09:10:22Z</time>
      </trkpt>
      <trkpt lat="49.05417" lon="6.93843">
        <ele>245.3</ele>
        <time>2012-10-24T09:10:28Z</time>
      </trkpt>
      <trkpt lat="49.05416" lon="6.9383">
        <ele>246.2</ele>
        <time>2012-10-24T09:10:35Z</time>
      </trkpt>
      <trkpt lat="49.05415" lon="6.93818">
        <ele>246.9</ele>
        <time>2012-10-24T09:10:42Z</time>
      </trkpt>
      <trkpt lat="49.05415" lon="6.93805">
        <ele>247.1</ele>
        <time>2012-10-24T09:10:49Z</time>
      </trkpt>
      <trkpt lat="49.05414" lon="6.93793">
        <ele>247</ele>
        <time>2012-10-24T09:10:55Z</time>
      </trkpt>
      <trkpt lat="49.05413" lon="6.93791">
        <ele>247.1</ele>
        <time>2012-10-24T09:10:56Z</time>
      </trkpt>
      <trkpt lat="49.05409" lon="6.9377">
        <ele>247.3</ele>
        <time>2012-10-24T09:11:07Z</time>
      </trkpt>
      <trkpt lat="49.05406" lon="6.93758">
        <ele>246.8</ele>
        <time>2012-10-24T09:11:13Z</time>
      </trkpt>
      <trkpt lat="49.05403" lon="6.93746">
        <ele>247.6</ele>
        <time>2012-10-24T09:11:19Z</time>
      </trkpt>
      <trkpt lat="49.054" lon="6.93734">
        <ele>247.2</ele>
        <time>2012-10-24T09:11:26Z</time>
      </trkpt>
      <trkpt lat="49.05397" lon="6.93723">
        <ele>247.9</ele>
        <time>2012-10-24T09:11:32Z</time>
      </trkpt>
      <trkpt lat="49.05393" lon="6.93712">
        <ele>247</ele>
        <time>2012-10-24T09:11:38Z</time>
      </trkpt>
      <trkpt lat="49.0539" lon="6.937">
        <ele>247.4</ele>
        <time>2012-10-24T09:11:44Z</time>
      </trkpt>
      <trkpt lat="49.05387" lon="6.93689">
        <ele>246.9</ele>
        <time>2012-10-24T09:11:50Z</time>
      </trkpt>
      <trkpt lat="49.05384" lon="6.93677">
        <ele>246.8</ele>
        <time>2012-10-24T09:11:57Z</time>
      </trkpt>
      <trkpt lat="49.05383" lon="6.93675">
        <ele>247.1</ele>
        <time>2012-10-24T09:11:58Z</time>
      </trkpt>
      <trkpt lat="49.05377" lon="6.93654">
        <ele>247.8</ele>
        <time>2012-10-24T09:12:10Z</time>
      </trkpt>
      <trkpt lat="49.05371" lon="6.93644">
        <ele>247.6</ele>
        <time>2012-10-24T09:12:19Z</time>
      </trkpt>
      <trkpt lat="49.05364" lon="6.93639">
        <ele>247.6</ele>
        <time>2012-10-24T09:12:27Z</time>
      </trkpt>
      <trkpt lat="49.05356" lon="6.93634">
        <ele>247.3</ele>
        <time>2012-10-24T09:12:34Z</time>
      </trkpt>
      <trkpt lat="49.05348" lon="6.93629">
        <ele>246.8</ele>
        <time>2012-10-24T09:12:41Z</time>
      </trkpt>
      <trkpt lat="49.05341" lon="6.93623">
        <ele>246.9</ele>
        <time>2012-10-24T09:12:48Z</time>
      </trkpt>
      <trkpt lat="49.05334" lon="6.93618">
        <ele>245.9</ele>
        <time>2012-10-24T09:12:55Z</time>
      </trkpt>
      <trkpt lat="49.05326" lon="6.93613">
        <ele>246.5</ele>
        <time>2012-10-24T09:13:02Z</time>
      </trkpt>
      <trkpt lat="49.05325" lon="6.93613">
        <ele>246.7</ele>
        <time>2012-10-24T09:13:03Z</time>
      </trkpt>
      <trkpt lat="49.05311" lon="6.93602">
        <ele>246.6</ele>
        <time>2012-10-24T09:13:15Z</time>
      </trkpt>
      <trkpt lat="49.05305" lon="6.93595">
        <ele>245.8</ele>
        <time>2012-10-24T09:13:21Z</time>
      </trkpt>
      <trkpt lat="49.053" lon="6.93586">
        <ele>245.9</ele>
        <time>2012-10-24T09:13:27Z</time>
      </trkpt>
      <trkpt lat="49.05295" lon="6.93577">
        <ele>245.5</ele>
        <time>2012-10-24T09:13:33Z</time>
      </trkpt>
      <trkpt lat="49.0529" lon="6.93568">
        <ele>244.9</ele>
        <time>2012-10-24T09:13:39Z</time>
      </trkpt>
      <trkpt lat="49.05285" lon="6.93557">
        <ele>244.6</ele>
        <time>2012-10-24T09:13:45Z</time>
      </trkpt>
      <trkpt lat="49.05279" lon="6.93546">
        <ele>244.4</ele>
        <time>2012-10-24T09:13:51Z</time>
      </trkpt>
      <trkpt lat="49.05274" lon="6.93535">
        <ele>244.1</ele>
        <time>2012-10-24T09:13:57Z</time>
      </trkpt>
      <trkpt lat="49.0527" lon="6.93525">
        <ele>244.2</ele>
        <time>2012-10-24T09:14:03Z</time>
      </trkpt>
      <trkpt lat="49.05269" lon="6.93524">
        <ele>244.1</ele>
        <time>2012-10-24T09:14:04Z</time>
      </trkpt>
      <trkpt lat="49.0526" lon="6.93506">
        <ele>242.8</ele>
        <time>2012-10-24T09:14:16Z</time>
      </trkpt>
      <trkpt lat="49.05255" lon="6.93495">
        <ele>242.4</ele>
        <time>2012-10-24T09:14:22Z</time>
      </trkpt>
      <trkpt lat="49.05251" lon="6.93485">
        <ele>241.9</ele>
        <time>2012-10-24T09:14:28Z</time>
      </trkpt>
      <trkpt lat="49.05246" lon="6.93475">
        <ele>241.7</ele>
        <time>2012-10-24T09:14:34Z</time>
      </trkpt>
      <trkpt lat="49.05241" lon="6.93465">
        <ele>241.6</ele>
        <time>2012-10-24T09:14:40Z</time>
      </trkpt>
      <trkpt lat="49.05236" lon="6.93454">
        <ele>241.3</ele>
        <time>2012-10-24T09:14:47Z</time>
      </trkpt>
      <trkpt lat="49.05231" lon="6.93443">
        <ele>241.3</ele>
        <time>2012-10-24T09:14:54Z</time>
      </trkpt>
      <trkpt lat="49.05227" lon="6.93432">
        <ele>240.3</ele>
        <time>2012-10-24T09:15:00Z</time>
      </trkpt>
      <trkpt lat="49.05223" lon="6.93421">
        <ele>239.8</ele>
        <time>2012-10-24T09:15:07Z</time>
      </trkpt>
      <trkpt lat="49.05222" lon="6.93419">
        <ele>239.8</ele>
        <time>2012-10-24T09:15:08Z</time>
      </trkpt>
      <trkpt lat="49.05216" lon="6.93397">
        <ele>240</ele>
        <time>2012-10-24T09:15:20Z</time>
      </trkpt>
      <trkpt lat="49.05213" lon="6.93386">
        <ele>238.9</ele>
        <time>2012-10-24T09:15:26Z</time>
      </trkpt>
      <trkpt lat="49.05209" lon="6.93375">
        <ele>238.4</ele>
        <time>2012-10-24T09:15:32Z</time>
      </trkpt>
      <trkpt lat="49.05206" lon="6.93364">
        <ele>237.4</ele>
        <time>2012-10-24T09:15:38Z</time>
      </trkpt>
      <trkpt lat="49.05203" lon="6.93352">
        <ele>237.6</ele>
        <time>2012-10-24T09:15:45Z</time>
      </trkpt>
      <trkpt lat="49.05199" lon="6.9334">
        <ele>238.4</ele>
        <time>2012-10-24T09:15:52Z</time>
      </trkpt>
      <trkpt lat="49.05195" lon="6.93328">
        <ele>237.5</ele>
        <time>2012-10-24T09:15:59Z</time>
      </trkpt>
      <trkpt lat="49.05191" lon="6.93315">
        <ele>236.7</ele>
        <time>2012-10-24T09:16:06Z</time>
      </trkpt>
      <trkpt lat="49.05188" lon="6.93305">
        <ele>236.6</ele>
        <time>2012-10-24T09:16:12Z</time>
      </trkpt>
      <trkpt lat="49.05188" lon="6.93303">
        <ele>236.5</ele>
        <time>2012-10-24T09:16:13Z</time>
      </trkpt>
      <trkpt lat="49.05182" lon="6.93281">
        <ele>235.2</ele>
        <time>2012-10-24T09:16:26Z</time>
      </trkpt>
      <trkpt lat="49.05178" lon="6.93268">
        <ele>235.4</ele>
        <time>2012-10-24T09:16:33Z</time>
      </trkpt>
      <trkpt lat="49.05175" lon="6.93257">
        <ele>234.8</ele>
        <time>2012-10-24T09:16:39Z</time>
      </trkpt>
      <trkpt lat="49.05171" lon="6.93245">
        <ele>234.8</ele>
        <time>2012-10-24T09:16:46Z</time>
      </trkpt>
      <trkpt lat="49.05167" lon="6.93234">
        <ele>234.1</ele>
        <time>2012-10-24T09:16:53Z</time>
      </trkpt>
      <trkpt lat="49.05164" lon="6.93223">
        <ele>234</ele>
        <time>2012-10-24T09:16:59Z</time>
      </trkpt>
      <trkpt lat="49.05161" lon="6.93211">
        <ele>234</ele>
        <time>2012-10-24T09:17:06Z</time>
      </trkpt>
      <trkpt lat="49.05158" lon="6.932">
        <ele>233.5</ele>
        <time>2012-10-24T09:17:12Z</time>
      </trkpt>
      <trkpt lat="49.05154" lon="6.93189">
        <ele>233.3</ele>
        <time>2012-10-24T09:17:18Z</time>
      </trkpt>
      <trkpt lat="49.05153" lon="6.93188">
        <ele>233.1</ele>
        <time>2012-10-24T09:17:19Z</time>
      </trkpt>
      <trkpt lat="49.05147" lon="6.93165">
        <ele>232.5</ele>
        <time>2012-10-24T09:17:32Z</time>
      </trkpt>
      <trkpt lat="49.05145" lon="6.93154">
        <ele>232</ele>
        <time>2012-10-24T09:17:38Z</time>
      </trkpt>
      <trkpt lat="49.05142" lon="6.93143">
        <ele>231.5</ele>
        <time>2012-10-24T09:17:44Z</time>
      </trkpt>
      <trkpt lat="49.05138" lon="6.93131">
        <ele>231.6</ele>
        <time>2012-10-24T09:17:51Z</time>
      </trkpt>
      <trkpt lat="49.05136" lon="6.93119">
        <ele>230.9</ele>
        <time>2012-10-24T09:17:57Z</time>
      </trkpt>
      <trkpt lat="49.05134" lon="6.93108">
        <ele>231.3</ele>
        <time>2012-10-24T09:18:03Z</time>
      </trkpt>
      <trkpt lat="49.05135" lon="6.93094">
        <ele>230.8</ele>
        <time>2012-10-24T09:18:12Z</time>
      </trkpt>
      <trkpt lat="49.05141" lon="6.93086">
        <ele>231.4</ele>
        <time>2012-10-24T09:18:18Z</time>
      </trkpt>
      <trkpt lat="49.05148" lon="6.93078">
        <ele>230.8</ele>
        <time>2012-10-24T09:18:24Z</time>
      </trkpt>
      <trkpt lat="49.05149" lon="6.93077">
        <ele>230.8</ele>
        <time>2012-10-24T09:18:25Z</time>
      </trkpt>
      <trkpt lat="49.05163" lon="6.93066">
        <ele>230.2</ele>
        <time>2012-10-24T09:18:35Z</time>
      </trkpt>
      <trkpt lat="49.05171" lon="6.9306">
        <ele>231</ele>
        <time>2012-10-24T09:18:42Z</time>
      </trkpt>
      <trkpt lat="49.05178" lon="6.93053">
        <ele>231.2</ele>
        <time>2012-10-24T09:18:51Z</time>
      </trkpt>
      <trkpt lat="49.05184" lon="6.93043">
        <ele>231.1</ele>
        <time>2012-10-24T09:20:46Z</time>
      </trkpt>
      <trkpt lat="49.05184" lon="6.93043">
        <ele>231.2</ele>
        <time>2012-10-24T09:20:47Z</time>
      </trkpt>
      <trkpt lat="49.052" lon="6.93034">
        <ele>230.7</ele>
        <time>2012-10-24T09:21:04Z</time>
      </trkpt>
      <trkpt lat="49.05207" lon="6.93029">
        <ele>230.6</ele>
        <time>2012-10-24T09:21:10Z</time>
      </trkpt>
      <trkpt lat="49.05215" lon="6.93026">
        <ele>231.5</ele>
        <time>2012-10-24T09:21:16Z</time>
      </trkpt>
      <trkpt lat="49.05223" lon="6.93022">
        <ele>230.8</ele>
        <time>2012-10-24T09:21:23Z</time>
      </trkpt>
      <trkpt lat="49.05231" lon="6.93018">
        <ele>230.8</ele>
        <time>2012-10-24T09:21:31Z</time>
      </trkpt>
      <trkpt lat="49.0524" lon="6.93016">
        <ele>231.2</ele>
        <time>2012-10-24T09:21:38Z</time>
      </trkpt>
      <trkpt lat="49.05248" lon="6.93013">
        <ele>231.8</ele>
        <time>2012-10-24T09:21:44Z</time>
      </trkpt>
      <trkpt lat="49.05256" lon="6.93008">
        <ele>232.3</ele>
        <time>2012-10-24T09:21:50Z</time>
      </trkpt>
      <trkpt lat="49.05257" lon="6.93007">
        <ele>232.2</ele>
        <time>2012-10-24T09:21:51Z</time>
      </trkpt>
      <trkpt lat="49.05271" lon="6.93005">
        <ele>232.6</ele>
        <time>2012-10-24T09:22:03Z</time>
      </trkpt>
      <trkpt lat="49.05279" lon="6.93006">
        <ele>232.7</ele>
        <time>2012-10-24T09:22:09Z</time>
      </trkpt>
      <trkpt lat="49.05287" lon="6.93003">
        <ele>233.1</ele>
        <time>2012-10-24T09:22:15Z</time>
      </trkpt>
      <trkpt lat="49.05295" lon="6.93003">
        <ele>232.9</ele>
        <time>2012-10-24T09:22:20Z</time>
      </trkpt>
      <trkpt lat="49.05303" lon="6.93004">
        <ele>233</ele>
        <time>2012-10-24T09:22:26Z</time>
      </trkpt>
      <trkpt lat="49.05312" lon="6.93003">
        <ele>232.4</ele>
        <time>2012-10-24T09:22:34Z</time>
      </trkpt>
      <trkpt lat="49.0532" lon="6.93001">
        <ele>232.9</ele>
        <time>2012-10-24T09:22:41Z</time>
      </trkpt>
      <trkpt lat="49.05328" lon="6.93">
        <ele>232.8</ele>
        <time>2012-10-24T09:22:47Z</time>
      </trkpt>
      <trkpt lat="49.05337" lon="6.92998">
        <ele>232.9</ele>
        <time>2012-10-24T09:22:54Z</time>
      </trkpt>
      <trkpt lat="49.05338" lon="6.92998">
        <ele>232.8</ele>
        <time>2012-10-24T09:22:55Z</time>
      </trkpt>
      <trkpt lat="49.05354" lon="6.92994">
        <ele>232.6</ele>
        <time>2012-10-24T09:23:09Z</time>
      </trkpt>
      <trkpt lat="49.05362" lon="6.92992">
        <ele>233.2</ele>
        <time>2012-10-24T09:23:17Z</time>
      </trkpt>
      <trkpt lat="49.0537" lon="6.92987">
        <ele>232.6</ele>
        <time>2012-10-24T09:23:23Z</time>
      </trkpt>
      <trkpt lat="49.05379" lon="6.92985">
        <ele>232.8</ele>
        <time>2012-10-24T09:23:29Z</time>
      </trkpt>
      <trkpt lat="49.05387" lon="6.92985">
        <ele>233</ele>
        <time>2012-10-24T09:23:35Z</time>
      </trkpt>
      <trkpt lat="49.05394" lon="6.92982">
        <ele>233.4</ele>
        <time>2012-10-24T09:23:41Z</time>
      </trkpt>
      <trkpt lat="49.05402" lon="6.92975">
        <ele>234.7</ele>
        <time>2012-10-24T09:23:49Z</time>
      </trkpt>
      <trkpt lat="49.0541" lon="6.92968">
        <ele>234.8</ele>
        <time>2012-10-24T09:23:56Z</time>
      </trkpt>
      <trkpt lat="49.05411" lon="6.92966">
        <ele>235</ele>
        <time>2012-10-24T09:23:57Z</time>
      </trkpt>
      <trkpt lat="49.05424" lon="6.92956">
        <ele>235.5</ele>
        <time>2012-10-24T09:24:08Z</time>
      </trkpt>
      <trkpt lat="49.05432" lon="6.92956">
        <ele>236.1</ele>
        <time>2012-10-24T09:24:14Z</time>
      </trkpt>
      <trkpt lat="49.05439" lon="6.92962">
        <ele>236.7</ele>
        <time>2012-10-24T09:24:19Z</time>
      </trkpt>
      <trkpt lat="49.05445" lon="6.92969">
        <ele>237.2</ele>
        <time>2012-10-24T09:24:24Z</time>
      </trkpt>
      <trkpt lat="49.05452" lon="6.92978">
        <ele>237.5</ele>
        <time>2012-10-24T09:24:29Z</time>
      </trkpt>
      <trkpt lat="49.05457" lon="6.92988">
        <ele>237.6</ele>
        <time>2012-10-24T09:24:34Z</time>
      </trkpt>
      <trkpt lat="49.05462" lon="6.92999">
        <ele>238.1</ele>
        <time>2012-10-24T09:24:39Z</time>
      </trkpt>
      <trkpt lat="49.05468" lon="6.93008">
        <ele>238.3</ele>
        <time>2012-10-24T09:24:44Z</time>
      </trkpt>
      <trkpt lat="49.05474" lon="6.93017">
        <ele>239.1</ele>
        <time>2012-10-24T09:24:49Z</time>
      </trkpt>
      <trkpt lat="49.0548" lon="6.93027">
        <ele>238.5</ele>
        <time>2012-10-24T09:24:55Z</time>
      </trkpt>
      <trkpt lat="49.05486" lon="6.93037">
        <ele>238.3</ele>
        <time>2012-10-24T09:25:01Z</time>
      </trkpt>
      <trkpt lat="49.05487" lon="6.93038">
        <ele>238.7</ele>
        <time>2012-10-24T09:25:02Z</time>
      </trkpt>
      <trkpt lat="49.05498" lon="6.93054">
        <ele>239.8</ele>
        <time>2012-10-24T09:25:12Z</time>
      </trkpt>
      <trkpt lat="49.05504" lon="6.93064">
        <ele>240.5</ele>
        <time>2012-10-24T09:25:18Z</time>
      </trkpt>
      <trkpt lat="49.0551" lon="6.93073">
        <ele>241</ele>
        <time>2012-10-24T09:25:25Z</time>
      </trkpt>
      <trkpt lat="49.05516" lon="6.93082">
        <ele>240.2</ele>
        <time>2012-10-24T09:25:31Z</time>
      </trkpt>
      <trkpt lat="49.05522" lon="6.93092">
        <ele>241.2</ele>
        <time>2012-10-24T09:25:37Z</time>
      </trkpt>
      <trkpt lat="49.05527" lon="6.931">
        <ele>241.7</ele>
        <time>2012-10-24T09:25:42Z</time>
      </trkpt>
      <trkpt lat="49.05533" lon="6.9311">
        <ele>242.4</ele>
        <time>2012-10-24T09:25:48Z</time>
      </trkpt>
      <trkpt lat="49.05539" lon="6.93119">
        <ele>243</ele>
        <time>2012-10-24T09:25:54Z</time>
      </trkpt>
      <trkpt lat="49.05544" lon="6.93129">
        <ele>243.2</ele>
        <time>2012-10-24T09:26:00Z</time>
      </trkpt>
      <trkpt lat="49.05549" lon="6.93138">
        <ele>243.6</ele>
        <time>2012-10-24T09:26:06Z</time>
      </trkpt>
      <trkpt lat="49.0555" lon="6.9314">
        <ele>243.5</ele>
        <time>2012-10-24T09:26:07Z</time>
      </trkpt>
      <trkpt lat="49.05561" lon="6.93155">
        <ele>244.8</ele>
        <time>2012-10-24T09:26:18Z</time>
      </trkpt>
      <trkpt lat="49.05567" lon="6.93163">
        <ele>245.8</ele>
        <time>2012-10-24T09:26:23Z</time>
      </trkpt>
      <trkpt lat="49.05573" lon="6.93171">
        <ele>246.6</ele>
        <time>2012-10-24T09:26:29Z</time>
      </trkpt>
      <trkpt lat="49.05579" lon="6.93181">
        <ele>246.6</ele>
        <time>2012-10-24T09:26:35Z</time>
      </trkpt>
      <trkpt lat="49.05584" lon="6.93191">
        <ele>247.5</ele>
        <time>2012-10-24T09:26:41Z</time>
      </trkpt>
      <trkpt lat="49.0559" lon="6.932">
        <ele>248.5</ele>
        <time>2012-10-24T09:26:47Z</time>
      </trkpt>
      <trkpt lat="49.05596" lon="6.93209">
        <ele>249.3</ele>
        <time>2012-10-24T09:26:53Z</time>
      </trkpt>
      <trkpt lat="49.05601" lon="6.93218">
        <ele>249.7</ele>
        <time>2012-10-24T09:26:59Z</time>
      </trkpt>
      <trkpt lat="49.05606" lon="6.93228">
        <ele>250.7</ele>
        <time>2012-10-24T09:27:06Z</time>
      </trkpt>
      <trkpt lat="49.05612" lon="6.93239">
        <ele>250.3</ele>
        <time>2012-10-24T09:27:13Z</time>
      </trkpt>
      <trkpt lat="49.05612" lon="6.93241">
        <ele>250.4</ele>
        <time>2012-10-24T09:27:14Z</time>
      </trkpt>
      <trkpt lat="49.05623" lon="6.93258">
        <ele>251.7</ele>
        <time>2012-10-24T09:27:25Z</time>
      </trkpt>
      <trkpt lat="49.05628" lon="6.93267">
        <ele>252.2</ele>
        <time>2012-10-24T09:27:31Z</time>
      </trkpt>
      <trkpt lat="49.05634" lon="6.93276">
        <ele>252</ele>
        <time>2012-10-24T09:27:37Z</time>
      </trkpt>
      <trkpt lat="49.0564" lon="6.93284">
        <ele>252.7</ele>
        <time>2012-10-24T09:27:43Z</time>
      </trkpt>
      <trkpt lat="49.05645" lon="6.93295">
        <ele>252.8</ele>
        <time>2012-10-24T09:27:50Z</time>
      </trkpt>
      <trkpt lat="49.0565" lon="6.93304">
        <ele>252.7</ele>
        <time>2012-10-24T09:27:57Z</time>
      </trkpt>
      <trkpt lat="49.05656" lon="6.93312">
        <ele>252.1</ele>
        <time>2012-10-24T09:28:03Z</time>
      </trkpt>
      <trkpt lat="49.05661" lon="6.93321">
        <ele>253.8</ele>
        <time>2012-10-24T09:28:09Z</time>
      </trkpt>
      <trkpt lat="49.05667" lon="6.93329">
        <ele>253</ele>
        <time>2012-10-24T09:28:15Z</time>
      </trkpt>
      <trkpt lat="49.05667" lon="6.93331">
        <ele>252.8</ele>
        <time>2012-10-24T09:28:16Z</time>
      </trkpt>
      <trkpt lat="49.05677" lon="6.93347">
        <ele>253.6</ele>
        <time>2012-10-24T09:28:27Z</time>
      </trkpt>
      <trkpt lat="49.05683" lon="6.93357">
        <ele>252.9</ele>
        <time>2012-10-24T09:28:33Z</time>
      </trkpt>
      <trkpt lat="49.05689" lon="6.93366">
        <ele>252.4</ele>
        <time>2012-10-24T09:28:39Z</time>
      </trkpt>
      <trkpt lat="49.05695" lon="6.93376">
        <ele>252.3</ele>
        <time>2012-10-24T09:28:45Z</time>
      </trkpt>
      <trkpt lat="49.057" lon="6.93385">
        <ele>251.8</ele>
        <time>2012-10-24T09:28:51Z</time>
      </trkpt>
      <trkpt lat="49.05705" lon="6.93396">
        <ele>251.6</ele>
        <time>2012-10-24T09:28:58Z</time>
      </trkpt>
      <trkpt lat="49.05712" lon="6.93403">
        <ele>251.5</ele>
        <time>2012-10-24T09:29:04Z</time>
      </trkpt>
      <trkpt lat="49.05717" lon="6.93412">
        <ele>249.8</ele>
        <time>2012-10-24T09:29:10Z</time>
      </trkpt>
      <trkpt lat="49.05723" lon="6.93421">
        <ele>250.3</ele>
        <time>2012-10-24T09:29:16Z</time>
      </trkpt>
      <trkpt lat="49.05724" lon="6.93422">
        <ele>250.4</ele>
        <time>2012-10-24T09:29:17Z</time>
      </trkpt>
      <trkpt lat="49.05734" lon="6.93439">
        <ele>248.5</ele>
        <time>2012-10-24T09:29:29Z</time>
      </trkpt>
      <trkpt lat="49.05739" lon="6.93449">
        <ele>247.5</ele>
        <time>2012-10-24T09:29:36Z</time>
      </trkpt>
      <trkpt lat="49.05745" lon="6.93458">
        <ele>247.2</ele>
        <time>2012-10-24T09:29:42Z</time>
      </trkpt>
      <trkpt lat="49.05751" lon="6.93468">
        <ele>247.3</ele>
        <time>2012-10-24T09:29:48Z</time>
      </trkpt>
      <trkpt lat="49.05756" lon="6.93476">
        <ele>246.8</ele>
        <time>2012-10-24T09:29:54Z</time>
      </trkpt>
      <trkpt lat="49.05761" lon="6.93485">
        <ele>245.5</ele>
        <time>2012-10-24T09:30:00Z</time>
      </trkpt>
      <trkpt lat="49.05767" lon="6.93494">
        <ele>245.1</ele>
        <time>2012-10-24T09:30:06Z</time>
      </trkpt>
      <trkpt lat="49.05773" lon="6.93504">
        <ele>244.5</ele>
        <time>2012-10-24T09:30:13Z</time>
      </trkpt>
      <trkpt lat="49.05779" lon="6.93513">
        <ele>244.4</ele>
        <time>2012-10-24T09:30:20Z</time>
      </trkpt>
      <trkpt lat="49.0578" lon="6.93515">
        <ele>244.1</ele>
        <time>2012-10-24T09:30:21Z</time>
      </trkpt>
      <trkpt lat="49.0579" lon="6.93532">
        <ele>242.9</ele>
        <time>2012-10-24T09:30:33Z</time>
      </trkpt>
      <trkpt lat="49.05796" lon="6.93541">
        <ele>241.6</ele>
        <time>2012-10-24T09:30:39Z</time>
      </trkpt>
      <trkpt lat="49.05802" lon="6.9355">
        <ele>242.4</ele>
        <time>2012-10-24T09:30:46Z</time>
      </trkpt>
      <trkpt lat="49.05808" lon="6.93559">
        <ele>241.8</ele>
        <time>2012-10-24T09:30:53Z</time>
      </trkpt>
      <trkpt lat="49.05814" lon="6.93569">
        <ele>240.8</ele>
        <time>2012-10-24T09:31:00Z</time>
      </trkpt>
      <trkpt lat="49.05818" lon="6.93579">
        <ele>241.1</ele>
        <time>2012-10-24T09:31:07Z</time>
      </trkpt>
      <trkpt lat="49.05824" lon="6.93589">
        <ele>240.9</ele>
        <time>2012-10-24T09:31:14Z</time>
      </trkpt>
      <trkpt lat="49.05829" lon="6.936">
        <ele>240.5</ele>
        <time>2012-10-24T09:31:21Z</time>
      </trkpt>
      <trkpt lat="49.0583" lon="6.93601">
        <ele>240.7</ele>
        <time>2012-10-24T09:31:22Z</time>
      </trkpt>
      <trkpt lat="49.0584" lon="6.93619">
        <ele>240.4</ele>
        <time>2012-10-24T09:31:34Z</time>
      </trkpt>
      <trkpt lat="49.05845" lon="6.93628">
        <ele>240.7</ele>
        <time>2012-10-24T09:31:41Z</time>
      </trkpt>
      <trkpt lat="49.05851" lon="6.93639">
        <ele>240.2</ele>
        <time>2012-10-24T09:31:49Z</time>
      </trkpt>
      <trkpt lat="49.05857" lon="6.93649">
        <ele>240.1</ele>
        <time>2012-10-24T09:31:56Z</time>
      </trkpt>
      <trkpt lat="49.05863" lon="6.93659">
        <ele>240.3</ele>
        <time>2012-10-24T09:32:03Z</time>
      </trkpt>
      <trkpt lat="49.05869" lon="6.93669">
        <ele>240.3</ele>
        <time>2012-10-24T09:32:10Z</time>
      </trkpt>
      <trkpt lat="49.05866" lon="6.93681">
        <ele>240.9</ele>
        <time>2012-10-24T09:32:22Z</time>
      </trkpt>
      <trkpt lat="49.05865" lon="6.93682">
        <ele>240.9</ele>
        <time>2012-10-24T09:32:23Z</time>
      </trkpt>
      <trkpt lat="49.05854" lon="6.93701">
        <ele>240.2</ele>
        <time>2012-10-24T09:32:38Z</time>
      </trkpt>
      <trkpt lat="49.05851" lon="6.93713">
        <ele>239.8</ele>
        <time>2012-10-24T09:32:52Z</time>
      </trkpt>
      <trkpt lat="49.05852" lon="6.93726">
        <ele>240</ele>
        <time>2012-10-24T09:33:31Z</time>
      </trkpt>
      <trkpt lat="49.05852" lon="6.93727">
        <ele>240</ele>
        <time>2012-10-24T09:33:32Z</time>
      </trkpt>
      <trkpt lat="49.05849" lon="6.93723">
        <ele>241.5</ele>
        <time>2012-10-24T09:34:30Z</time>
      </trkpt>
    </trkseg>
  </trk>
</gpx>